<?xml version="1.0" encoding="UTF-8" standalone="no" ?>
<gpx xmlns="http://www.topografix.com/GPX/1/1" xmlns:xsi="http://www.w3.org/2001/XMLSchema-instance" xsi:schemaLocation="http://www.topografix.com/GPX/1/1 http://www.topografix.com/GPX/1/1/gpx.xsd" version="1.1" creator="VisuGPX - https://www.visugpx.com">
  <metadata>
    <name>Col du Marchand-La Vieille</name>
    <desc><![CDATA[Parcours entre le Col du Marchand et le gîte de La Vieille à Bozas.]]></desc>
  </metadata>
  <trk>
    <name><![CDATA[20180411141552-SMN4z]]></name>
    <trkseg>
      <trkpt lat="45.04748" lon="4.63033">
        <ele>621</ele>
        <time>2018-04-11T09:21:45Z</time>
      </trkpt>
      <trkpt lat="45.04747" lon="4.63028">
        <ele>622</ele>
        <time>2018-04-11T09:22:45Z</time>
      </trkpt>
      <trkpt lat="45.04746" lon="4.63018">
        <ele>624</ele>
        <time>2018-04-11T09:23:45Z</time>
      </trkpt>
      <trkpt lat="45.04742" lon="4.63007">
        <ele>626</ele>
        <time>2018-04-11T09:24:45Z</time>
      </trkpt>
      <trkpt lat="45.04736" lon="4.62995">
        <ele>628</ele>
        <time>2018-04-11T09:25:45Z</time>
      </trkpt>
      <trkpt lat="45.04733" lon="4.62988">
        <ele>628</ele>
        <time>2018-04-11T09:26:45Z</time>
      </trkpt>
      <trkpt lat="45.0473" lon="4.62983">
        <ele>627</ele>
        <time>2018-04-11T09:27:45Z</time>
      </trkpt>
      <trkpt lat="45.04726" lon="4.62978">
        <ele>627</ele>
        <time>2018-04-11T09:28:45Z</time>
      </trkpt>
      <trkpt lat="45.04721" lon="4.62971">
        <ele>627</ele>
        <time>2018-04-11T09:29:45Z</time>
      </trkpt>
      <trkpt lat="45.04713" lon="4.6296">
        <ele>627</ele>
        <time>2018-04-11T09:30:45Z</time>
      </trkpt>
      <trkpt lat="45.04701" lon="4.62934">
        <ele>627</ele>
        <time>2018-04-11T09:31:45Z</time>
      </trkpt>
      <trkpt lat="45.04695" lon="4.62919">
        <ele>627</ele>
        <time>2018-04-11T09:32:45Z</time>
      </trkpt>
      <trkpt lat="45.04692" lon="4.62907">
        <ele>633</ele>
        <time>2018-04-11T09:33:45Z</time>
      </trkpt>
      <trkpt lat="45.04685" lon="4.62887">
        <ele>634</ele>
        <time>2018-04-11T09:34:45Z</time>
      </trkpt>
      <trkpt lat="45.04685" lon="4.62887">
        <ele>634</ele>
        <time>2018-04-11T09:35:45Z</time>
      </trkpt>
      <trkpt lat="45.04693" lon="4.62893">
        <ele>634</ele>
        <time>2018-04-11T09:36:45Z</time>
      </trkpt>
      <trkpt lat="45.04702" lon="4.62895">
        <ele>635</ele>
        <time>2018-04-11T09:37:45Z</time>
      </trkpt>
      <trkpt lat="45.04718" lon="4.62899">
        <ele>637</ele>
        <time>2018-04-11T09:38:45Z</time>
      </trkpt>
      <trkpt lat="45.04729" lon="4.62903">
        <ele>639</ele>
        <time>2018-04-11T09:39:45Z</time>
      </trkpt>
      <trkpt lat="45.04747" lon="4.62916">
        <ele>641</ele>
        <time>2018-04-11T09:40:45Z</time>
      </trkpt>
      <trkpt lat="45.04759" lon="4.62927">
        <ele>643</ele>
        <time>2018-04-11T09:41:45Z</time>
      </trkpt>
      <trkpt lat="45.04773" lon="4.62929">
        <ele>645</ele>
        <time>2018-04-11T09:42:45Z</time>
      </trkpt>
      <trkpt lat="45.04782" lon="4.62927">
        <ele>646</ele>
        <time>2018-04-11T09:43:45Z</time>
      </trkpt>
      <trkpt lat="45.04787" lon="4.62927">
        <ele>647</ele>
        <time>2018-04-11T09:44:45Z</time>
      </trkpt>
      <trkpt lat="45.04791" lon="4.62928">
        <ele>647</ele>
        <time>2018-04-11T09:45:45Z</time>
      </trkpt>
      <trkpt lat="45.04794" lon="4.62929">
        <ele>648</ele>
        <time>2018-04-11T09:46:45Z</time>
      </trkpt>
      <trkpt lat="45.04795" lon="4.62932">
        <ele>648</ele>
        <time>2018-04-11T09:47:45Z</time>
      </trkpt>
      <trkpt lat="45.04798" lon="4.62936">
        <ele>648</ele>
        <time>2018-04-11T09:48:45Z</time>
      </trkpt>
      <trkpt lat="45.04801" lon="4.6294">
        <ele>648</ele>
        <time>2018-04-11T09:49:45Z</time>
      </trkpt>
      <trkpt lat="45.04806" lon="4.62948">
        <ele>648</ele>
        <time>2018-04-11T09:50:45Z</time>
      </trkpt>
      <trkpt lat="45.04815" lon="4.62958">
        <ele>648</ele>
        <time>2018-04-11T09:51:45Z</time>
      </trkpt>
      <trkpt lat="45.04815" lon="4.62958">
        <ele>648</ele>
        <time>2018-04-11T09:52:45Z</time>
      </trkpt>
      <trkpt lat="45.04813" lon="4.62951">
        <ele>648</ele>
        <time>2018-04-11T09:53:45Z</time>
      </trkpt>
      <trkpt lat="45.04805" lon="4.62922">
        <ele>650</ele>
        <time>2018-04-11T09:54:45Z</time>
      </trkpt>
      <trkpt lat="45.04798" lon="4.62899">
        <ele>655</ele>
        <time>2018-04-11T09:55:45Z</time>
      </trkpt>
      <trkpt lat="45.04789" lon="4.6288">
        <ele>655</ele>
        <time>2018-04-11T09:56:45Z</time>
      </trkpt>
      <trkpt lat="45.04782" lon="4.62858">
        <ele>655</ele>
        <time>2018-04-11T09:57:45Z</time>
      </trkpt>
      <trkpt lat="45.04779" lon="4.62844">
        <ele>655</ele>
        <time>2018-04-11T09:58:45Z</time>
      </trkpt>
      <trkpt lat="45.04778" lon="4.62827">
        <ele>661</ele>
        <time>2018-04-11T09:59:45Z</time>
      </trkpt>
      <trkpt lat="45.04778" lon="4.62814">
        <ele>662</ele>
        <time>2018-04-11T10:00:45Z</time>
      </trkpt>
      <trkpt lat="45.04776" lon="4.62794">
        <ele>663</ele>
        <time>2018-04-11T10:01:45Z</time>
      </trkpt>
      <trkpt lat="45.04774" lon="4.62782">
        <ele>664</ele>
        <time>2018-04-11T10:02:45Z</time>
      </trkpt>
      <trkpt lat="45.0477" lon="4.62769">
        <ele>664</ele>
        <time>2018-04-11T10:03:45Z</time>
      </trkpt>
      <trkpt lat="45.04763" lon="4.62748">
        <ele>669</ele>
        <time>2018-04-11T10:04:45Z</time>
      </trkpt>
      <trkpt lat="45.04758" lon="4.62739">
        <ele>669</ele>
        <time>2018-04-11T10:05:45Z</time>
      </trkpt>
      <trkpt lat="45.04752" lon="4.62733">
        <ele>670</ele>
        <time>2018-04-11T10:06:45Z</time>
      </trkpt>
      <trkpt lat="45.04746" lon="4.62728">
        <ele>664</ele>
        <time>2018-04-11T10:07:45Z</time>
      </trkpt>
      <trkpt lat="45.04738" lon="4.62722">
        <ele>665</ele>
        <time>2018-04-11T10:08:45Z</time>
      </trkpt>
      <trkpt lat="45.04726" lon="4.62717">
        <ele>665</ele>
        <time>2018-04-11T10:09:45Z</time>
      </trkpt>
      <trkpt lat="45.0471" lon="4.62709">
        <ele>665</ele>
        <time>2018-04-11T10:10:45Z</time>
      </trkpt>
      <trkpt lat="45.04696" lon="4.62704">
        <ele>665</ele>
        <time>2018-04-11T10:11:45Z</time>
      </trkpt>
      <trkpt lat="45.04685" lon="4.62702">
        <ele>665</ele>
        <time>2018-04-11T10:12:45Z</time>
      </trkpt>
      <trkpt lat="45.04678" lon="4.62702">
        <ele>665</ele>
        <time>2018-04-11T10:13:45Z</time>
      </trkpt>
      <trkpt lat="45.04678" lon="4.62702">
        <ele>665</ele>
        <time>2018-04-11T10:14:45Z</time>
      </trkpt>
      <trkpt lat="45.0467" lon="4.62701">
        <ele>665</ele>
        <time>2018-04-11T10:15:45Z</time>
      </trkpt>
      <trkpt lat="45.04666" lon="4.62698">
        <ele>656</ele>
        <time>2018-04-11T10:16:45Z</time>
      </trkpt>
      <trkpt lat="45.0466" lon="4.62691">
        <ele>657</ele>
        <time>2018-04-11T10:17:45Z</time>
      </trkpt>
      <trkpt lat="45.04657" lon="4.62684">
        <ele>659</ele>
        <time>2018-04-11T10:18:45Z</time>
      </trkpt>
      <trkpt lat="45.04655" lon="4.62671">
        <ele>661</ele>
        <time>2018-04-11T10:19:45Z</time>
      </trkpt>
      <trkpt lat="45.04654" lon="4.62605">
        <ele>664</ele>
        <time>2018-04-11T10:20:45Z</time>
      </trkpt>
      <trkpt lat="45.04654" lon="4.62594">
        <ele>666</ele>
        <time>2018-04-11T10:21:45Z</time>
      </trkpt>
      <trkpt lat="45.04655" lon="4.62587">
        <ele>668</ele>
        <time>2018-04-11T10:22:45Z</time>
      </trkpt>
      <trkpt lat="45.04655" lon="4.6258">
        <ele>669</ele>
        <time>2018-04-11T10:23:45Z</time>
      </trkpt>
      <trkpt lat="45.04656" lon="4.62575">
        <ele>668</ele>
        <time>2018-04-11T10:24:45Z</time>
      </trkpt>
      <trkpt lat="45.04663" lon="4.6255">
        <ele>666</ele>
        <time>2018-04-11T10:25:45Z</time>
      </trkpt>
      <trkpt lat="45.04673" lon="4.62514">
        <ele>680</ele>
        <time>2018-04-11T10:26:45Z</time>
      </trkpt>
      <trkpt lat="45.04676" lon="4.62494">
        <ele>680</ele>
        <time>2018-04-11T10:27:45Z</time>
      </trkpt>
      <trkpt lat="45.04681" lon="4.62464">
        <ele>686</ele>
        <time>2018-04-11T10:28:45Z</time>
      </trkpt>
      <trkpt lat="45.04683" lon="4.62457">
        <ele>686</ele>
        <time>2018-04-11T10:29:45Z</time>
      </trkpt>
      <trkpt lat="45.04686" lon="4.6245">
        <ele>687</ele>
        <time>2018-04-11T10:30:45Z</time>
      </trkpt>
      <trkpt lat="45.04689" lon="4.62441">
        <ele>687</ele>
        <time>2018-04-11T10:31:45Z</time>
      </trkpt>
      <trkpt lat="45.04692" lon="4.62432">
        <ele>687</ele>
        <time>2018-04-11T10:32:45Z</time>
      </trkpt>
      <trkpt lat="45.04694" lon="4.62423">
        <ele>687</ele>
        <time>2018-04-11T10:33:45Z</time>
      </trkpt>
      <trkpt lat="45.04693" lon="4.62419">
        <ele>687</ele>
        <time>2018-04-11T10:34:45Z</time>
      </trkpt>
      <trkpt lat="45.04693" lon="4.62415">
        <ele>691</ele>
        <time>2018-04-11T10:35:45Z</time>
      </trkpt>
      <trkpt lat="45.04691" lon="4.62406">
        <ele>691</ele>
        <time>2018-04-11T10:36:45Z</time>
      </trkpt>
      <trkpt lat="45.04685" lon="4.62377">
        <ele>694</ele>
        <time>2018-04-11T10:37:45Z</time>
      </trkpt>
      <trkpt lat="45.04682" lon="4.6235">
        <ele>694</ele>
        <time>2018-04-11T10:38:45Z</time>
      </trkpt>
      <trkpt lat="45.04679" lon="4.62334">
        <ele>693</ele>
        <time>2018-04-11T10:39:45Z</time>
      </trkpt>
      <trkpt lat="45.04677" lon="4.62323">
        <ele>697</ele>
        <time>2018-04-11T10:40:45Z</time>
      </trkpt>
      <trkpt lat="45.04676" lon="4.62315">
        <ele>699</ele>
        <time>2018-04-11T10:41:45Z</time>
      </trkpt>
      <trkpt lat="45.04668" lon="4.62272">
        <ele>701</ele>
        <time>2018-04-11T10:42:45Z</time>
      </trkpt>
      <trkpt lat="45.04666" lon="4.62263">
        <ele>693</ele>
        <time>2018-04-11T10:43:45Z</time>
      </trkpt>
      <trkpt lat="45.04667" lon="4.62258">
        <ele>699</ele>
        <time>2018-04-11T10:44:45Z</time>
      </trkpt>
      <trkpt lat="45.04668" lon="4.62251">
        <ele>698</ele>
        <time>2018-04-11T10:45:45Z</time>
      </trkpt>
      <trkpt lat="45.04672" lon="4.6224">
        <ele>701</ele>
        <time>2018-04-11T10:46:45Z</time>
      </trkpt>
      <trkpt lat="45.04686" lon="4.62206">
        <ele>706</ele>
        <time>2018-04-11T10:47:45Z</time>
      </trkpt>
      <trkpt lat="45.04688" lon="4.62196">
        <ele>706</ele>
        <time>2018-04-11T10:48:45Z</time>
      </trkpt>
      <trkpt lat="45.0469" lon="4.6219">
        <ele>706</ele>
        <time>2018-04-11T10:49:45Z</time>
      </trkpt>
      <trkpt lat="45.04692" lon="4.62178">
        <ele>705</ele>
        <time>2018-04-11T10:50:45Z</time>
      </trkpt>
      <trkpt lat="45.04694" lon="4.62167">
        <ele>705</ele>
        <time>2018-04-11T10:51:45Z</time>
      </trkpt>
      <trkpt lat="45.04697" lon="4.62156">
        <ele>703</ele>
        <time>2018-04-11T10:52:45Z</time>
      </trkpt>
      <trkpt lat="45.04699" lon="4.62153">
        <ele>703</ele>
        <time>2018-04-11T10:53:45Z</time>
      </trkpt>
      <trkpt lat="45.04701" lon="4.62149">
        <ele>704</ele>
        <time>2018-04-11T10:54:45Z</time>
      </trkpt>
      <trkpt lat="45.04705" lon="4.62144">
        <ele>704</ele>
        <time>2018-04-11T10:55:45Z</time>
      </trkpt>
      <trkpt lat="45.04708" lon="4.62141">
        <ele>704</ele>
        <time>2018-04-11T10:56:45Z</time>
      </trkpt>
      <trkpt lat="45.04716" lon="4.62136">
        <ele>705</ele>
        <time>2018-04-11T10:57:45Z</time>
      </trkpt>
      <trkpt lat="45.04728" lon="4.62124">
        <ele>706</ele>
        <time>2018-04-11T10:58:45Z</time>
      </trkpt>
      <trkpt lat="45.04734" lon="4.62119">
        <ele>706</ele>
        <time>2018-04-11T10:59:45Z</time>
      </trkpt>
      <trkpt lat="45.0475" lon="4.62102">
        <ele>707</ele>
        <time>2018-04-11T11:00:45Z</time>
      </trkpt>
      <trkpt lat="45.04773" lon="4.62078">
        <ele>715</ele>
        <time>2018-04-11T11:01:45Z</time>
      </trkpt>
      <trkpt lat="45.04785" lon="4.62064">
        <ele>718</ele>
        <time>2018-04-11T11:02:45Z</time>
      </trkpt>
      <trkpt lat="45.0479" lon="4.62058">
        <ele>719</ele>
        <time>2018-04-11T11:03:45Z</time>
      </trkpt>
      <trkpt lat="45.04794" lon="4.62053">
        <ele>719</ele>
        <time>2018-04-11T11:04:45Z</time>
      </trkpt>
      <trkpt lat="45.04797" lon="4.62045">
        <ele>720</ele>
        <time>2018-04-11T11:05:45Z</time>
      </trkpt>
      <trkpt lat="45.048" lon="4.62037">
        <ele>720</ele>
        <time>2018-04-11T11:06:45Z</time>
      </trkpt>
      <trkpt lat="45.04801" lon="4.62027">
        <ele>720</ele>
        <time>2018-04-11T11:07:45Z</time>
      </trkpt>
      <trkpt lat="45.04804" lon="4.62015">
        <ele>721</ele>
        <time>2018-04-11T11:08:45Z</time>
      </trkpt>
      <trkpt lat="45.04805" lon="4.62002">
        <ele>721</ele>
        <time>2018-04-11T11:09:45Z</time>
      </trkpt>
      <trkpt lat="45.04805" lon="4.61989">
        <ele>721</ele>
        <time>2018-04-11T11:10:45Z</time>
      </trkpt>
      <trkpt lat="45.04804" lon="4.61975">
        <ele>721</ele>
        <time>2018-04-11T11:11:45Z</time>
      </trkpt>
      <trkpt lat="45.04803" lon="4.61952">
        <ele>721</ele>
        <time>2018-04-11T11:12:45Z</time>
      </trkpt>
      <trkpt lat="45.04799" lon="4.61929">
        <ele>722</ele>
        <time>2018-04-11T11:13:45Z</time>
      </trkpt>
      <trkpt lat="45.04796" lon="4.61908">
        <ele>725</ele>
        <time>2018-04-11T11:14:45Z</time>
      </trkpt>
      <trkpt lat="45.04795" lon="4.61894">
        <ele>725</ele>
        <time>2018-04-11T11:15:45Z</time>
      </trkpt>
      <trkpt lat="45.04795" lon="4.61883">
        <ele>726</ele>
        <time>2018-04-11T11:16:45Z</time>
      </trkpt>
      <trkpt lat="45.04795" lon="4.61872">
        <ele>726</ele>
        <time>2018-04-11T11:17:45Z</time>
      </trkpt>
      <trkpt lat="45.04795" lon="4.61861">
        <ele>727</ele>
        <time>2018-04-11T11:18:45Z</time>
      </trkpt>
      <trkpt lat="45.04795" lon="4.6185">
        <ele>727</ele>
        <time>2018-04-11T11:19:45Z</time>
      </trkpt>
      <trkpt lat="45.04792" lon="4.61842">
        <ele>727</ele>
        <time>2018-04-11T11:20:45Z</time>
      </trkpt>
      <trkpt lat="45.04789" lon="4.61835">
        <ele>726</ele>
        <time>2018-04-11T11:21:45Z</time>
      </trkpt>
      <trkpt lat="45.0478" lon="4.61823">
        <ele>726</ele>
        <time>2018-04-11T11:22:45Z</time>
      </trkpt>
      <trkpt lat="45.04774" lon="4.61811">
        <ele>725</ele>
        <time>2018-04-11T11:23:45Z</time>
      </trkpt>
      <trkpt lat="45.04771" lon="4.61804">
        <ele>725</ele>
        <time>2018-04-11T11:24:45Z</time>
      </trkpt>
      <trkpt lat="45.04771" lon="4.61804">
        <ele>725</ele>
        <time>2018-04-11T11:25:45Z</time>
      </trkpt>
      <trkpt lat="45.04771" lon="4.61797">
        <ele>725</ele>
        <time>2018-04-11T11:26:45Z</time>
      </trkpt>
      <trkpt lat="45.04773" lon="4.61789">
        <ele>725</ele>
        <time>2018-04-11T11:27:45Z</time>
      </trkpt>
      <trkpt lat="45.04777" lon="4.61782">
        <ele>726</ele>
        <time>2018-04-11T11:28:45Z</time>
      </trkpt>
      <trkpt lat="45.04782" lon="4.61776">
        <ele>726</ele>
        <time>2018-04-11T11:29:45Z</time>
      </trkpt>
      <trkpt lat="45.04788" lon="4.61772">
        <ele>726</ele>
        <time>2018-04-11T11:30:45Z</time>
      </trkpt>
      <trkpt lat="45.04796" lon="4.6177">
        <ele>727</ele>
        <time>2018-04-11T11:31:45Z</time>
      </trkpt>
      <trkpt lat="45.04809" lon="4.61768">
        <ele>728</ele>
        <time>2018-04-11T11:32:45Z</time>
      </trkpt>
      <trkpt lat="45.04822" lon="4.61765">
        <ele>729</ele>
        <time>2018-04-11T11:33:45Z</time>
      </trkpt>
      <trkpt lat="45.04822" lon="4.61765">
        <ele>729</ele>
        <time>2018-04-11T11:34:45Z</time>
      </trkpt>
      <trkpt lat="45.04836" lon="4.6176">
        <ele>734</ele>
        <time>2018-04-11T11:35:45Z</time>
      </trkpt>
      <trkpt lat="45.04848" lon="4.61756">
        <ele>736</ele>
        <time>2018-04-11T11:36:45Z</time>
      </trkpt>
      <trkpt lat="45.04858" lon="4.61751">
        <ele>738</ele>
        <time>2018-04-11T11:37:45Z</time>
      </trkpt>
      <trkpt lat="45.0487" lon="4.61744">
        <ele>731</ele>
        <time>2018-04-11T11:38:45Z</time>
      </trkpt>
      <trkpt lat="45.04884" lon="4.61736">
        <ele>733</ele>
        <time>2018-04-11T11:39:45Z</time>
      </trkpt>
      <trkpt lat="45.04899" lon="4.61726">
        <ele>734</ele>
        <time>2018-04-11T11:40:45Z</time>
      </trkpt>
      <trkpt lat="45.04911" lon="4.61715">
        <ele>733</ele>
        <time>2018-04-11T11:41:45Z</time>
      </trkpt>
      <trkpt lat="45.04923" lon="4.61702">
        <ele>739</ele>
        <time>2018-04-11T11:42:45Z</time>
      </trkpt>
      <trkpt lat="45.04934" lon="4.6169">
        <ele>737</ele>
        <time>2018-04-11T11:43:45Z</time>
      </trkpt>
      <trkpt lat="45.04941" lon="4.61684">
        <ele>737</ele>
        <time>2018-04-11T11:44:45Z</time>
      </trkpt>
      <trkpt lat="45.04952" lon="4.61677">
        <ele>738</ele>
        <time>2018-04-11T11:45:45Z</time>
      </trkpt>
      <trkpt lat="45.04965" lon="4.61671">
        <ele>740</ele>
        <time>2018-04-11T11:46:45Z</time>
      </trkpt>
      <trkpt lat="45.04975" lon="4.61666">
        <ele>735</ele>
        <time>2018-04-11T11:47:45Z</time>
      </trkpt>
      <trkpt lat="45.04983" lon="4.6166">
        <ele>737</ele>
        <time>2018-04-11T11:48:45Z</time>
      </trkpt>
      <trkpt lat="45.0499" lon="4.61653">
        <ele>737</ele>
        <time>2018-04-11T11:49:45Z</time>
      </trkpt>
      <trkpt lat="45.04996" lon="4.61646">
        <ele>737</ele>
        <time>2018-04-11T11:50:45Z</time>
      </trkpt>
      <trkpt lat="45.05003" lon="4.61637">
        <ele>741</ele>
        <time>2018-04-11T11:51:45Z</time>
      </trkpt>
      <trkpt lat="45.0501" lon="4.61626">
        <ele>741</ele>
        <time>2018-04-11T11:52:45Z</time>
      </trkpt>
      <trkpt lat="45.05016" lon="4.61612">
        <ele>740</ele>
        <time>2018-04-11T11:53:45Z</time>
      </trkpt>
      <trkpt lat="45.0502" lon="4.61597">
        <ele>740</ele>
        <time>2018-04-11T11:54:45Z</time>
      </trkpt>
      <trkpt lat="45.05023" lon="4.61588">
        <ele>740</ele>
        <time>2018-04-11T11:55:45Z</time>
      </trkpt>
      <trkpt lat="45.05025" lon="4.61579">
        <ele>742</ele>
        <time>2018-04-11T11:56:45Z</time>
      </trkpt>
      <trkpt lat="45.05032" lon="4.61571">
        <ele>743</ele>
        <time>2018-04-11T11:57:45Z</time>
      </trkpt>
      <trkpt lat="45.05036" lon="4.61567">
        <ele>743</ele>
        <time>2018-04-11T11:58:45Z</time>
      </trkpt>
      <trkpt lat="45.05041" lon="4.6156">
        <ele>744</ele>
        <time>2018-04-11T11:59:45Z</time>
      </trkpt>
      <trkpt lat="45.05046" lon="4.6155">
        <ele>744</ele>
        <time>2018-04-11T12:00:45Z</time>
      </trkpt>
      <trkpt lat="45.05049" lon="4.61543">
        <ele>744</ele>
        <time>2018-04-11T12:01:45Z</time>
      </trkpt>
      <trkpt lat="45.05052" lon="4.61534">
        <ele>745</ele>
        <time>2018-04-11T12:02:45Z</time>
      </trkpt>
      <trkpt lat="45.05053" lon="4.61526">
        <ele>745</ele>
        <time>2018-04-11T12:03:45Z</time>
      </trkpt>
      <trkpt lat="45.05054" lon="4.61515">
        <ele>746</ele>
        <time>2018-04-11T12:04:45Z</time>
      </trkpt>
      <trkpt lat="45.05054" lon="4.61497">
        <ele>751</ele>
        <time>2018-04-11T12:05:45Z</time>
      </trkpt>
      <trkpt lat="45.05052" lon="4.6145">
        <ele>754</ele>
        <time>2018-04-11T12:06:45Z</time>
      </trkpt>
      <trkpt lat="45.05051" lon="4.61427">
        <ele>755</ele>
        <time>2018-04-11T12:07:45Z</time>
      </trkpt>
      <trkpt lat="45.05052" lon="4.61415">
        <ele>760</ele>
        <time>2018-04-11T12:08:45Z</time>
      </trkpt>
      <trkpt lat="45.05053" lon="4.614">
        <ele>760</ele>
        <time>2018-04-11T12:09:45Z</time>
      </trkpt>
      <trkpt lat="45.05055" lon="4.61377">
        <ele>761</ele>
        <time>2018-04-11T12:10:45Z</time>
      </trkpt>
      <trkpt lat="45.05056" lon="4.61363">
        <ele>761</ele>
        <time>2018-04-11T12:11:45Z</time>
      </trkpt>
      <trkpt lat="45.05058" lon="4.61345">
        <ele>760</ele>
        <time>2018-04-11T12:12:45Z</time>
      </trkpt>
      <trkpt lat="45.05061" lon="4.61332">
        <ele>761</ele>
        <time>2018-04-11T12:13:45Z</time>
      </trkpt>
      <trkpt lat="45.05061" lon="4.61324">
        <ele>761</ele>
        <time>2018-04-11T12:14:45Z</time>
      </trkpt>
      <trkpt lat="45.0506" lon="4.61312">
        <ele>763</ele>
        <time>2018-04-11T12:15:45Z</time>
      </trkpt>
      <trkpt lat="45.05058" lon="4.61303">
        <ele>763</ele>
        <time>2018-04-11T12:16:45Z</time>
      </trkpt>
      <trkpt lat="45.05056" lon="4.61292">
        <ele>764</ele>
        <time>2018-04-11T12:17:45Z</time>
      </trkpt>
      <trkpt lat="45.05024" lon="4.61161">
        <ele>767</ele>
        <time>2018-04-11T12:18:45Z</time>
      </trkpt>
      <trkpt lat="45.05006" lon="4.61099">
        <ele>771</ele>
        <time>2018-04-11T12:19:45Z</time>
      </trkpt>
      <trkpt lat="45.04981" lon="4.61027">
        <ele>785</ele>
        <time>2018-04-11T12:20:45Z</time>
      </trkpt>
      <trkpt lat="45.04932" lon="4.60893">
        <ele>784</ele>
        <time>2018-04-11T12:21:45Z</time>
      </trkpt>
      <trkpt lat="45.04899" lon="4.60794">
        <ele>803</ele>
        <time>2018-04-11T12:22:45Z</time>
      </trkpt>
      <trkpt lat="45.04896" lon="4.60784">
        <ele>804</ele>
        <time>2018-04-11T12:23:45Z</time>
      </trkpt>
      <trkpt lat="45.04895" lon="4.60776">
        <ele>803</ele>
        <time>2018-04-11T12:24:45Z</time>
      </trkpt>
      <trkpt lat="45.04895" lon="4.60769">
        <ele>803</ele>
        <time>2018-04-11T12:25:45Z</time>
      </trkpt>
      <trkpt lat="45.04896" lon="4.60761">
        <ele>802</ele>
        <time>2018-04-11T12:26:45Z</time>
      </trkpt>
      <trkpt lat="45.04896" lon="4.60754">
        <ele>801</ele>
        <time>2018-04-11T12:27:45Z</time>
      </trkpt>
      <trkpt lat="45.049" lon="4.60726">
        <ele>807</ele>
        <time>2018-04-11T12:28:45Z</time>
      </trkpt>
      <trkpt lat="45.04907" lon="4.60666">
        <ele>808</ele>
        <time>2018-04-11T12:29:45Z</time>
      </trkpt>
      <trkpt lat="45.04918" lon="4.60593">
        <ele>805</ele>
        <time>2018-04-11T12:30:45Z</time>
      </trkpt>
      <trkpt lat="45.04921" lon="4.6058">
        <ele>809</ele>
        <time>2018-04-11T12:31:45Z</time>
      </trkpt>
      <trkpt lat="45.04925" lon="4.60566">
        <ele>807</ele>
        <time>2018-04-11T12:32:45Z</time>
      </trkpt>
      <trkpt lat="45.04933" lon="4.6054">
        <ele>807</ele>
        <time>2018-04-11T12:33:45Z</time>
      </trkpt>
      <trkpt lat="45.04938" lon="4.60523">
        <ele>808</ele>
        <time>2018-04-11T12:34:45Z</time>
      </trkpt>
      <trkpt lat="45.0494" lon="4.60513">
        <ele>808</ele>
        <time>2018-04-11T12:35:45Z</time>
      </trkpt>
      <trkpt lat="45.0494" lon="4.60502">
        <ele>809</ele>
        <time>2018-04-11T12:36:45Z</time>
      </trkpt>
      <trkpt lat="45.0494" lon="4.60492">
        <ele>813</ele>
        <time>2018-04-11T12:37:45Z</time>
      </trkpt>
      <trkpt lat="45.04939" lon="4.60482">
        <ele>813</ele>
        <time>2018-04-11T12:38:45Z</time>
      </trkpt>
      <trkpt lat="45.04938" lon="4.60471">
        <ele>813</ele>
        <time>2018-04-11T12:39:45Z</time>
      </trkpt>
      <trkpt lat="45.04935" lon="4.60464">
        <ele>813</ele>
        <time>2018-04-11T12:40:45Z</time>
      </trkpt>
      <trkpt lat="45.04934" lon="4.60461">
        <ele>813</ele>
        <time>2018-04-11T12:41:45Z</time>
      </trkpt>
      <trkpt lat="45.04928" lon="4.60442">
        <ele>812</ele>
        <time>2018-04-11T12:42:45Z</time>
      </trkpt>
      <trkpt lat="45.04923" lon="4.60423">
        <ele>812</ele>
        <time>2018-04-11T12:43:45Z</time>
      </trkpt>
      <trkpt lat="45.04921" lon="4.60415">
        <ele>811</ele>
        <time>2018-04-11T12:44:45Z</time>
      </trkpt>
      <trkpt lat="45.04921" lon="4.60408">
        <ele>812</ele>
        <time>2018-04-11T12:45:45Z</time>
      </trkpt>
      <trkpt lat="45.04921" lon="4.60394">
        <ele>812</ele>
        <time>2018-04-11T12:46:45Z</time>
      </trkpt>
      <trkpt lat="45.04923" lon="4.60364">
        <ele>811</ele>
        <time>2018-04-11T12:47:45Z</time>
      </trkpt>
      <trkpt lat="45.04926" lon="4.60318">
        <ele>811</ele>
        <time>2018-04-11T12:48:45Z</time>
      </trkpt>
      <trkpt lat="45.0493" lon="4.60289">
        <ele>813</ele>
        <time>2018-04-11T12:49:45Z</time>
      </trkpt>
      <trkpt lat="45.0493" lon="4.6028">
        <ele>813</ele>
        <time>2018-04-11T12:50:45Z</time>
      </trkpt>
      <trkpt lat="45.04928" lon="4.60273">
        <ele>813</ele>
        <time>2018-04-11T12:51:45Z</time>
      </trkpt>
      <trkpt lat="45.04925" lon="4.60267">
        <ele>812</ele>
        <time>2018-04-11T12:52:45Z</time>
      </trkpt>
      <trkpt lat="45.04922" lon="4.6026">
        <ele>810</ele>
        <time>2018-04-11T12:53:45Z</time>
      </trkpt>
      <trkpt lat="45.04908" lon="4.60241">
        <ele>804</ele>
        <time>2018-04-11T12:54:45Z</time>
      </trkpt>
      <trkpt lat="45.04887" lon="4.60215">
        <ele>801</ele>
        <time>2018-04-11T12:55:45Z</time>
      </trkpt>
      <trkpt lat="45.04879" lon="4.60201">
        <ele>801</ele>
        <time>2018-04-11T12:56:45Z</time>
      </trkpt>
      <trkpt lat="45.04866" lon="4.60179">
        <ele>800</ele>
        <time>2018-04-11T12:57:45Z</time>
      </trkpt>
      <trkpt lat="45.04858" lon="4.60169">
        <ele>799</ele>
        <time>2018-04-11T12:58:45Z</time>
      </trkpt>
      <trkpt lat="45.0485" lon="4.60155">
        <ele>805</ele>
        <time>2018-04-11T12:59:45Z</time>
      </trkpt>
      <trkpt lat="45.0484" lon="4.60144">
        <ele>805</ele>
        <time>2018-04-11T13:00:45Z</time>
      </trkpt>
      <trkpt lat="45.04835" lon="4.60133">
        <ele>808</ele>
        <time>2018-04-11T13:01:45Z</time>
      </trkpt>
      <trkpt lat="45.04826" lon="4.60115">
        <ele>791</ele>
        <time>2018-04-11T13:02:45Z</time>
      </trkpt>
      <trkpt lat="45.04813" lon="4.60083">
        <ele>799</ele>
        <time>2018-04-11T13:03:45Z</time>
      </trkpt>
      <trkpt lat="45.04808" lon="4.60072">
        <ele>798</ele>
        <time>2018-04-11T13:04:45Z</time>
      </trkpt>
      <trkpt lat="45.04808" lon="4.60072">
        <ele>798</ele>
        <time>2018-04-11T13:05:45Z</time>
      </trkpt>
      <trkpt lat="45.04796" lon="4.60041">
        <ele>796</ele>
        <time>2018-04-11T13:06:45Z</time>
      </trkpt>
      <trkpt lat="45.04792" lon="4.60032">
        <ele>796</ele>
        <time>2018-04-11T13:07:45Z</time>
      </trkpt>
      <trkpt lat="45.04789" lon="4.6002">
        <ele>796</ele>
        <time>2018-04-11T13:08:45Z</time>
      </trkpt>
      <trkpt lat="45.04782" lon="4.60002">
        <ele>794</ele>
        <time>2018-04-11T13:09:45Z</time>
      </trkpt>
      <trkpt lat="45.04779" lon="4.59993">
        <ele>802</ele>
        <time>2018-04-11T13:10:45Z</time>
      </trkpt>
      <trkpt lat="45.04776" lon="4.59986">
        <ele>802</ele>
        <time>2018-04-11T13:11:45Z</time>
      </trkpt>
      <trkpt lat="45.04769" lon="4.59974">
        <ele>802</ele>
        <time>2018-04-11T13:12:45Z</time>
      </trkpt>
      <trkpt lat="45.04763" lon="4.59965">
        <ele>802</ele>
        <time>2018-04-11T13:13:45Z</time>
      </trkpt>
      <trkpt lat="45.04751" lon="4.59949">
        <ele>803</ele>
        <time>2018-04-11T13:14:45Z</time>
      </trkpt>
      <trkpt lat="45.04742" lon="4.59936">
        <ele>786</ele>
        <time>2018-04-11T13:15:45Z</time>
      </trkpt>
      <trkpt lat="45.04729" lon="4.5992">
        <ele>785</ele>
        <time>2018-04-11T13:16:45Z</time>
      </trkpt>
      <trkpt lat="45.04722" lon="4.5991">
        <ele>789</ele>
        <time>2018-04-11T13:17:45Z</time>
      </trkpt>
      <trkpt lat="45.04712" lon="4.59895">
        <ele>786</ele>
        <time>2018-04-11T13:18:45Z</time>
      </trkpt>
      <trkpt lat="45.04688" lon="4.59858">
        <ele>783</ele>
        <time>2018-04-11T13:19:45Z</time>
      </trkpt>
      <trkpt lat="45.04677" lon="4.59837">
        <ele>780</ele>
        <time>2018-04-11T13:20:45Z</time>
      </trkpt>
      <trkpt lat="45.04665" lon="4.59817">
        <ele>773</ele>
        <time>2018-04-11T13:21:45Z</time>
      </trkpt>
      <trkpt lat="45.0465" lon="4.59799">
        <ele>771</ele>
        <time>2018-04-11T13:22:45Z</time>
      </trkpt>
      <trkpt lat="45.04637" lon="4.5978">
        <ele>771</ele>
        <time>2018-04-11T13:23:45Z</time>
      </trkpt>
      <trkpt lat="45.0463" lon="4.59767">
        <ele>770</ele>
        <time>2018-04-11T13:24:45Z</time>
      </trkpt>
      <trkpt lat="45.04628" lon="4.59761">
        <ele>770</ele>
        <time>2018-04-11T13:25:45Z</time>
      </trkpt>
      <trkpt lat="45.04627" lon="4.59755">
        <ele>770</ele>
        <time>2018-04-11T13:26:45Z</time>
      </trkpt>
      <trkpt lat="45.04626" lon="4.59747">
        <ele>772</ele>
        <time>2018-04-11T13:27:45Z</time>
      </trkpt>
      <trkpt lat="45.04627" lon="4.5974">
        <ele>773</ele>
        <time>2018-04-11T13:28:45Z</time>
      </trkpt>
      <trkpt lat="45.04627" lon="4.5974">
        <ele>773</ele>
        <time>2018-04-11T13:29:45Z</time>
      </trkpt>
      <trkpt lat="45.04629" lon="4.59733">
        <ele>773</ele>
        <time>2018-04-11T13:30:45Z</time>
      </trkpt>
      <trkpt lat="45.04634" lon="4.59722">
        <ele>773</ele>
        <time>2018-04-11T13:31:45Z</time>
      </trkpt>
      <trkpt lat="45.04643" lon="4.59708">
        <ele>773</ele>
        <time>2018-04-11T13:32:45Z</time>
      </trkpt>
      <trkpt lat="45.04659" lon="4.59683">
        <ele>773</ele>
        <time>2018-04-11T13:33:45Z</time>
      </trkpt>
      <trkpt lat="45.04669" lon="4.59668">
        <ele>774</ele>
        <time>2018-04-11T13:34:45Z</time>
      </trkpt>
      <trkpt lat="45.0468" lon="4.59655">
        <ele>771</ele>
        <time>2018-04-11T13:35:45Z</time>
      </trkpt>
      <trkpt lat="45.0469" lon="4.59644">
        <ele>770</ele>
        <time>2018-04-11T13:36:45Z</time>
      </trkpt>
      <trkpt lat="45.047" lon="4.59634">
        <ele>770</ele>
        <time>2018-04-11T13:37:45Z</time>
      </trkpt>
      <trkpt lat="45.04714" lon="4.59624">
        <ele>769</ele>
        <time>2018-04-11T13:38:45Z</time>
      </trkpt>
      <trkpt lat="45.04725" lon="4.59615">
        <ele>768</ele>
        <time>2018-04-11T13:39:45Z</time>
      </trkpt>
      <trkpt lat="45.0474" lon="4.59602">
        <ele>766</ele>
        <time>2018-04-11T13:40:45Z</time>
      </trkpt>
      <trkpt lat="45.04757" lon="4.59586">
        <ele>767</ele>
        <time>2018-04-11T13:41:45Z</time>
      </trkpt>
      <trkpt lat="45.04781" lon="4.59563">
        <ele>762</ele>
        <time>2018-04-11T13:42:45Z</time>
      </trkpt>
      <trkpt lat="45.048" lon="4.59545">
        <ele>762</ele>
        <time>2018-04-11T13:43:45Z</time>
      </trkpt>
      <trkpt lat="45.04812" lon="4.59533">
        <ele>761</ele>
        <time>2018-04-11T13:44:45Z</time>
      </trkpt>
      <trkpt lat="45.04824" lon="4.59523">
        <ele>760</ele>
        <time>2018-04-11T13:45:45Z</time>
      </trkpt>
      <trkpt lat="45.04834" lon="4.59515">
        <ele>765</ele>
        <time>2018-04-11T13:46:45Z</time>
      </trkpt>
      <trkpt lat="45.04837" lon="4.59512">
        <ele>764</ele>
        <time>2018-04-11T13:47:45Z</time>
      </trkpt>
      <trkpt lat="45.04839" lon="4.59509">
        <ele>763</ele>
        <time>2018-04-11T13:48:45Z</time>
      </trkpt>
      <trkpt lat="45.0484" lon="4.59502">
        <ele>761</ele>
        <time>2018-04-11T13:49:45Z</time>
      </trkpt>
      <trkpt lat="45.04859" lon="4.59497">
        <ele>755</ele>
        <time>2018-04-11T13:50:45Z</time>
      </trkpt>
      <trkpt lat="45.04863" lon="4.59496">
        <ele>755</ele>
        <time>2018-04-11T13:51:45Z</time>
      </trkpt>
      <trkpt lat="45.04865" lon="4.59496">
        <ele>755</ele>
        <time>2018-04-11T13:52:45Z</time>
      </trkpt>
      <trkpt lat="45.04867" lon="4.59496">
        <ele>755</ele>
        <time>2018-04-11T13:53:45Z</time>
      </trkpt>
      <trkpt lat="45.04868" lon="4.59498">
        <ele>755</ele>
        <time>2018-04-11T13:54:45Z</time>
      </trkpt>
      <trkpt lat="45.04869" lon="4.59502">
        <ele>770</ele>
        <time>2018-04-11T13:55:45Z</time>
      </trkpt>
      <trkpt lat="45.04872" lon="4.59506">
        <ele>771</ele>
        <time>2018-04-11T13:56:45Z</time>
      </trkpt>
      <trkpt lat="45.04874" lon="4.59509">
        <ele>772</ele>
        <time>2018-04-11T13:57:45Z</time>
      </trkpt>
      <trkpt lat="45.04878" lon="4.59511">
        <ele>772</ele>
        <time>2018-04-11T13:58:45Z</time>
      </trkpt>
      <trkpt lat="45.04884" lon="4.59512">
        <ele>773</ele>
        <time>2018-04-11T13:59:45Z</time>
      </trkpt>
      <trkpt lat="45.04889" lon="4.59512">
        <ele>773</ele>
        <time>2018-04-11T14:00:45Z</time>
      </trkpt>
      <trkpt lat="45.04894" lon="4.59512">
        <ele>773</ele>
        <time>2018-04-11T14:01:45Z</time>
      </trkpt>
      <trkpt lat="45.049" lon="4.59511">
        <ele>773</ele>
        <time>2018-04-11T14:02:45Z</time>
      </trkpt>
      <trkpt lat="45.04912" lon="4.595">
        <ele>767</ele>
        <time>2018-04-11T14:03:45Z</time>
      </trkpt>
      <trkpt lat="45.04919" lon="4.59492">
        <ele>768</ele>
        <time>2018-04-11T14:04:45Z</time>
      </trkpt>
      <trkpt lat="45.0493" lon="4.59484">
        <ele>765</ele>
        <time>2018-04-11T14:05:45Z</time>
      </trkpt>
      <trkpt lat="45.04933" lon="4.5948">
        <ele>764</ele>
        <time>2018-04-11T14:06:45Z</time>
      </trkpt>
      <trkpt lat="45.04936" lon="4.59479">
        <ele>764</ele>
        <time>2018-04-11T14:07:45Z</time>
      </trkpt>
      <trkpt lat="45.04942" lon="4.59479">
        <ele>764</ele>
        <time>2018-04-11T14:08:45Z</time>
      </trkpt>
      <trkpt lat="45.0495" lon="4.59479">
        <ele>764</ele>
        <time>2018-04-11T14:09:45Z</time>
      </trkpt>
      <trkpt lat="45.04964" lon="4.59481">
        <ele>765</ele>
        <time>2018-04-11T14:10:45Z</time>
      </trkpt>
      <trkpt lat="45.05003" lon="4.59491">
        <ele>776</ele>
        <time>2018-04-11T14:11:45Z</time>
      </trkpt>
      <trkpt lat="45.05009" lon="4.59492">
        <ele>776</ele>
        <time>2018-04-11T14:12:45Z</time>
      </trkpt>
      <trkpt lat="45.05014" lon="4.59492">
        <ele>776</ele>
        <time>2018-04-11T14:13:45Z</time>
      </trkpt>
      <trkpt lat="45.05019" lon="4.5949">
        <ele>775</ele>
        <time>2018-04-11T14:14:45Z</time>
      </trkpt>
      <trkpt lat="45.05025" lon="4.59486">
        <ele>775</ele>
        <time>2018-04-11T14:15:45Z</time>
      </trkpt>
      <trkpt lat="45.0503" lon="4.59484">
        <ele>775</ele>
        <time>2018-04-11T14:16:45Z</time>
      </trkpt>
      <trkpt lat="45.05036" lon="4.59484">
        <ele>775</ele>
        <time>2018-04-11T14:17:45Z</time>
      </trkpt>
      <trkpt lat="45.05041" lon="4.59485">
        <ele>776</ele>
        <time>2018-04-11T14:18:45Z</time>
      </trkpt>
      <trkpt lat="45.05048" lon="4.59488">
        <ele>777</ele>
        <time>2018-04-11T14:19:45Z</time>
      </trkpt>
      <trkpt lat="45.05054" lon="4.59488">
        <ele>778</ele>
        <time>2018-04-11T14:20:45Z</time>
      </trkpt>
      <trkpt lat="45.05061" lon="4.59488">
        <ele>779</ele>
        <time>2018-04-11T14:21:45Z</time>
      </trkpt>
      <trkpt lat="45.05067" lon="4.59485">
        <ele>780</ele>
        <time>2018-04-11T14:22:45Z</time>
      </trkpt>
      <trkpt lat="45.05071" lon="4.5948">
        <ele>779</ele>
        <time>2018-04-11T14:23:45Z</time>
      </trkpt>
      <trkpt lat="45.05072" lon="4.59473">
        <ele>778</ele>
        <time>2018-04-11T14:24:45Z</time>
      </trkpt>
      <trkpt lat="45.05072" lon="4.59467">
        <ele>776</ele>
        <time>2018-04-11T14:25:45Z</time>
      </trkpt>
      <trkpt lat="45.05072" lon="4.59462">
        <ele>776</ele>
        <time>2018-04-11T14:26:45Z</time>
      </trkpt>
      <trkpt lat="45.05073" lon="4.59457">
        <ele>775</ele>
        <time>2018-04-11T14:27:45Z</time>
      </trkpt>
      <trkpt lat="45.05075" lon="4.5945">
        <ele>774</ele>
        <time>2018-04-11T14:28:45Z</time>
      </trkpt>
      <trkpt lat="45.05079" lon="4.59447">
        <ele>773</ele>
        <time>2018-04-11T14:29:45Z</time>
      </trkpt>
      <trkpt lat="45.05083" lon="4.59443">
        <ele>773</ele>
        <time>2018-04-11T14:30:45Z</time>
      </trkpt>
      <trkpt lat="45.05086" lon="4.59441">
        <ele>783</ele>
        <time>2018-04-11T14:31:45Z</time>
      </trkpt>
      <trkpt lat="45.05091" lon="4.59436">
        <ele>782</ele>
        <time>2018-04-11T14:32:45Z</time>
      </trkpt>
      <trkpt lat="45.05097" lon="4.59431">
        <ele>782</ele>
        <time>2018-04-11T14:33:45Z</time>
      </trkpt>
      <trkpt lat="45.05101" lon="4.59425">
        <ele>782</ele>
        <time>2018-04-11T14:34:45Z</time>
      </trkpt>
      <trkpt lat="45.05105" lon="4.59422">
        <ele>783</ele>
        <time>2018-04-11T14:35:45Z</time>
      </trkpt>
      <trkpt lat="45.05115" lon="4.59416">
        <ele>773</ele>
        <time>2018-04-11T14:36:45Z</time>
      </trkpt>
      <trkpt lat="45.05142" lon="4.59404">
        <ele>778</ele>
        <time>2018-04-11T14:37:45Z</time>
      </trkpt>
      <trkpt lat="45.05167" lon="4.59392">
        <ele>791</ele>
        <time>2018-04-11T14:38:45Z</time>
      </trkpt>
      <trkpt lat="45.0518" lon="4.59387">
        <ele>791</ele>
        <time>2018-04-11T14:39:45Z</time>
      </trkpt>
      <trkpt lat="45.05203" lon="4.59376">
        <ele>791</ele>
        <time>2018-04-11T14:40:45Z</time>
      </trkpt>
      <trkpt lat="45.05225" lon="4.59366">
        <ele>793</ele>
        <time>2018-04-11T14:41:45Z</time>
      </trkpt>
      <trkpt lat="45.05238" lon="4.59359">
        <ele>793</ele>
        <time>2018-04-11T14:42:45Z</time>
      </trkpt>
      <trkpt lat="45.05248" lon="4.59356">
        <ele>794</ele>
        <time>2018-04-11T14:43:45Z</time>
      </trkpt>
      <trkpt lat="45.05256" lon="4.59354">
        <ele>805</ele>
        <time>2018-04-11T14:44:45Z</time>
      </trkpt>
      <trkpt lat="45.05261" lon="4.59353">
        <ele>805</ele>
        <time>2018-04-11T14:45:45Z</time>
      </trkpt>
      <trkpt lat="45.05272" lon="4.59352">
        <ele>807</ele>
        <time>2018-04-11T14:46:45Z</time>
      </trkpt>
      <trkpt lat="45.05283" lon="4.59352">
        <ele>809</ele>
        <time>2018-04-11T14:47:45Z</time>
      </trkpt>
      <trkpt lat="45.05297" lon="4.59353">
        <ele>812</ele>
        <time>2018-04-11T14:48:45Z</time>
      </trkpt>
      <trkpt lat="45.05308" lon="4.59354">
        <ele>813</ele>
        <time>2018-04-11T14:49:45Z</time>
      </trkpt>
      <trkpt lat="45.05319" lon="4.59355">
        <ele>814</ele>
        <time>2018-04-11T14:50:45Z</time>
      </trkpt>
      <trkpt lat="45.05323" lon="4.59355">
        <ele>814</ele>
        <time>2018-04-11T14:51:45Z</time>
      </trkpt>
      <trkpt lat="45.05328" lon="4.59353">
        <ele>814</ele>
        <time>2018-04-11T14:52:45Z</time>
      </trkpt>
      <trkpt lat="45.05332" lon="4.59352">
        <ele>814</ele>
        <time>2018-04-11T14:53:45Z</time>
      </trkpt>
      <trkpt lat="45.05336" lon="4.59348">
        <ele>825</ele>
        <time>2018-04-11T14:54:45Z</time>
      </trkpt>
      <trkpt lat="45.05341" lon="4.59343">
        <ele>823</ele>
        <time>2018-04-11T14:55:45Z</time>
      </trkpt>
      <trkpt lat="45.05352" lon="4.59326">
        <ele>820</ele>
        <time>2018-04-11T14:56:45Z</time>
      </trkpt>
      <trkpt lat="45.05379" lon="4.59288">
        <ele>824</ele>
        <time>2018-04-11T14:57:45Z</time>
      </trkpt>
      <trkpt lat="45.05408" lon="4.59253">
        <ele>830</ele>
        <time>2018-04-11T14:58:45Z</time>
      </trkpt>
      <trkpt lat="45.05416" lon="4.59243">
        <ele>828</ele>
        <time>2018-04-11T14:59:45Z</time>
      </trkpt>
      <trkpt lat="45.05424" lon="4.59232">
        <ele>836</ele>
        <time>2018-04-11T15:00:45Z</time>
      </trkpt>
      <trkpt lat="45.05433" lon="4.59225">
        <ele>837</ele>
        <time>2018-04-11T15:01:45Z</time>
      </trkpt>
      <trkpt lat="45.05443" lon="4.59219">
        <ele>839</ele>
        <time>2018-04-11T15:02:45Z</time>
      </trkpt>
      <trkpt lat="45.05452" lon="4.59214">
        <ele>840</ele>
        <time>2018-04-11T15:03:45Z</time>
      </trkpt>
      <trkpt lat="45.0546" lon="4.59209">
        <ele>841</ele>
        <time>2018-04-11T15:04:45Z</time>
      </trkpt>
      <trkpt lat="45.05465" lon="4.59205">
        <ele>841</ele>
        <time>2018-04-11T15:05:45Z</time>
      </trkpt>
      <trkpt lat="45.05468" lon="4.592">
        <ele>842</ele>
        <time>2018-04-11T15:06:45Z</time>
      </trkpt>
      <trkpt lat="45.05471" lon="4.59193">
        <ele>842</ele>
        <time>2018-04-11T15:07:45Z</time>
      </trkpt>
      <trkpt lat="45.05474" lon="4.59185">
        <ele>843</ele>
        <time>2018-04-11T15:08:45Z</time>
      </trkpt>
      <trkpt lat="45.05476" lon="4.59177">
        <ele>843</ele>
        <time>2018-04-11T15:09:45Z</time>
      </trkpt>
      <trkpt lat="45.05478" lon="4.59168">
        <ele>844</ele>
        <time>2018-04-11T15:10:45Z</time>
      </trkpt>
      <trkpt lat="45.05483" lon="4.59152">
        <ele>838</ele>
        <time>2018-04-11T15:11:45Z</time>
      </trkpt>
      <trkpt lat="45.05489" lon="4.59138">
        <ele>837</ele>
        <time>2018-04-11T15:12:45Z</time>
      </trkpt>
      <trkpt lat="45.05489" lon="4.59138">
        <ele>837</ele>
        <time>2018-04-11T15:13:45Z</time>
      </trkpt>
      <trkpt lat="45.05492" lon="4.59131">
        <ele>836</ele>
        <time>2018-04-11T15:14:45Z</time>
      </trkpt>
      <trkpt lat="45.055" lon="4.59113">
        <ele>835</ele>
        <time>2018-04-11T15:15:45Z</time>
      </trkpt>
      <trkpt lat="45.05506" lon="4.591">
        <ele>849</ele>
        <time>2018-04-11T15:16:45Z</time>
      </trkpt>
      <trkpt lat="45.05512" lon="4.59088">
        <ele>848</ele>
        <time>2018-04-11T15:17:45Z</time>
      </trkpt>
      <trkpt lat="45.05516" lon="4.59082">
        <ele>844</ele>
        <time>2018-04-11T15:18:45Z</time>
      </trkpt>
      <trkpt lat="45.05522" lon="4.59072">
        <ele>846</ele>
        <time>2018-04-11T15:19:45Z</time>
      </trkpt>
      <trkpt lat="45.05533" lon="4.59057">
        <ele>847</ele>
        <time>2018-04-11T15:20:45Z</time>
      </trkpt>
      <trkpt lat="45.05543" lon="4.59046">
        <ele>848</ele>
        <time>2018-04-11T15:21:45Z</time>
      </trkpt>
      <trkpt lat="45.05545" lon="4.59043">
        <ele>849</ele>
        <time>2018-04-11T15:22:45Z</time>
      </trkpt>
      <trkpt lat="45.05546" lon="4.5904">
        <ele>849</ele>
        <time>2018-04-11T15:23:45Z</time>
      </trkpt>
      <trkpt lat="45.05547" lon="4.59036">
        <ele>849</ele>
        <time>2018-04-11T15:24:45Z</time>
      </trkpt>
      <trkpt lat="45.05548" lon="4.59032">
        <ele>849</ele>
        <time>2018-04-11T15:25:45Z</time>
      </trkpt>
      <trkpt lat="45.05548" lon="4.59028">
        <ele>848</ele>
        <time>2018-04-11T15:26:45Z</time>
      </trkpt>
      <trkpt lat="45.05548" lon="4.59024">
        <ele>848</ele>
        <time>2018-04-11T15:27:45Z</time>
      </trkpt>
      <trkpt lat="45.05547" lon="4.5901">
        <ele>848</ele>
        <time>2018-04-11T15:28:45Z</time>
      </trkpt>
      <trkpt lat="45.05544" lon="4.58986">
        <ele>849</ele>
        <time>2018-04-11T15:29:45Z</time>
      </trkpt>
      <trkpt lat="45.0554" lon="4.58968">
        <ele>850</ele>
        <time>2018-04-11T15:30:45Z</time>
      </trkpt>
      <trkpt lat="45.05536" lon="4.58959">
        <ele>850</ele>
        <time>2018-04-11T15:31:45Z</time>
      </trkpt>
      <trkpt lat="45.0553" lon="4.58949">
        <ele>850</ele>
        <time>2018-04-11T15:32:45Z</time>
      </trkpt>
      <trkpt lat="45.05523" lon="4.58944">
        <ele>849</ele>
        <time>2018-04-11T15:33:45Z</time>
      </trkpt>
      <trkpt lat="45.05513" lon="4.58938">
        <ele>849</ele>
        <time>2018-04-11T15:34:45Z</time>
      </trkpt>
      <trkpt lat="45.05502" lon="4.58934">
        <ele>848</ele>
        <time>2018-04-11T15:35:45Z</time>
      </trkpt>
      <trkpt lat="45.05492" lon="4.58929">
        <ele>840</ele>
        <time>2018-04-11T15:36:45Z</time>
      </trkpt>
      <trkpt lat="45.05478" lon="4.58925">
        <ele>837</ele>
        <time>2018-04-11T15:37:45Z</time>
      </trkpt>
      <trkpt lat="45.05466" lon="4.58919">
        <ele>835</ele>
        <time>2018-04-11T15:38:45Z</time>
      </trkpt>
      <trkpt lat="45.05456" lon="4.5891">
        <ele>844</ele>
        <time>2018-04-11T15:39:45Z</time>
      </trkpt>
      <trkpt lat="45.05449" lon="4.58901">
        <ele>843</ele>
        <time>2018-04-11T15:40:45Z</time>
      </trkpt>
      <trkpt lat="45.05443" lon="4.58888">
        <ele>844</ele>
        <time>2018-04-11T15:41:45Z</time>
      </trkpt>
      <trkpt lat="45.05435" lon="4.58871">
        <ele>846</ele>
        <time>2018-04-11T15:42:45Z</time>
      </trkpt>
      <trkpt lat="45.05428" lon="4.58857">
        <ele>848</ele>
        <time>2018-04-11T15:43:45Z</time>
      </trkpt>
      <trkpt lat="45.05419" lon="4.58846">
        <ele>849</ele>
        <time>2018-04-11T15:44:45Z</time>
      </trkpt>
      <trkpt lat="45.05411" lon="4.58838">
        <ele>845</ele>
        <time>2018-04-11T15:45:45Z</time>
      </trkpt>
      <trkpt lat="45.05402" lon="4.58834">
        <ele>842</ele>
        <time>2018-04-11T15:46:45Z</time>
      </trkpt>
      <trkpt lat="45.05387" lon="4.58825">
        <ele>853</ele>
        <time>2018-04-11T15:47:45Z</time>
      </trkpt>
      <trkpt lat="45.05374" lon="4.58809">
        <ele>853</ele>
        <time>2018-04-11T15:48:45Z</time>
      </trkpt>
      <trkpt lat="45.0536" lon="4.58791">
        <ele>855</ele>
        <time>2018-04-11T15:49:45Z</time>
      </trkpt>
      <trkpt lat="45.05346" lon="4.58778">
        <ele>857</ele>
        <time>2018-04-11T15:50:45Z</time>
      </trkpt>
      <trkpt lat="45.05326" lon="4.58758">
        <ele>856</ele>
        <time>2018-04-11T15:51:45Z</time>
      </trkpt>
      <trkpt lat="45.05307" lon="4.58741">
        <ele>864</ele>
        <time>2018-04-11T15:52:45Z</time>
      </trkpt>
      <trkpt lat="45.05297" lon="4.58731">
        <ele>863</ele>
        <time>2018-04-11T15:53:45Z</time>
      </trkpt>
      <trkpt lat="45.05289" lon="4.58718">
        <ele>863</ele>
        <time>2018-04-11T15:54:45Z</time>
      </trkpt>
      <trkpt lat="45.0528" lon="4.58701">
        <ele>865</ele>
        <time>2018-04-11T15:55:45Z</time>
      </trkpt>
      <trkpt lat="45.05271" lon="4.58682">
        <ele>867</ele>
        <time>2018-04-11T15:56:45Z</time>
      </trkpt>
      <trkpt lat="45.05262" lon="4.58669">
        <ele>868</ele>
        <time>2018-04-11T15:57:45Z</time>
      </trkpt>
      <trkpt lat="45.05253" lon="4.58661">
        <ele>875</ele>
        <time>2018-04-11T15:58:45Z</time>
      </trkpt>
      <trkpt lat="45.05244" lon="4.58653">
        <ele>877</ele>
        <time>2018-04-11T15:59:45Z</time>
      </trkpt>
      <trkpt lat="45.0524" lon="4.58651">
        <ele>878</ele>
        <time>2018-04-11T16:00:45Z</time>
      </trkpt>
      <trkpt lat="45.05237" lon="4.58649">
        <ele>880</ele>
        <time>2018-04-11T16:01:45Z</time>
      </trkpt>
      <trkpt lat="45.05233" lon="4.58647">
        <ele>881</ele>
        <time>2018-04-11T16:02:45Z</time>
      </trkpt>
      <trkpt lat="45.05224" lon="4.58647">
        <ele>882</ele>
        <time>2018-04-11T16:03:45Z</time>
      </trkpt>
      <trkpt lat="45.05214" lon="4.58648">
        <ele>883</ele>
        <time>2018-04-11T16:04:45Z</time>
      </trkpt>
      <trkpt lat="45.05205" lon="4.5865">
        <ele>883</ele>
        <time>2018-04-11T16:05:45Z</time>
      </trkpt>
      <trkpt lat="45.05197" lon="4.58653">
        <ele>882</ele>
        <time>2018-04-11T16:06:45Z</time>
      </trkpt>
      <trkpt lat="45.05188" lon="4.58661">
        <ele>881</ele>
        <time>2018-04-11T16:07:45Z</time>
      </trkpt>
      <trkpt lat="45.0518" lon="4.58665">
        <ele>879</ele>
        <time>2018-04-11T16:08:45Z</time>
      </trkpt>
      <trkpt lat="45.0517" lon="4.58671">
        <ele>870</ele>
        <time>2018-04-11T16:09:45Z</time>
      </trkpt>
      <trkpt lat="45.05156" lon="4.58678">
        <ele>870</ele>
        <time>2018-04-11T16:10:45Z</time>
      </trkpt>
      <trkpt lat="45.05147" lon="4.58684">
        <ele>868</ele>
        <time>2018-04-11T16:11:45Z</time>
      </trkpt>
      <trkpt lat="45.0513" lon="4.58691">
        <ele>868</ele>
        <time>2018-04-11T16:12:45Z</time>
      </trkpt>
      <trkpt lat="45.05115" lon="4.58699">
        <ele>868</ele>
        <time>2018-04-11T16:13:45Z</time>
      </trkpt>
      <trkpt lat="45.05097" lon="4.58706">
        <ele>868</ele>
        <time>2018-04-11T16:14:45Z</time>
      </trkpt>
      <trkpt lat="45.05084" lon="4.58708">
        <ele>868</ele>
        <time>2018-04-11T16:15:45Z</time>
      </trkpt>
      <trkpt lat="45.05075" lon="4.58709">
        <ele>871</ele>
        <time>2018-04-11T16:16:45Z</time>
      </trkpt>
      <trkpt lat="45.05063" lon="4.58706">
        <ele>871</ele>
        <time>2018-04-11T16:17:45Z</time>
      </trkpt>
      <trkpt lat="45.05044" lon="4.58698">
        <ele>871</ele>
        <time>2018-04-11T16:18:45Z</time>
      </trkpt>
      <trkpt lat="45.05026" lon="4.58684">
        <ele>873</ele>
        <time>2018-04-11T16:19:45Z</time>
      </trkpt>
      <trkpt lat="45.05011" lon="4.58666">
        <ele>885</ele>
        <time>2018-04-11T16:20:45Z</time>
      </trkpt>
      <trkpt lat="45.04996" lon="4.58646">
        <ele>882</ele>
        <time>2018-04-11T16:21:45Z</time>
      </trkpt>
      <trkpt lat="45.04973" lon="4.58617">
        <ele>885</ele>
        <time>2018-04-11T16:22:45Z</time>
      </trkpt>
      <trkpt lat="45.04954" lon="4.58593">
        <ele>885</ele>
        <time>2018-04-11T16:23:45Z</time>
      </trkpt>
      <trkpt lat="45.04925" lon="4.5855">
        <ele>898</ele>
        <time>2018-04-11T16:24:45Z</time>
      </trkpt>
      <trkpt lat="45.04915" lon="4.58535">
        <ele>890</ele>
        <time>2018-04-11T16:25:45Z</time>
      </trkpt>
      <trkpt lat="45.04901" lon="4.58517">
        <ele>893</ele>
        <time>2018-04-11T16:26:45Z</time>
      </trkpt>
      <trkpt lat="45.04892" lon="4.58508">
        <ele>892</ele>
        <time>2018-04-11T16:27:45Z</time>
      </trkpt>
      <trkpt lat="45.04886" lon="4.58498">
        <ele>895</ele>
        <time>2018-04-11T16:28:45Z</time>
      </trkpt>
      <trkpt lat="45.04883" lon="4.58489">
        <ele>895</ele>
        <time>2018-04-11T16:29:45Z</time>
      </trkpt>
      <trkpt lat="45.04881" lon="4.58484">
        <ele>894</ele>
        <time>2018-04-11T16:30:45Z</time>
      </trkpt>
      <trkpt lat="45.04881" lon="4.58477">
        <ele>894</ele>
        <time>2018-04-11T16:31:45Z</time>
      </trkpt>
      <trkpt lat="45.04882" lon="4.58469">
        <ele>894</ele>
        <time>2018-04-11T16:32:45Z</time>
      </trkpt>
      <trkpt lat="45.04885" lon="4.5846">
        <ele>894</ele>
        <time>2018-04-11T16:33:45Z</time>
      </trkpt>
      <trkpt lat="45.04892" lon="4.58445">
        <ele>895</ele>
        <time>2018-04-11T16:34:45Z</time>
      </trkpt>
      <trkpt lat="45.04903" lon="4.58422">
        <ele>898</ele>
        <time>2018-04-11T16:35:45Z</time>
      </trkpt>
      <trkpt lat="45.04921" lon="4.58395">
        <ele>906</ele>
        <time>2018-04-11T16:36:45Z</time>
      </trkpt>
      <trkpt lat="45.0494" lon="4.58361">
        <ele>905</ele>
        <time>2018-04-11T16:37:45Z</time>
      </trkpt>
      <trkpt lat="45.04957" lon="4.5833">
        <ele>898</ele>
        <time>2018-04-11T16:38:45Z</time>
      </trkpt>
      <trkpt lat="45.04967" lon="4.58306">
        <ele>899</ele>
        <time>2018-04-11T16:39:45Z</time>
      </trkpt>
      <trkpt lat="45.04974" lon="4.58286">
        <ele>898</ele>
        <time>2018-04-11T16:40:45Z</time>
      </trkpt>
      <trkpt lat="45.04985" lon="4.58256">
        <ele>901</ele>
        <time>2018-04-11T16:41:45Z</time>
      </trkpt>
      <trkpt lat="45.04994" lon="4.58224">
        <ele>888</ele>
        <time>2018-04-11T16:42:45Z</time>
      </trkpt>
      <trkpt lat="45.05002" lon="4.58203">
        <ele>909</ele>
        <time>2018-04-11T16:43:45Z</time>
      </trkpt>
      <trkpt lat="45.0501" lon="4.58184">
        <ele>904</ele>
        <time>2018-04-11T16:44:45Z</time>
      </trkpt>
      <trkpt lat="45.05025" lon="4.58151">
        <ele>901</ele>
        <time>2018-04-11T16:45:45Z</time>
      </trkpt>
      <trkpt lat="45.05035" lon="4.5813">
        <ele>903</ele>
        <time>2018-04-11T16:46:45Z</time>
      </trkpt>
      <trkpt lat="45.0504" lon="4.58116">
        <ele>904</ele>
        <time>2018-04-11T16:47:45Z</time>
      </trkpt>
      <trkpt lat="45.05045" lon="4.58102">
        <ele>905</ele>
        <time>2018-04-11T16:48:45Z</time>
      </trkpt>
      <trkpt lat="45.05047" lon="4.58092">
        <ele>906</ele>
        <time>2018-04-11T16:49:45Z</time>
      </trkpt>
      <trkpt lat="45.05047" lon="4.58083">
        <ele>904</ele>
        <time>2018-04-11T16:50:45Z</time>
      </trkpt>
      <trkpt lat="45.05045" lon="4.58069">
        <ele>903</ele>
        <time>2018-04-11T16:51:45Z</time>
      </trkpt>
      <trkpt lat="45.05042" lon="4.58049">
        <ele>902</ele>
        <time>2018-04-11T16:52:45Z</time>
      </trkpt>
      <trkpt lat="45.05035" lon="4.58024">
        <ele>900</ele>
        <time>2018-04-11T16:53:45Z</time>
      </trkpt>
      <trkpt lat="45.05028" lon="4.58003">
        <ele>897</ele>
        <time>2018-04-11T16:54:45Z</time>
      </trkpt>
      <trkpt lat="45.05017" lon="4.57974">
        <ele>897</ele>
        <time>2018-04-11T16:55:45Z</time>
      </trkpt>
      <trkpt lat="45.05005" lon="4.57939">
        <ele>896</ele>
        <time>2018-04-11T16:56:45Z</time>
      </trkpt>
      <trkpt lat="45.05001" lon="4.57918">
        <ele>886</ele>
        <time>2018-04-11T16:57:45Z</time>
      </trkpt>
      <trkpt lat="45.05" lon="4.57899">
        <ele>874</ele>
        <time>2018-04-11T16:58:45Z</time>
      </trkpt>
      <trkpt lat="45.05001" lon="4.57878">
        <ele>894</ele>
        <time>2018-04-11T16:59:45Z</time>
      </trkpt>
      <trkpt lat="45.05004" lon="4.5785">
        <ele>890</ele>
        <time>2018-04-11T17:00:45Z</time>
      </trkpt>
      <trkpt lat="45.05008" lon="4.5782">
        <ele>884</ele>
        <time>2018-04-11T17:01:45Z</time>
      </trkpt>
      <trkpt lat="45.05014" lon="4.57795">
        <ele>884</ele>
        <time>2018-04-11T17:02:45Z</time>
      </trkpt>
      <trkpt lat="45.05021" lon="4.57773">
        <ele>882</ele>
        <time>2018-04-11T17:03:45Z</time>
      </trkpt>
      <trkpt lat="45.05032" lon="4.5774">
        <ele>872</ele>
        <time>2018-04-11T17:04:45Z</time>
      </trkpt>
      <trkpt lat="45.05043" lon="4.57715">
        <ele>871</ele>
        <time>2018-04-11T17:05:45Z</time>
      </trkpt>
      <trkpt lat="45.05046" lon="4.57707">
        <ele>870</ele>
        <time>2018-04-11T17:06:45Z</time>
      </trkpt>
      <trkpt lat="45.0505" lon="4.57701">
        <ele>870</ele>
        <time>2018-04-11T17:07:45Z</time>
      </trkpt>
      <trkpt lat="45.05053" lon="4.57695">
        <ele>870</ele>
        <time>2018-04-11T17:08:45Z</time>
      </trkpt>
      <trkpt lat="45.05056" lon="4.57689">
        <ele>870</ele>
        <time>2018-04-11T17:09:45Z</time>
      </trkpt>
      <trkpt lat="45.05058" lon="4.57681">
        <ele>869</ele>
        <time>2018-04-11T17:10:45Z</time>
      </trkpt>
      <trkpt lat="45.05058" lon="4.57681">
        <ele>869</ele>
        <time>2018-04-11T17:11:45Z</time>
      </trkpt>
      <trkpt lat="45.05065" lon="4.57677">
        <ele>870</ele>
        <time>2018-04-11T17:12:45Z</time>
      </trkpt>
      <trkpt lat="45.05087" lon="4.57668">
        <ele>874</ele>
        <time>2018-04-11T17:13:45Z</time>
      </trkpt>
      <trkpt lat="45.05101" lon="4.57662">
        <ele>871</ele>
        <time>2018-04-11T17:14:45Z</time>
      </trkpt>
      <trkpt lat="45.05119" lon="4.57657">
        <ele>872</ele>
        <time>2018-04-11T17:15:45Z</time>
      </trkpt>
      <trkpt lat="45.05135" lon="4.57655">
        <ele>874</ele>
        <time>2018-04-11T17:16:45Z</time>
      </trkpt>
      <trkpt lat="45.05152" lon="4.57655">
        <ele>878</ele>
        <time>2018-04-11T17:17:45Z</time>
      </trkpt>
      <trkpt lat="45.05165" lon="4.57657">
        <ele>881</ele>
        <time>2018-04-11T17:18:45Z</time>
      </trkpt>
      <trkpt lat="45.05181" lon="4.57658">
        <ele>889</ele>
        <time>2018-04-11T17:19:45Z</time>
      </trkpt>
      <trkpt lat="45.0519" lon="4.57656">
        <ele>890</ele>
        <time>2018-04-11T17:20:45Z</time>
      </trkpt>
      <trkpt lat="45.05199" lon="4.57644">
        <ele>891</ele>
        <time>2018-04-11T17:21:45Z</time>
      </trkpt>
      <trkpt lat="45.05202" lon="4.57636">
        <ele>891</ele>
        <time>2018-04-11T17:22:45Z</time>
      </trkpt>
      <trkpt lat="45.05202" lon="4.57625">
        <ele>891</ele>
        <time>2018-04-11T17:23:45Z</time>
      </trkpt>
      <trkpt lat="45.052" lon="4.57613">
        <ele>889</ele>
        <time>2018-04-11T17:24:45Z</time>
      </trkpt>
      <trkpt lat="45.05196" lon="4.57598">
        <ele>887</ele>
        <time>2018-04-11T17:25:45Z</time>
      </trkpt>
      <trkpt lat="45.05192" lon="4.57579">
        <ele>883</ele>
        <time>2018-04-11T17:26:45Z</time>
      </trkpt>
      <trkpt lat="45.05188" lon="4.57559">
        <ele>883</ele>
        <time>2018-04-11T17:27:45Z</time>
      </trkpt>
      <trkpt lat="45.05186" lon="4.57538">
        <ele>883</ele>
        <time>2018-04-11T17:28:45Z</time>
      </trkpt>
      <trkpt lat="45.05186" lon="4.57521">
        <ele>882</ele>
        <time>2018-04-11T17:29:45Z</time>
      </trkpt>
      <trkpt lat="45.05185" lon="4.57493">
        <ele>881</ele>
        <time>2018-04-11T17:30:45Z</time>
      </trkpt>
      <trkpt lat="45.05182" lon="4.57477">
        <ele>883</ele>
        <time>2018-04-11T17:31:45Z</time>
      </trkpt>
      <trkpt lat="45.0518" lon="4.57464">
        <ele>884</ele>
        <time>2018-04-11T17:32:45Z</time>
      </trkpt>
      <trkpt lat="45.05177" lon="4.57449">
        <ele>884</ele>
        <time>2018-04-11T17:33:45Z</time>
      </trkpt>
      <trkpt lat="45.05175" lon="4.57437">
        <ele>883</ele>
        <time>2018-04-11T17:34:45Z</time>
      </trkpt>
      <trkpt lat="45.05168" lon="4.57408">
        <ele>878</ele>
        <time>2018-04-11T17:35:45Z</time>
      </trkpt>
      <trkpt lat="45.05164" lon="4.57394">
        <ele>863</ele>
        <time>2018-04-11T17:36:45Z</time>
      </trkpt>
      <trkpt lat="45.05163" lon="4.57382">
        <ele>861</ele>
        <time>2018-04-11T17:37:45Z</time>
      </trkpt>
      <trkpt lat="45.05164" lon="4.57352">
        <ele>861</ele>
        <time>2018-04-11T17:38:45Z</time>
      </trkpt>
      <trkpt lat="45.05168" lon="4.5732">
        <ele>868</ele>
        <time>2018-04-11T17:39:45Z</time>
      </trkpt>
      <trkpt lat="45.05174" lon="4.57292">
        <ele>868</ele>
        <time>2018-04-11T17:40:45Z</time>
      </trkpt>
      <trkpt lat="45.05183" lon="4.57267">
        <ele>864</ele>
        <time>2018-04-11T17:41:45Z</time>
      </trkpt>
      <trkpt lat="45.05201" lon="4.57231">
        <ele>859</ele>
        <time>2018-04-11T17:42:45Z</time>
      </trkpt>
      <trkpt lat="45.05216" lon="4.57206">
        <ele>860</ele>
        <time>2018-04-11T17:43:45Z</time>
      </trkpt>
      <trkpt lat="45.05235" lon="4.57184">
        <ele>861</ele>
        <time>2018-04-11T17:44:45Z</time>
      </trkpt>
      <trkpt lat="45.05255" lon="4.57166">
        <ele>862</ele>
        <time>2018-04-11T17:45:45Z</time>
      </trkpt>
      <trkpt lat="45.05282" lon="4.57148">
        <ele>862</ele>
        <time>2018-04-11T17:46:45Z</time>
      </trkpt>
      <trkpt lat="45.05305" lon="4.57136">
        <ele>863</ele>
        <time>2018-04-11T17:47:45Z</time>
      </trkpt>
      <trkpt lat="45.05316" lon="4.57129">
        <ele>863</ele>
        <time>2018-04-11T17:48:45Z</time>
      </trkpt>
      <trkpt lat="45.05319" lon="4.57128">
        <ele>863</ele>
        <time>2018-04-11T17:49:45Z</time>
      </trkpt>
      <trkpt lat="45.05321" lon="4.57127">
        <ele>863</ele>
        <time>2018-04-11T17:50:45Z</time>
      </trkpt>
      <trkpt lat="45.05322" lon="4.57125">
        <ele>863</ele>
        <time>2018-04-11T17:51:45Z</time>
      </trkpt>
      <trkpt lat="45.05323" lon="4.57122">
        <ele>863</ele>
        <time>2018-04-11T17:52:45Z</time>
      </trkpt>
      <trkpt lat="45.05323" lon="4.5712">
        <ele>863</ele>
        <time>2018-04-11T17:53:45Z</time>
      </trkpt>
      <trkpt lat="45.05323" lon="4.57113">
        <ele>863</ele>
        <time>2018-04-11T17:54:45Z</time>
      </trkpt>
      <trkpt lat="45.05323" lon="4.57103">
        <ele>863</ele>
        <time>2018-04-11T17:55:45Z</time>
      </trkpt>
      <trkpt lat="45.05321" lon="4.57066">
        <ele>857</ele>
        <time>2018-04-11T17:56:45Z</time>
      </trkpt>
      <trkpt lat="45.05318" lon="4.57039">
        <ele>854</ele>
        <time>2018-04-11T17:57:45Z</time>
      </trkpt>
      <trkpt lat="45.05306" lon="4.56968">
        <ele>846</ele>
        <time>2018-04-11T17:58:45Z</time>
      </trkpt>
      <trkpt lat="45.05296" lon="4.56916">
        <ele>839</ele>
        <time>2018-04-11T17:59:45Z</time>
      </trkpt>
      <trkpt lat="45.05291" lon="4.56877">
        <ele>837</ele>
        <time>2018-04-11T18:00:45Z</time>
      </trkpt>
      <trkpt lat="45.05291" lon="4.56859">
        <ele>836</ele>
        <time>2018-04-11T18:01:45Z</time>
      </trkpt>
      <trkpt lat="45.0529" lon="4.56845">
        <ele>835</ele>
        <time>2018-04-11T18:02:45Z</time>
      </trkpt>
      <trkpt lat="45.0529" lon="4.56839">
        <ele>835</ele>
        <time>2018-04-11T18:03:45Z</time>
      </trkpt>
      <trkpt lat="45.0529" lon="4.56828">
        <ele>832</ele>
        <time>2018-04-11T18:04:45Z</time>
      </trkpt>
      <trkpt lat="45.0529" lon="4.56808">
        <ele>831</ele>
        <time>2018-04-11T18:05:45Z</time>
      </trkpt>
      <trkpt lat="45.05291" lon="4.568">
        <ele>831</ele>
        <time>2018-04-11T18:06:45Z</time>
      </trkpt>
      <trkpt lat="45.0529" lon="4.56791">
        <ele>831</ele>
        <time>2018-04-11T18:07:45Z</time>
      </trkpt>
      <trkpt lat="45.0529" lon="4.56786">
        <ele>831</ele>
        <time>2018-04-11T18:08:45Z</time>
      </trkpt>
      <trkpt lat="45.05287" lon="4.56781">
        <ele>831</ele>
        <time>2018-04-11T18:09:45Z</time>
      </trkpt>
      <trkpt lat="45.05284" lon="4.56775">
        <ele>831</ele>
        <time>2018-04-11T18:10:45Z</time>
      </trkpt>
      <trkpt lat="45.05276" lon="4.56767">
        <ele>830</ele>
        <time>2018-04-11T18:11:45Z</time>
      </trkpt>
      <trkpt lat="45.05273" lon="4.56763">
        <ele>830</ele>
        <time>2018-04-11T18:12:45Z</time>
      </trkpt>
      <trkpt lat="45.05266" lon="4.56756">
        <ele>830</ele>
        <time>2018-04-11T18:13:45Z</time>
      </trkpt>
      <trkpt lat="45.05259" lon="4.56748">
        <ele>830</ele>
        <time>2018-04-11T18:14:45Z</time>
      </trkpt>
      <trkpt lat="45.05255" lon="4.56743">
        <ele>830</ele>
        <time>2018-04-11T18:15:45Z</time>
      </trkpt>
      <trkpt lat="45.05255" lon="4.56743">
        <ele>830</ele>
        <time>2018-04-11T18:16:45Z</time>
      </trkpt>
      <trkpt lat="45.05241" lon="4.5673">
        <ele>829</ele>
        <time>2018-04-11T18:17:45Z</time>
      </trkpt>
      <trkpt lat="45.05234" lon="4.56725">
        <ele>828</ele>
        <time>2018-04-11T18:18:45Z</time>
      </trkpt>
      <trkpt lat="45.0523" lon="4.5672">
        <ele>828</ele>
        <time>2018-04-11T18:19:45Z</time>
      </trkpt>
      <trkpt lat="45.05212" lon="4.56696">
        <ele>828</ele>
        <time>2018-04-11T18:20:45Z</time>
      </trkpt>
      <trkpt lat="45.05194" lon="4.56671">
        <ele>828</ele>
        <time>2018-04-11T18:21:45Z</time>
      </trkpt>
      <trkpt lat="45.05188" lon="4.56663">
        <ele>833</ele>
        <time>2018-04-11T18:22:45Z</time>
      </trkpt>
      <trkpt lat="45.05185" lon="4.5666">
        <ele>833</ele>
        <time>2018-04-11T18:23:45Z</time>
      </trkpt>
      <trkpt lat="45.0517" lon="4.56648">
        <ele>833</ele>
        <time>2018-04-11T18:24:45Z</time>
      </trkpt>
      <trkpt lat="45.05142" lon="4.56627">
        <ele>832</ele>
        <time>2018-04-11T18:25:45Z</time>
      </trkpt>
      <trkpt lat="45.05116" lon="4.56603">
        <ele>834</ele>
        <time>2018-04-11T18:26:45Z</time>
      </trkpt>
      <trkpt lat="45.05105" lon="4.56591">
        <ele>835</ele>
        <time>2018-04-11T18:27:45Z</time>
      </trkpt>
      <trkpt lat="45.05093" lon="4.56577">
        <ele>841</ele>
        <time>2018-04-11T18:28:45Z</time>
      </trkpt>
      <trkpt lat="45.05083" lon="4.56563">
        <ele>840</ele>
        <time>2018-04-11T18:29:45Z</time>
      </trkpt>
      <trkpt lat="45.0508" lon="4.56558">
        <ele>840</ele>
        <time>2018-04-11T18:30:45Z</time>
      </trkpt>
      <trkpt lat="45.05073" lon="4.56546">
        <ele>841</ele>
        <time>2018-04-11T18:31:45Z</time>
      </trkpt>
      <trkpt lat="45.05067" lon="4.56535">
        <ele>842</ele>
        <time>2018-04-11T18:32:45Z</time>
      </trkpt>
      <trkpt lat="45.05064" lon="4.5653">
        <ele>843</ele>
        <time>2018-04-11T18:33:45Z</time>
      </trkpt>
      <trkpt lat="45.05054" lon="4.56518">
        <ele>843</ele>
        <time>2018-04-11T18:34:45Z</time>
      </trkpt>
      <trkpt lat="45.05044" lon="4.56508">
        <ele>842</ele>
        <time>2018-04-11T18:35:45Z</time>
      </trkpt>
      <trkpt lat="45.05027" lon="4.56491">
        <ele>846</ele>
        <time>2018-04-11T18:36:45Z</time>
      </trkpt>
      <trkpt lat="45.05018" lon="4.56479">
        <ele>846</ele>
        <time>2018-04-11T18:37:45Z</time>
      </trkpt>
      <trkpt lat="45.0501" lon="4.56464">
        <ele>846</ele>
        <time>2018-04-11T18:38:45Z</time>
      </trkpt>
      <trkpt lat="45.05002" lon="4.56439">
        <ele>846</ele>
        <time>2018-04-11T18:39:45Z</time>
      </trkpt>
      <trkpt lat="45.05" lon="4.56433">
        <ele>839</ele>
        <time>2018-04-11T18:40:45Z</time>
      </trkpt>
      <trkpt lat="45.0499" lon="4.56408">
        <ele>842</ele>
        <time>2018-04-11T18:41:45Z</time>
      </trkpt>
      <trkpt lat="45.04974" lon="4.56395">
        <ele>841</ele>
        <time>2018-04-11T18:42:45Z</time>
      </trkpt>
      <trkpt lat="45.04959" lon="4.56383">
        <ele>840</ele>
        <time>2018-04-11T18:43:45Z</time>
      </trkpt>
      <trkpt lat="45.04954" lon="4.56379">
        <ele>840</ele>
        <time>2018-04-11T18:44:45Z</time>
      </trkpt>
      <trkpt lat="45.0495" lon="4.56378">
        <ele>840</ele>
        <time>2018-04-11T18:45:45Z</time>
      </trkpt>
      <trkpt lat="45.0494" lon="4.56374">
        <ele>839</ele>
        <time>2018-04-11T18:46:45Z</time>
      </trkpt>
      <trkpt lat="45.04925" lon="4.56356">
        <ele>841</ele>
        <time>2018-04-11T18:47:45Z</time>
      </trkpt>
      <trkpt lat="45.04917" lon="4.56339">
        <ele>843</ele>
        <time>2018-04-11T18:48:45Z</time>
      </trkpt>
      <trkpt lat="45.04896" lon="4.5629">
        <ele>843</ele>
        <time>2018-04-11T18:49:45Z</time>
      </trkpt>
      <trkpt lat="45.04877" lon="4.56251">
        <ele>843</ele>
        <time>2018-04-11T18:50:45Z</time>
      </trkpt>
      <trkpt lat="45.04854" lon="4.56219">
        <ele>853</ele>
        <time>2018-04-11T18:51:45Z</time>
      </trkpt>
      <trkpt lat="45.0483" lon="4.56189">
        <ele>855</ele>
        <time>2018-04-11T18:52:45Z</time>
      </trkpt>
      <trkpt lat="45.04811" lon="4.56169">
        <ele>856</ele>
        <time>2018-04-11T18:53:45Z</time>
      </trkpt>
      <trkpt lat="45.04809" lon="4.56167">
        <ele>856</ele>
        <time>2018-04-11T18:54:45Z</time>
      </trkpt>
      <trkpt lat="45.04806" lon="4.56166">
        <ele>869</ele>
        <time>2018-04-11T18:55:45Z</time>
      </trkpt>
      <trkpt lat="45.04802" lon="4.56169">
        <ele>855</ele>
        <time>2018-04-11T18:56:45Z</time>
      </trkpt>
      <trkpt lat="45.04798" lon="4.56172">
        <ele>854</ele>
        <time>2018-04-11T18:57:45Z</time>
      </trkpt>
      <trkpt lat="45.04788" lon="4.5618">
        <ele>853</ele>
        <time>2018-04-11T18:58:45Z</time>
      </trkpt>
      <trkpt lat="45.04788" lon="4.5618">
        <ele>853</ele>
        <time>2018-04-11T18:59:45Z</time>
      </trkpt>
      <trkpt lat="45.04767" lon="4.56188">
        <ele>853</ele>
        <time>2018-04-11T19:00:45Z</time>
      </trkpt>
      <trkpt lat="45.04752" lon="4.56192">
        <ele>852</ele>
        <time>2018-04-11T19:01:45Z</time>
      </trkpt>
      <trkpt lat="45.04749" lon="4.56193">
        <ele>850</ele>
        <time>2018-04-11T19:02:45Z</time>
      </trkpt>
      <trkpt lat="45.04737" lon="4.56194">
        <ele>849</ele>
        <time>2018-04-11T19:03:45Z</time>
      </trkpt>
      <trkpt lat="45.04717" lon="4.56192">
        <ele>848</ele>
        <time>2018-04-11T19:04:45Z</time>
      </trkpt>
      <trkpt lat="45.04684" lon="4.56187">
        <ele>848</ele>
        <time>2018-04-11T19:05:45Z</time>
      </trkpt>
      <trkpt lat="45.04654" lon="4.56185">
        <ele>846</ele>
        <time>2018-04-11T19:06:45Z</time>
      </trkpt>
      <trkpt lat="45.04634" lon="4.5618">
        <ele>844</ele>
        <time>2018-04-11T19:07:45Z</time>
      </trkpt>
      <trkpt lat="45.04625" lon="4.56176">
        <ele>843</ele>
        <time>2018-04-11T19:08:45Z</time>
      </trkpt>
      <trkpt lat="45.04614" lon="4.56167">
        <ele>843</ele>
        <time>2018-04-11T19:09:45Z</time>
      </trkpt>
      <trkpt lat="45.04608" lon="4.56158">
        <ele>851</ele>
        <time>2018-04-11T19:10:45Z</time>
      </trkpt>
      <trkpt lat="45.04602" lon="4.56143">
        <ele>852</ele>
        <time>2018-04-11T19:11:45Z</time>
      </trkpt>
      <trkpt lat="45.04599" lon="4.56131">
        <ele>853</ele>
        <time>2018-04-11T19:12:45Z</time>
      </trkpt>
      <trkpt lat="45.04598" lon="4.56112">
        <ele>853</ele>
        <time>2018-04-11T19:13:45Z</time>
      </trkpt>
      <trkpt lat="45.04599" lon="4.56083">
        <ele>855</ele>
        <time>2018-04-11T19:14:45Z</time>
      </trkpt>
      <trkpt lat="45.04602" lon="4.56064">
        <ele>858</ele>
        <time>2018-04-11T19:15:45Z</time>
      </trkpt>
      <trkpt lat="45.04608" lon="4.5603">
        <ele>860</ele>
        <time>2018-04-11T19:16:45Z</time>
      </trkpt>
      <trkpt lat="45.0462" lon="4.55988">
        <ele>865</ele>
        <time>2018-04-11T19:17:45Z</time>
      </trkpt>
      <trkpt lat="45.04625" lon="4.55962">
        <ele>867</ele>
        <time>2018-04-11T19:18:45Z</time>
      </trkpt>
      <trkpt lat="45.04626" lon="4.55938">
        <ele>868</ele>
        <time>2018-04-11T19:19:45Z</time>
      </trkpt>
      <trkpt lat="45.04624" lon="4.55919">
        <ele>868</ele>
        <time>2018-04-11T19:20:45Z</time>
      </trkpt>
      <trkpt lat="45.04617" lon="4.5589">
        <ele>870</ele>
        <time>2018-04-11T19:21:45Z</time>
      </trkpt>
      <trkpt lat="45.04608" lon="4.55853">
        <ele>869</ele>
        <time>2018-04-11T19:22:45Z</time>
      </trkpt>
      <trkpt lat="45.0459" lon="4.55799">
        <ele>874</ele>
        <time>2018-04-11T19:23:45Z</time>
      </trkpt>
      <trkpt lat="45.04568" lon="4.55735">
        <ele>868</ele>
        <time>2018-04-11T19:24:45Z</time>
      </trkpt>
      <trkpt lat="45.04552" lon="4.55685">
        <ele>872</ele>
        <time>2018-04-11T19:25:45Z</time>
      </trkpt>
      <trkpt lat="45.04547" lon="4.5567">
        <ele>872</ele>
        <time>2018-04-11T19:26:45Z</time>
      </trkpt>
      <trkpt lat="45.0454" lon="4.5566">
        <ele>882</ele>
        <time>2018-04-11T19:27:45Z</time>
      </trkpt>
      <trkpt lat="45.04531" lon="4.55654">
        <ele>881</ele>
        <time>2018-04-11T19:28:45Z</time>
      </trkpt>
      <trkpt lat="45.04523" lon="4.55649">
        <ele>879</ele>
        <time>2018-04-11T19:29:45Z</time>
      </trkpt>
      <trkpt lat="45.04496" lon="4.55642">
        <ele>868</ele>
        <time>2018-04-11T19:30:45Z</time>
      </trkpt>
      <trkpt lat="45.04469" lon="4.55634">
        <ele>867</ele>
        <time>2018-04-11T19:31:45Z</time>
      </trkpt>
      <trkpt lat="45.04451" lon="4.55624">
        <ele>866</ele>
        <time>2018-04-11T19:32:45Z</time>
      </trkpt>
      <trkpt lat="45.04443" lon="4.55615">
        <ele>866</ele>
        <time>2018-04-11T19:33:45Z</time>
      </trkpt>
      <trkpt lat="45.04429" lon="4.55589">
        <ele>866</ele>
        <time>2018-04-11T19:34:45Z</time>
      </trkpt>
      <trkpt lat="45.04416" lon="4.55559">
        <ele>860</ele>
        <time>2018-04-11T19:35:45Z</time>
      </trkpt>
      <trkpt lat="45.0439" lon="4.55505">
        <ele>861</ele>
        <time>2018-04-11T19:36:45Z</time>
      </trkpt>
      <trkpt lat="45.04377" lon="4.55473">
        <ele>867</ele>
        <time>2018-04-11T19:37:45Z</time>
      </trkpt>
      <trkpt lat="45.04371" lon="4.55458">
        <ele>868</ele>
        <time>2018-04-11T19:38:45Z</time>
      </trkpt>
      <trkpt lat="45.04363" lon="4.5543">
        <ele>868</ele>
        <time>2018-04-11T19:39:45Z</time>
      </trkpt>
      <trkpt lat="45.04353" lon="4.55408">
        <ele>874</ele>
        <time>2018-04-11T19:40:45Z</time>
      </trkpt>
      <trkpt lat="45.04345" lon="4.55394">
        <ele>875</ele>
        <time>2018-04-11T19:41:45Z</time>
      </trkpt>
      <trkpt lat="45.04337" lon="4.55386">
        <ele>876</ele>
        <time>2018-04-11T19:42:45Z</time>
      </trkpt>
      <trkpt lat="45.0433" lon="4.5538">
        <ele>868</ele>
        <time>2018-04-11T19:43:45Z</time>
      </trkpt>
      <trkpt lat="45.04323" lon="4.55376">
        <ele>868</ele>
        <time>2018-04-11T19:44:45Z</time>
      </trkpt>
      <trkpt lat="45.04313" lon="4.55374">
        <ele>868</ele>
        <time>2018-04-11T19:45:45Z</time>
      </trkpt>
      <trkpt lat="45.04297" lon="4.55373">
        <ele>866</ele>
        <time>2018-04-11T19:46:45Z</time>
      </trkpt>
      <trkpt lat="45.0429" lon="4.55373">
        <ele>866</ele>
        <time>2018-04-11T19:47:45Z</time>
      </trkpt>
      <trkpt lat="45.0428" lon="4.5537">
        <ele>865</ele>
        <time>2018-04-11T19:48:45Z</time>
      </trkpt>
      <trkpt lat="45.04271" lon="4.55366">
        <ele>865</ele>
        <time>2018-04-11T19:49:45Z</time>
      </trkpt>
      <trkpt lat="45.04265" lon="4.5536">
        <ele>866</ele>
        <time>2018-04-11T19:50:45Z</time>
      </trkpt>
      <trkpt lat="45.04256" lon="4.55346">
        <ele>867</ele>
        <time>2018-04-11T19:51:45Z</time>
      </trkpt>
      <trkpt lat="45.04246" lon="4.55318">
        <ele>868</ele>
        <time>2018-04-11T19:52:45Z</time>
      </trkpt>
      <trkpt lat="45.04229" lon="4.5529">
        <ele>869</ele>
        <time>2018-04-11T19:53:45Z</time>
      </trkpt>
      <trkpt lat="45.04207" lon="4.5526">
        <ele>869</ele>
        <time>2018-04-11T19:54:45Z</time>
      </trkpt>
      <trkpt lat="45.0419" lon="4.55233">
        <ele>877</ele>
        <time>2018-04-11T19:55:45Z</time>
      </trkpt>
      <trkpt lat="45.04182" lon="4.55213">
        <ele>878</ele>
        <time>2018-04-11T19:56:45Z</time>
      </trkpt>
      <trkpt lat="45.04178" lon="4.55196">
        <ele>879</ele>
        <time>2018-04-11T19:57:45Z</time>
      </trkpt>
      <trkpt lat="45.04178" lon="4.55196">
        <ele>879</ele>
        <time>2018-04-11T19:58:45Z</time>
      </trkpt>
      <trkpt lat="45.04175" lon="4.55172">
        <ele>877</ele>
        <time>2018-04-11T19:59:45Z</time>
      </trkpt>
      <trkpt lat="45.04175" lon="4.55151">
        <ele>881</ele>
        <time>2018-04-11T20:00:45Z</time>
      </trkpt>
      <trkpt lat="45.04176" lon="4.5513">
        <ele>884</ele>
        <time>2018-04-11T20:01:45Z</time>
      </trkpt>
      <trkpt lat="45.04181" lon="4.55102">
        <ele>883</ele>
        <time>2018-04-11T20:02:45Z</time>
      </trkpt>
      <trkpt lat="45.04189" lon="4.55067">
        <ele>885</ele>
        <time>2018-04-11T20:03:45Z</time>
      </trkpt>
      <trkpt lat="45.04194" lon="4.55043">
        <ele>888</ele>
        <time>2018-04-11T20:04:45Z</time>
      </trkpt>
      <trkpt lat="45.04195" lon="4.55036">
        <ele>888</ele>
        <time>2018-04-11T20:05:45Z</time>
      </trkpt>
      <trkpt lat="45.04194" lon="4.55026">
        <ele>888</ele>
        <time>2018-04-11T20:06:45Z</time>
      </trkpt>
      <trkpt lat="45.04192" lon="4.55017">
        <ele>887</ele>
        <time>2018-04-11T20:07:45Z</time>
      </trkpt>
      <trkpt lat="45.04188" lon="4.55007">
        <ele>886</ele>
        <time>2018-04-11T20:08:45Z</time>
      </trkpt>
      <trkpt lat="45.04154" lon="4.54963">
        <ele>879</ele>
        <time>2018-04-11T20:09:45Z</time>
      </trkpt>
      <trkpt lat="45.04133" lon="4.54937">
        <ele>879</ele>
        <time>2018-04-11T20:10:45Z</time>
      </trkpt>
      <trkpt lat="45.04125" lon="4.54924">
        <ele>878</ele>
        <time>2018-04-11T20:11:45Z</time>
      </trkpt>
      <trkpt lat="45.04115" lon="4.54907">
        <ele>887</ele>
        <time>2018-04-11T20:12:45Z</time>
      </trkpt>
      <trkpt lat="45.04101" lon="4.54876">
        <ele>889</ele>
        <time>2018-04-11T20:13:45Z</time>
      </trkpt>
      <trkpt lat="45.04098" lon="4.54865">
        <ele>890</ele>
        <time>2018-04-11T20:14:45Z</time>
      </trkpt>
      <trkpt lat="45.04093" lon="4.54847">
        <ele>889</ele>
        <time>2018-04-11T20:15:45Z</time>
      </trkpt>
      <trkpt lat="45.04083" lon="4.54823">
        <ele>884</ele>
        <time>2018-04-11T20:16:45Z</time>
      </trkpt>
      <trkpt lat="45.04079" lon="4.54813">
        <ele>883</ele>
        <time>2018-04-11T20:17:45Z</time>
      </trkpt>
      <trkpt lat="45.0407" lon="4.54789">
        <ele>883</ele>
        <time>2018-04-11T20:18:45Z</time>
      </trkpt>
      <trkpt lat="45.04058" lon="4.54761">
        <ele>886</ele>
        <time>2018-04-11T20:19:45Z</time>
      </trkpt>
      <trkpt lat="45.04052" lon="4.5475">
        <ele>885</ele>
        <time>2018-04-11T20:20:45Z</time>
      </trkpt>
      <trkpt lat="45.0405" lon="4.54747">
        <ele>895</ele>
        <time>2018-04-11T20:21:45Z</time>
      </trkpt>
      <trkpt lat="45.04046" lon="4.54744">
        <ele>894</ele>
        <time>2018-04-11T20:22:45Z</time>
      </trkpt>
      <trkpt lat="45.04042" lon="4.54739">
        <ele>893</ele>
        <time>2018-04-11T20:23:45Z</time>
      </trkpt>
      <trkpt lat="45.04038" lon="4.54734">
        <ele>893</ele>
        <time>2018-04-11T20:24:45Z</time>
      </trkpt>
      <trkpt lat="45.04036" lon="4.5473">
        <ele>893</ele>
        <time>2018-04-11T20:25:45Z</time>
      </trkpt>
      <trkpt lat="45.04035" lon="4.54726">
        <ele>893</ele>
        <time>2018-04-11T20:26:45Z</time>
      </trkpt>
      <trkpt lat="45.04031" lon="4.54718">
        <ele>893</ele>
        <time>2018-04-11T20:27:45Z</time>
      </trkpt>
      <trkpt lat="45.04028" lon="4.54714">
        <ele>893</ele>
        <time>2018-04-11T20:28:45Z</time>
      </trkpt>
      <trkpt lat="45.04022" lon="4.54711">
        <ele>893</ele>
        <time>2018-04-11T20:29:45Z</time>
      </trkpt>
      <trkpt lat="45.0402" lon="4.54709">
        <ele>893</ele>
        <time>2018-04-11T20:30:45Z</time>
      </trkpt>
      <trkpt lat="45.04005" lon="4.547">
        <ele>893</ele>
        <time>2018-04-11T20:31:45Z</time>
      </trkpt>
      <trkpt lat="45.03993" lon="4.54689">
        <ele>880</ele>
        <time>2018-04-11T20:32:45Z</time>
      </trkpt>
      <trkpt lat="45.03983" lon="4.54678">
        <ele>881</ele>
        <time>2018-04-11T20:33:45Z</time>
      </trkpt>
      <trkpt lat="45.03978" lon="4.54669">
        <ele>880</ele>
        <time>2018-04-11T20:34:45Z</time>
      </trkpt>
      <trkpt lat="45.03959" lon="4.5463">
        <ele>894</ele>
        <time>2018-04-11T20:35:45Z</time>
      </trkpt>
      <trkpt lat="45.03956" lon="4.54622">
        <ele>895</ele>
        <time>2018-04-11T20:36:45Z</time>
      </trkpt>
      <trkpt lat="45.03957" lon="4.54604">
        <ele>898</ele>
        <time>2018-04-11T20:37:45Z</time>
      </trkpt>
      <trkpt lat="45.0395" lon="4.54612">
        <ele>896</ele>
        <time>2018-04-11T20:38:45Z</time>
      </trkpt>
      <trkpt lat="45.0395" lon="4.54612">
        <ele>896</ele>
        <time>2018-04-11T20:39:45Z</time>
      </trkpt>
      <trkpt lat="45.03945" lon="4.54608">
        <ele>896</ele>
        <time>2018-04-11T20:40:45Z</time>
      </trkpt>
      <trkpt lat="45.03936" lon="4.54604">
        <ele>895</ele>
        <time>2018-04-11T20:41:45Z</time>
      </trkpt>
      <trkpt lat="45.03924" lon="4.54602">
        <ele>895</ele>
        <time>2018-04-11T20:42:45Z</time>
      </trkpt>
      <trkpt lat="45.03912" lon="4.54599">
        <ele>887</ele>
        <time>2018-04-11T20:43:45Z</time>
      </trkpt>
      <trkpt lat="45.03902" lon="4.54594">
        <ele>887</ele>
        <time>2018-04-11T20:44:45Z</time>
      </trkpt>
      <trkpt lat="45.03886" lon="4.54583">
        <ele>895</ele>
        <time>2018-04-11T20:45:45Z</time>
      </trkpt>
      <trkpt lat="45.03865" lon="4.54571">
        <ele>892</ele>
        <time>2018-04-11T20:46:45Z</time>
      </trkpt>
      <trkpt lat="45.03848" lon="4.5456">
        <ele>891</ele>
        <time>2018-04-11T20:47:45Z</time>
      </trkpt>
      <trkpt lat="45.03844" lon="4.54557">
        <ele>891</ele>
        <time>2018-04-11T20:48:45Z</time>
      </trkpt>
      <trkpt lat="45.03838" lon="4.54551">
        <ele>891</ele>
        <time>2018-04-11T20:49:45Z</time>
      </trkpt>
      <trkpt lat="45.03833" lon="4.54545">
        <ele>882</ele>
        <time>2018-04-11T20:50:45Z</time>
      </trkpt>
      <trkpt lat="45.03828" lon="4.54537">
        <ele>883</ele>
        <time>2018-04-11T20:51:45Z</time>
      </trkpt>
      <trkpt lat="45.03825" lon="4.54529">
        <ele>884</ele>
        <time>2018-04-11T20:52:45Z</time>
      </trkpt>
      <trkpt lat="45.0382" lon="4.54513">
        <ele>886</ele>
        <time>2018-04-11T20:53:45Z</time>
      </trkpt>
      <trkpt lat="45.03815" lon="4.54501">
        <ele>886</ele>
        <time>2018-04-11T20:54:45Z</time>
      </trkpt>
      <trkpt lat="45.03815" lon="4.54501">
        <ele>886</ele>
        <time>2018-04-11T20:55:45Z</time>
      </trkpt>
      <trkpt lat="45.0382" lon="4.54499">
        <ele>892</ele>
        <time>2018-04-11T20:56:45Z</time>
      </trkpt>
      <trkpt lat="45.03825" lon="4.54496">
        <ele>892</ele>
        <time>2018-04-11T20:57:45Z</time>
      </trkpt>
      <trkpt lat="45.03834" lon="4.54492">
        <ele>896</ele>
        <time>2018-04-11T20:58:45Z</time>
      </trkpt>
      <trkpt lat="45.03834" lon="4.54492">
        <ele>896</ele>
        <time>2018-04-11T20:59:45Z</time>
      </trkpt>
      <trkpt lat="45.03835" lon="4.54498">
        <ele>893</ele>
        <time>2018-04-11T21:00:45Z</time>
      </trkpt>
      <trkpt lat="45.03836" lon="4.54502">
        <ele>892</ele>
        <time>2018-04-11T21:01:45Z</time>
      </trkpt>
      <trkpt lat="45.03838" lon="4.54505">
        <ele>892</ele>
        <time>2018-04-11T21:02:45Z</time>
      </trkpt>
      <trkpt lat="45.03839" lon="4.54508">
        <ele>893</ele>
        <time>2018-04-11T21:03:45Z</time>
      </trkpt>
      <trkpt lat="45.03842" lon="4.5451">
        <ele>893</ele>
        <time>2018-04-11T21:04:45Z</time>
      </trkpt>
      <trkpt lat="45.03845" lon="4.54512">
        <ele>894</ele>
        <time>2018-04-11T21:05:45Z</time>
      </trkpt>
      <trkpt lat="45.03847" lon="4.54513">
        <ele>894</ele>
        <time>2018-04-11T21:06:45Z</time>
      </trkpt>
      <trkpt lat="45.0385" lon="4.54513">
        <ele>894</ele>
        <time>2018-04-11T21:07:45Z</time>
      </trkpt>
      <trkpt lat="45.03852" lon="4.54513">
        <ele>895</ele>
        <time>2018-04-11T21:08:45Z</time>
      </trkpt>
      <trkpt lat="45.03854" lon="4.54514">
        <ele>895</ele>
        <time>2018-04-11T21:09:45Z</time>
      </trkpt>
      <trkpt lat="45.03855" lon="4.54517">
        <ele>895</ele>
        <time>2018-04-11T21:10:45Z</time>
      </trkpt>
      <trkpt lat="45.03855" lon="4.54519">
        <ele>895</ele>
        <time>2018-04-11T21:11:45Z</time>
      </trkpt>
      <trkpt lat="45.03856" lon="4.54523">
        <ele>895</ele>
        <time>2018-04-11T21:12:45Z</time>
      </trkpt>
      <trkpt lat="45.03858" lon="4.54526">
        <ele>895</ele>
        <time>2018-04-11T21:13:45Z</time>
      </trkpt>
      <trkpt lat="45.0386" lon="4.54528">
        <ele>895</ele>
        <time>2018-04-11T21:14:45Z</time>
      </trkpt>
      <trkpt lat="45.03863" lon="4.54529">
        <ele>896</ele>
        <time>2018-04-11T21:15:45Z</time>
      </trkpt>
      <trkpt lat="45.03865" lon="4.54529">
        <ele>896</ele>
        <time>2018-04-11T21:16:45Z</time>
      </trkpt>
      <trkpt lat="45.03869" lon="4.54525">
        <ele>897</ele>
        <time>2018-04-11T21:17:45Z</time>
      </trkpt>
      <trkpt lat="45.03872" lon="4.5452">
        <ele>898</ele>
        <time>2018-04-11T21:18:45Z</time>
      </trkpt>
      <trkpt lat="45.03876" lon="4.54512">
        <ele>899</ele>
        <time>2018-04-11T21:19:45Z</time>
      </trkpt>
      <trkpt lat="45.03879" lon="4.54508">
        <ele>900</ele>
        <time>2018-04-11T21:20:45Z</time>
      </trkpt>
      <trkpt lat="45.03897" lon="4.54461">
        <ele>912</ele>
        <time>2018-04-11T21:21:45Z</time>
      </trkpt>
      <trkpt lat="45.03901" lon="4.54456">
        <ele>913</ele>
        <time>2018-04-11T21:22:45Z</time>
      </trkpt>
      <trkpt lat="45.03905" lon="4.54447">
        <ele>914</ele>
        <time>2018-04-11T21:23:45Z</time>
      </trkpt>
      <trkpt lat="45.03907" lon="4.54436">
        <ele>917</ele>
        <time>2018-04-11T21:24:45Z</time>
      </trkpt>
      <trkpt lat="45.03911" lon="4.5441">
        <ele>926</ele>
        <time>2018-04-11T21:25:45Z</time>
      </trkpt>
      <trkpt lat="45.03911" lon="4.54406">
        <ele>926</ele>
        <time>2018-04-11T21:26:45Z</time>
      </trkpt>
      <trkpt lat="45.03911" lon="4.54403">
        <ele>926</ele>
        <time>2018-04-11T21:27:45Z</time>
      </trkpt>
      <trkpt lat="45.03911" lon="4.544">
        <ele>926</ele>
        <time>2018-04-11T21:28:45Z</time>
      </trkpt>
      <trkpt lat="45.03909" lon="4.54394">
        <ele>926</ele>
        <time>2018-04-11T21:29:45Z</time>
      </trkpt>
      <trkpt lat="45.03907" lon="4.54388">
        <ele>926</ele>
        <time>2018-04-11T21:30:45Z</time>
      </trkpt>
      <trkpt lat="45.03905" lon="4.54382">
        <ele>927</ele>
        <time>2018-04-11T21:31:45Z</time>
      </trkpt>
      <trkpt lat="45.03903" lon="4.54375">
        <ele>928</ele>
        <time>2018-04-11T21:32:45Z</time>
      </trkpt>
      <trkpt lat="45.03901" lon="4.54365">
        <ele>929</ele>
        <time>2018-04-11T21:33:45Z</time>
      </trkpt>
      <trkpt lat="45.03894" lon="4.54334">
        <ele>932</ele>
        <time>2018-04-11T21:34:45Z</time>
      </trkpt>
      <trkpt lat="45.03891" lon="4.54321">
        <ele>945</ele>
        <time>2018-04-11T21:35:45Z</time>
      </trkpt>
      <trkpt lat="45.0389" lon="4.54315">
        <ele>945</ele>
        <time>2018-04-11T21:36:45Z</time>
      </trkpt>
      <trkpt lat="45.03889" lon="4.54311">
        <ele>945</ele>
        <time>2018-04-11T21:37:45Z</time>
      </trkpt>
      <trkpt lat="45.03887" lon="4.54307">
        <ele>946</ele>
        <time>2018-04-11T21:38:45Z</time>
      </trkpt>
      <trkpt lat="45.0388" lon="4.54297">
        <ele>947</ele>
        <time>2018-04-11T21:39:45Z</time>
      </trkpt>
      <trkpt lat="45.03874" lon="4.54285">
        <ele>948</ele>
        <time>2018-04-11T21:40:45Z</time>
      </trkpt>
      <trkpt lat="45.03872" lon="4.54277">
        <ele>949</ele>
        <time>2018-04-11T21:41:45Z</time>
      </trkpt>
      <trkpt lat="45.03871" lon="4.54274">
        <ele>949</ele>
        <time>2018-04-11T21:42:45Z</time>
      </trkpt>
      <trkpt lat="45.03871" lon="4.54274">
        <ele>949</ele>
        <time>2018-04-11T21:43:45Z</time>
      </trkpt>
      <trkpt lat="45.03902" lon="4.54279">
        <ele>951</ele>
        <time>2018-04-11T21:44:45Z</time>
      </trkpt>
      <trkpt lat="45.03907" lon="4.5428">
        <ele>951</ele>
        <time>2018-04-11T21:45:45Z</time>
      </trkpt>
      <trkpt lat="45.0391" lon="4.54281">
        <ele>951</ele>
        <time>2018-04-11T21:46:45Z</time>
      </trkpt>
      <trkpt lat="45.03914" lon="4.54283">
        <ele>950</ele>
        <time>2018-04-11T21:47:45Z</time>
      </trkpt>
      <trkpt lat="45.03921" lon="4.54289">
        <ele>952</ele>
        <time>2018-04-11T21:48:45Z</time>
      </trkpt>
      <trkpt lat="45.03925" lon="4.54292">
        <ele>952</ele>
        <time>2018-04-11T21:49:45Z</time>
      </trkpt>
      <trkpt lat="45.03931" lon="4.54296">
        <ele>951</ele>
        <time>2018-04-11T21:50:45Z</time>
      </trkpt>
      <trkpt lat="45.03933" lon="4.54297">
        <ele>951</ele>
        <time>2018-04-11T21:51:45Z</time>
      </trkpt>
      <trkpt lat="45.03934" lon="4.54298">
        <ele>951</ele>
        <time>2018-04-11T21:52:45Z</time>
      </trkpt>
      <trkpt lat="45.03935" lon="4.54298">
        <ele>951</ele>
        <time>2018-04-11T21:53:45Z</time>
      </trkpt>
      <trkpt lat="45.03941" lon="4.54298">
        <ele>951</ele>
        <time>2018-04-11T21:54:45Z</time>
      </trkpt>
      <trkpt lat="45.03966" lon="4.54294">
        <ele>952</ele>
        <time>2018-04-11T21:55:45Z</time>
      </trkpt>
      <trkpt lat="45.0397" lon="4.54297">
        <ele>952</ele>
        <time>2018-04-11T21:56:45Z</time>
      </trkpt>
      <trkpt lat="45.0397" lon="4.54297">
        <ele>952</ele>
        <time>2018-04-11T21:57:45Z</time>
      </trkpt>
      <trkpt lat="45.03967" lon="4.5429">
        <ele>952</ele>
        <time>2018-04-11T21:58:45Z</time>
      </trkpt>
      <trkpt lat="45.03966" lon="4.54284">
        <ele>952</ele>
        <time>2018-04-11T21:59:45Z</time>
      </trkpt>
      <trkpt lat="45.03966" lon="4.54279">
        <ele>952</ele>
        <time>2018-04-11T22:00:45Z</time>
      </trkpt>
      <trkpt lat="45.03966" lon="4.54272">
        <ele>952</ele>
        <time>2018-04-11T22:01:45Z</time>
      </trkpt>
      <trkpt lat="45.03966" lon="4.5427">
        <ele>952</ele>
        <time>2018-04-11T22:02:45Z</time>
      </trkpt>
      <trkpt lat="45.0396" lon="4.54269">
        <ele>953</ele>
        <time>2018-04-11T22:03:45Z</time>
      </trkpt>
      <trkpt lat="45.03956" lon="4.54238">
        <ele>957</ele>
        <time>2018-04-11T22:04:45Z</time>
      </trkpt>
      <trkpt lat="45.0395" lon="4.5413">
        <ele>963</ele>
        <time>2018-04-11T22:05:45Z</time>
      </trkpt>
      <trkpt lat="45.03944" lon="4.53991">
        <ele>961</ele>
        <time>2018-04-11T22:06:45Z</time>
      </trkpt>
      <trkpt lat="45.03909" lon="4.53838">
        <ele>967</ele>
        <time>2018-04-11T22:07:45Z</time>
      </trkpt>
      <trkpt lat="45.03903" lon="4.53795">
        <ele>969</ele>
        <time>2018-04-11T22:08:45Z</time>
      </trkpt>
      <trkpt lat="45.03934" lon="4.53699">
        <ele>965</ele>
        <time>2018-04-11T22:09:45Z</time>
      </trkpt>
      <trkpt lat="45.03898" lon="4.53633">
        <ele>966</ele>
        <time>2018-04-11T22:10:45Z</time>
      </trkpt>
      <trkpt lat="45.03832" lon="4.53701">
        <ele>970</ele>
        <time>2018-04-11T22:11:45Z</time>
      </trkpt>
      <trkpt lat="45.03832" lon="4.53698">
        <ele>970</ele>
        <time>2018-04-11T22:12:45Z</time>
      </trkpt>
      <trkpt lat="45.03823" lon="4.53699">
        <ele>970</ele>
        <time>2018-04-11T22:13:45Z</time>
      </trkpt>
      <trkpt lat="45.03807" lon="4.53701">
        <ele>970</ele>
        <time>2018-04-11T22:14:45Z</time>
      </trkpt>
      <trkpt lat="45.03776" lon="4.53701">
        <ele>971</ele>
        <time>2018-04-11T22:15:45Z</time>
      </trkpt>
      <trkpt lat="45.0377" lon="4.537">
        <ele>971</ele>
        <time>2018-04-11T22:16:45Z</time>
      </trkpt>
      <trkpt lat="45.03761" lon="4.53697">
        <ele>971</ele>
        <time>2018-04-11T22:17:45Z</time>
      </trkpt>
      <trkpt lat="45.03758" lon="4.53695">
        <ele>971</ele>
        <time>2018-04-11T22:18:45Z</time>
      </trkpt>
      <trkpt lat="45.03756" lon="4.53693">
        <ele>971</ele>
        <time>2018-04-11T22:19:45Z</time>
      </trkpt>
      <trkpt lat="45.03754" lon="4.5369">
        <ele>970</ele>
        <time>2018-04-11T22:20:45Z</time>
      </trkpt>
      <trkpt lat="45.03749" lon="4.53683">
        <ele>974</ele>
        <time>2018-04-11T22:21:45Z</time>
      </trkpt>
      <trkpt lat="45.03742" lon="4.53673">
        <ele>972</ele>
        <time>2018-04-11T22:22:45Z</time>
      </trkpt>
      <trkpt lat="45.03705" lon="4.53612">
        <ele>967</ele>
        <time>2018-04-11T22:23:45Z</time>
      </trkpt>
      <trkpt lat="45.03696" lon="4.53602">
        <ele>967</ele>
        <time>2018-04-11T22:24:45Z</time>
      </trkpt>
      <trkpt lat="45.03689" lon="4.53594">
        <ele>968</ele>
        <time>2018-04-11T22:25:45Z</time>
      </trkpt>
      <trkpt lat="45.03683" lon="4.53589">
        <ele>968</ele>
        <time>2018-04-11T22:26:45Z</time>
      </trkpt>
      <trkpt lat="45.03676" lon="4.53585">
        <ele>968</ele>
        <time>2018-04-11T22:27:45Z</time>
      </trkpt>
      <trkpt lat="45.03671" lon="4.53582">
        <ele>966</ele>
        <time>2018-04-11T22:28:45Z</time>
      </trkpt>
      <trkpt lat="45.03671" lon="4.53582">
        <ele>966</ele>
        <time>2018-04-11T22:29:45Z</time>
      </trkpt>
      <trkpt lat="45.03673" lon="4.53579">
        <ele>964</ele>
        <time>2018-04-11T22:30:45Z</time>
      </trkpt>
      <trkpt lat="45.03676" lon="4.53578">
        <ele>963</ele>
        <time>2018-04-11T22:31:45Z</time>
      </trkpt>
      <trkpt lat="45.03678" lon="4.53577">
        <ele>962</ele>
        <time>2018-04-11T22:32:45Z</time>
      </trkpt>
      <trkpt lat="45.0368" lon="4.53577">
        <ele>962</ele>
        <time>2018-04-11T22:33:45Z</time>
      </trkpt>
      <trkpt lat="45.03682" lon="4.53577">
        <ele>961</ele>
        <time>2018-04-11T22:34:45Z</time>
      </trkpt>
      <trkpt lat="45.03684" lon="4.53578">
        <ele>961</ele>
        <time>2018-04-11T22:35:45Z</time>
      </trkpt>
      <trkpt lat="45.03689" lon="4.53581">
        <ele>960</ele>
        <time>2018-04-11T22:36:45Z</time>
      </trkpt>
      <trkpt lat="45.03696" lon="4.53585">
        <ele>967</ele>
        <time>2018-04-11T22:37:45Z</time>
      </trkpt>
      <trkpt lat="45.03712" lon="4.53599">
        <ele>966</ele>
        <time>2018-04-11T22:38:45Z</time>
      </trkpt>
      <trkpt lat="45.03753" lon="4.53638">
        <ele>962</ele>
        <time>2018-04-11T22:39:45Z</time>
      </trkpt>
      <trkpt lat="45.03759" lon="4.5364">
        <ele>962</ele>
        <time>2018-04-11T22:40:45Z</time>
      </trkpt>
      <trkpt lat="45.03761" lon="4.5364">
        <ele>962</ele>
        <time>2018-04-11T22:41:45Z</time>
      </trkpt>
      <trkpt lat="45.03764" lon="4.5364">
        <ele>962</ele>
        <time>2018-04-11T22:42:45Z</time>
      </trkpt>
      <trkpt lat="45.03768" lon="4.5364">
        <ele>962</ele>
        <time>2018-04-11T22:43:45Z</time>
      </trkpt>
      <trkpt lat="45.03778" lon="4.53636">
        <ele>961</ele>
        <time>2018-04-11T22:44:45Z</time>
      </trkpt>
      <trkpt lat="45.03781" lon="4.53635">
        <ele>961</ele>
        <time>2018-04-11T22:45:45Z</time>
      </trkpt>
      <trkpt lat="45.03781" lon="4.53635">
        <ele>961</ele>
        <time>2018-04-11T22:46:45Z</time>
      </trkpt>
      <trkpt lat="45.0379" lon="4.53629">
        <ele>961</ele>
        <time>2018-04-11T22:47:45Z</time>
      </trkpt>
      <trkpt lat="45.03797" lon="4.53624">
        <ele>960</ele>
        <time>2018-04-11T22:48:45Z</time>
      </trkpt>
      <trkpt lat="45.03801" lon="4.53621">
        <ele>960</ele>
        <time>2018-04-11T22:49:45Z</time>
      </trkpt>
      <trkpt lat="45.03804" lon="4.53616">
        <ele>959</ele>
        <time>2018-04-11T22:50:45Z</time>
      </trkpt>
      <trkpt lat="45.03822" lon="4.53593">
        <ele>956</ele>
        <time>2018-04-11T22:51:45Z</time>
      </trkpt>
      <trkpt lat="45.0383" lon="4.53582">
        <ele>952</ele>
        <time>2018-04-11T22:52:45Z</time>
      </trkpt>
      <trkpt lat="45.03834" lon="4.53577">
        <ele>953</ele>
        <time>2018-04-11T22:53:45Z</time>
      </trkpt>
      <trkpt lat="45.03841" lon="4.53565">
        <ele>954</ele>
        <time>2018-04-11T22:54:45Z</time>
      </trkpt>
      <trkpt lat="45.0386" lon="4.53516">
        <ele>951</ele>
        <time>2018-04-11T22:55:45Z</time>
      </trkpt>
      <trkpt lat="45.03879" lon="4.53477">
        <ele>945</ele>
        <time>2018-04-11T22:56:45Z</time>
      </trkpt>
      <trkpt lat="45.03882" lon="4.53473">
        <ele>945</ele>
        <time>2018-04-11T22:57:45Z</time>
      </trkpt>
      <trkpt lat="45.03886" lon="4.53466">
        <ele>945</ele>
        <time>2018-04-11T22:58:45Z</time>
      </trkpt>
      <trkpt lat="45.03891" lon="4.53457">
        <ele>945</ele>
        <time>2018-04-11T22:59:45Z</time>
      </trkpt>
      <trkpt lat="45.03896" lon="4.53446">
        <ele>945</ele>
        <time>2018-04-11T23:00:45Z</time>
      </trkpt>
      <trkpt lat="45.03904" lon="4.53432">
        <ele>945</ele>
        <time>2018-04-11T23:01:45Z</time>
      </trkpt>
      <trkpt lat="45.03911" lon="4.5342">
        <ele>946</ele>
        <time>2018-04-11T23:02:45Z</time>
      </trkpt>
      <trkpt lat="45.03921" lon="4.53405">
        <ele>951</ele>
        <time>2018-04-11T23:03:45Z</time>
      </trkpt>
      <trkpt lat="45.03938" lon="4.53377">
        <ele>955</ele>
        <time>2018-04-11T23:04:45Z</time>
      </trkpt>
      <trkpt lat="45.03939" lon="4.53369">
        <ele>955</ele>
        <time>2018-04-11T23:05:45Z</time>
      </trkpt>
      <trkpt lat="45.03941" lon="4.53361">
        <ele>955</ele>
        <time>2018-04-11T23:06:45Z</time>
      </trkpt>
      <trkpt lat="45.03941" lon="4.53356">
        <ele>954</ele>
        <time>2018-04-11T23:07:45Z</time>
      </trkpt>
      <trkpt lat="45.03942" lon="4.53348">
        <ele>954</ele>
        <time>2018-04-11T23:08:45Z</time>
      </trkpt>
      <trkpt lat="45.03941" lon="4.53342">
        <ele>953</ele>
        <time>2018-04-11T23:09:45Z</time>
      </trkpt>
      <trkpt lat="45.03938" lon="4.53329">
        <ele>953</ele>
        <time>2018-04-11T23:10:45Z</time>
      </trkpt>
      <trkpt lat="45.03935" lon="4.53316">
        <ele>953</ele>
        <time>2018-04-11T23:11:45Z</time>
      </trkpt>
      <trkpt lat="45.03918" lon="4.53252">
        <ele>946</ele>
        <time>2018-04-11T23:12:45Z</time>
      </trkpt>
      <trkpt lat="45.03908" lon="4.53218">
        <ele>937</ele>
        <time>2018-04-11T23:13:45Z</time>
      </trkpt>
      <trkpt lat="45.03898" lon="4.53186">
        <ele>938</ele>
        <time>2018-04-11T23:14:45Z</time>
      </trkpt>
      <trkpt lat="45.03894" lon="4.53174">
        <ele>939</ele>
        <time>2018-04-11T23:15:45Z</time>
      </trkpt>
      <trkpt lat="45.03888" lon="4.53161">
        <ele>941</ele>
        <time>2018-04-11T23:16:45Z</time>
      </trkpt>
      <trkpt lat="45.03877" lon="4.53138">
        <ele>938</ele>
        <time>2018-04-11T23:17:45Z</time>
      </trkpt>
      <trkpt lat="45.03877" lon="4.53138">
        <ele>938</ele>
        <time>2018-04-11T23:18:45Z</time>
      </trkpt>
      <trkpt lat="45.03885" lon="4.53142">
        <ele>940</ele>
        <time>2018-04-11T23:19:45Z</time>
      </trkpt>
      <trkpt lat="45.03888" lon="4.53146">
        <ele>940</ele>
        <time>2018-04-11T23:20:45Z</time>
      </trkpt>
      <trkpt lat="45.03891" lon="4.53148">
        <ele>941</ele>
        <time>2018-04-11T23:21:45Z</time>
      </trkpt>
      <trkpt lat="45.03891" lon="4.53148">
        <ele>941</ele>
        <time>2018-04-11T23:22:45Z</time>
      </trkpt>
      <trkpt lat="45.03893" lon="4.53149">
        <ele>942</ele>
        <time>2018-04-11T23:23:45Z</time>
      </trkpt>
      <trkpt lat="45.03896" lon="4.53148">
        <ele>942</ele>
        <time>2018-04-11T23:24:45Z</time>
      </trkpt>
      <trkpt lat="45.03897" lon="4.53148">
        <ele>942</ele>
        <time>2018-04-11T23:25:45Z</time>
      </trkpt>
      <trkpt lat="45.03898" lon="4.53146">
        <ele>943</ele>
        <time>2018-04-11T23:26:45Z</time>
      </trkpt>
      <trkpt lat="45.039" lon="4.53143">
        <ele>943</ele>
        <time>2018-04-11T23:27:45Z</time>
      </trkpt>
      <trkpt lat="45.039" lon="4.53135">
        <ele>942</ele>
        <time>2018-04-11T23:28:45Z</time>
      </trkpt>
      <trkpt lat="45.039" lon="4.53128">
        <ele>942</ele>
        <time>2018-04-11T23:29:45Z</time>
      </trkpt>
      <trkpt lat="45.03899" lon="4.53119">
        <ele>943</ele>
        <time>2018-04-11T23:30:45Z</time>
      </trkpt>
      <trkpt lat="45.03898" lon="4.5311">
        <ele>943</ele>
        <time>2018-04-11T23:31:45Z</time>
      </trkpt>
      <trkpt lat="45.03897" lon="4.53102">
        <ele>944</ele>
        <time>2018-04-11T23:32:45Z</time>
      </trkpt>
      <trkpt lat="45.03896" lon="4.5309">
        <ele>945</ele>
        <time>2018-04-11T23:33:45Z</time>
      </trkpt>
      <trkpt lat="45.03897" lon="4.53081">
        <ele>948</ele>
        <time>2018-04-11T23:34:45Z</time>
      </trkpt>
      <trkpt lat="45.03897" lon="4.53072">
        <ele>947</ele>
        <time>2018-04-11T23:35:45Z</time>
      </trkpt>
      <trkpt lat="45.03899" lon="4.53058">
        <ele>946</ele>
        <time>2018-04-11T23:36:45Z</time>
      </trkpt>
      <trkpt lat="45.03905" lon="4.53031">
        <ele>947</ele>
        <time>2018-04-11T23:37:45Z</time>
      </trkpt>
      <trkpt lat="45.03921" lon="4.5296">
        <ele>968</ele>
        <time>2018-04-11T23:38:45Z</time>
      </trkpt>
      <trkpt lat="45.0392" lon="4.52934">
        <ele>965</ele>
        <time>2018-04-11T23:39:45Z</time>
      </trkpt>
      <trkpt lat="45.03918" lon="4.52903">
        <ele>963</ele>
        <time>2018-04-11T23:40:45Z</time>
      </trkpt>
      <trkpt lat="45.03923" lon="4.52902">
        <ele>963</ele>
        <time>2018-04-11T23:41:45Z</time>
      </trkpt>
      <trkpt lat="45.03922" lon="4.52837">
        <ele>958</ele>
        <time>2018-04-11T23:42:45Z</time>
      </trkpt>
      <trkpt lat="45.03919" lon="4.52727">
        <ele>959</ele>
        <time>2018-04-11T23:43:45Z</time>
      </trkpt>
      <trkpt lat="45.03933" lon="4.52661">
        <ele>953</ele>
        <time>2018-04-11T23:44:45Z</time>
      </trkpt>
      <trkpt lat="45.0395" lon="4.52668">
        <ele>963</ele>
        <time>2018-04-11T23:45:45Z</time>
      </trkpt>
      <trkpt lat="45.0397" lon="4.52613">
        <ele>966</ele>
        <time>2018-04-11T23:46:45Z</time>
      </trkpt>
      <trkpt lat="45.03967" lon="4.52528">
        <ele>965</ele>
        <time>2018-04-11T23:47:45Z</time>
      </trkpt>
      <trkpt lat="45.03918" lon="4.52406">
        <ele>960</ele>
        <time>2018-04-11T23:48:45Z</time>
      </trkpt>
      <trkpt lat="45.03931" lon="4.52368">
        <ele>963</ele>
        <time>2018-04-11T23:49:45Z</time>
      </trkpt>
      <trkpt lat="45.03957" lon="4.52312">
        <ele>961</ele>
        <time>2018-04-11T23:50:45Z</time>
      </trkpt>
      <trkpt lat="45.04044" lon="4.52358">
        <ele>970</ele>
        <time>2018-04-11T23:51:45Z</time>
      </trkpt>
      <trkpt lat="45.04051" lon="4.52358">
        <ele>970</ele>
        <time>2018-04-11T23:52:45Z</time>
      </trkpt>
      <trkpt lat="45.04051" lon="4.5236">
        <ele>970</ele>
        <time>2018-04-11T23:53:45Z</time>
      </trkpt>
      <trkpt lat="45.04052" lon="4.52362">
        <ele>970</ele>
        <time>2018-04-11T23:54:45Z</time>
      </trkpt>
      <trkpt lat="45.04054" lon="4.52364">
        <ele>970</ele>
        <time>2018-04-11T23:55:45Z</time>
      </trkpt>
      <trkpt lat="45.04063" lon="4.52374">
        <ele>971</ele>
        <time>2018-04-11T23:56:45Z</time>
      </trkpt>
      <trkpt lat="45.0408" lon="4.52393">
        <ele>974</ele>
        <time>2018-04-11T23:57:45Z</time>
      </trkpt>
      <trkpt lat="45.04106" lon="4.52425">
        <ele>978</ele>
        <time>2018-04-11T23:58:45Z</time>
      </trkpt>
      <trkpt lat="45.04121" lon="4.52442">
        <ele>979</ele>
        <time>2018-04-11T23:59:45Z</time>
      </trkpt>
      <trkpt lat="45.0413" lon="4.52452">
        <ele>979</ele>
        <time>2018-04-12T00:00:45Z</time>
      </trkpt>
      <trkpt lat="45.04159" lon="4.52479">
        <ele>980</ele>
        <time>2018-04-12T00:01:45Z</time>
      </trkpt>
      <trkpt lat="45.04174" lon="4.5249">
        <ele>977</ele>
        <time>2018-04-12T00:02:45Z</time>
      </trkpt>
      <trkpt lat="45.04192" lon="4.52509">
        <ele>982</ele>
        <time>2018-04-12T00:03:45Z</time>
      </trkpt>
      <trkpt lat="45.04213" lon="4.52535">
        <ele>983</ele>
        <time>2018-04-12T00:04:45Z</time>
      </trkpt>
      <trkpt lat="45.04232" lon="4.52551">
        <ele>984</ele>
        <time>2018-04-12T00:05:45Z</time>
      </trkpt>
      <trkpt lat="45.04249" lon="4.52565">
        <ele>984</ele>
        <time>2018-04-12T00:06:45Z</time>
      </trkpt>
      <trkpt lat="45.04256" lon="4.52574">
        <ele>982</ele>
        <time>2018-04-12T00:07:45Z</time>
      </trkpt>
      <trkpt lat="45.04264" lon="4.52586">
        <ele>984</ele>
        <time>2018-04-12T00:08:45Z</time>
      </trkpt>
      <trkpt lat="45.04271" lon="4.526">
        <ele>984</ele>
        <time>2018-04-12T00:09:45Z</time>
      </trkpt>
      <trkpt lat="45.04279" lon="4.52625">
        <ele>985</ele>
        <time>2018-04-12T00:10:45Z</time>
      </trkpt>
      <trkpt lat="45.04285" lon="4.52655">
        <ele>986</ele>
        <time>2018-04-12T00:11:45Z</time>
      </trkpt>
      <trkpt lat="45.04292" lon="4.52692">
        <ele>992</ele>
        <time>2018-04-12T00:12:45Z</time>
      </trkpt>
      <trkpt lat="45.04294" lon="4.5271">
        <ele>992</ele>
        <time>2018-04-12T00:13:45Z</time>
      </trkpt>
      <trkpt lat="45.04294" lon="4.52727">
        <ele>993</ele>
        <time>2018-04-12T00:14:45Z</time>
      </trkpt>
      <trkpt lat="45.04292" lon="4.5275">
        <ele>994</ele>
        <time>2018-04-12T00:15:45Z</time>
      </trkpt>
      <trkpt lat="45.04296" lon="4.52788">
        <ele>1001</ele>
        <time>2018-04-12T00:16:45Z</time>
      </trkpt>
      <trkpt lat="45.04299" lon="4.52815">
        <ele>1002</ele>
        <time>2018-04-12T00:17:45Z</time>
      </trkpt>
      <trkpt lat="45.043" lon="4.52827">
        <ele>1003</ele>
        <time>2018-04-12T00:18:45Z</time>
      </trkpt>
      <trkpt lat="45.04302" lon="4.52846">
        <ele>1009</ele>
        <time>2018-04-12T00:19:45Z</time>
      </trkpt>
      <trkpt lat="45.04305" lon="4.52854">
        <ele>1009</ele>
        <time>2018-04-12T00:20:45Z</time>
      </trkpt>
      <trkpt lat="45.04305" lon="4.52854">
        <ele>1009</ele>
        <time>2018-04-12T00:21:45Z</time>
      </trkpt>
      <trkpt lat="45.04312" lon="4.52862">
        <ele>1009</ele>
        <time>2018-04-12T00:22:45Z</time>
      </trkpt>
      <trkpt lat="45.04336" lon="4.52887">
        <ele>1006</ele>
        <time>2018-04-12T00:23:45Z</time>
      </trkpt>
      <trkpt lat="45.04363" lon="4.52908">
        <ele>1007</ele>
        <time>2018-04-12T00:24:45Z</time>
      </trkpt>
      <trkpt lat="45.04391" lon="4.52928">
        <ele>1013</ele>
        <time>2018-04-12T00:25:45Z</time>
      </trkpt>
      <trkpt lat="45.04403" lon="4.5294">
        <ele>1013</ele>
        <time>2018-04-12T00:26:45Z</time>
      </trkpt>
      <trkpt lat="45.04408" lon="4.52947">
        <ele>1013</ele>
        <time>2018-04-12T00:27:45Z</time>
      </trkpt>
      <trkpt lat="45.04415" lon="4.52959">
        <ele>1014</ele>
        <time>2018-04-12T00:28:45Z</time>
      </trkpt>
      <trkpt lat="45.04436" lon="4.53011">
        <ele>1021</ele>
        <time>2018-04-12T00:29:45Z</time>
      </trkpt>
      <trkpt lat="45.04447" lon="4.53035">
        <ele>1022</ele>
        <time>2018-04-12T00:30:45Z</time>
      </trkpt>
      <trkpt lat="45.04452" lon="4.53039">
        <ele>1022</ele>
        <time>2018-04-12T00:31:45Z</time>
      </trkpt>
      <trkpt lat="45.04458" lon="4.53043">
        <ele>1022</ele>
        <time>2018-04-12T00:32:45Z</time>
      </trkpt>
      <trkpt lat="45.04471" lon="4.5304">
        <ele>1022</ele>
        <time>2018-04-12T00:33:45Z</time>
      </trkpt>
      <trkpt lat="45.04484" lon="4.53036">
        <ele>1023</ele>
        <time>2018-04-12T00:34:45Z</time>
      </trkpt>
      <trkpt lat="45.04489" lon="4.53036">
        <ele>1023</ele>
        <time>2018-04-12T00:35:45Z</time>
      </trkpt>
      <trkpt lat="45.04492" lon="4.53037">
        <ele>1023</ele>
        <time>2018-04-12T00:36:45Z</time>
      </trkpt>
      <trkpt lat="45.04494" lon="4.53039">
        <ele>1023</ele>
        <time>2018-04-12T00:37:45Z</time>
      </trkpt>
      <trkpt lat="45.04504" lon="4.53049">
        <ele>1024</ele>
        <time>2018-04-12T00:38:45Z</time>
      </trkpt>
      <trkpt lat="45.0451" lon="4.53055">
        <ele>1024</ele>
        <time>2018-04-12T00:39:45Z</time>
      </trkpt>
      <trkpt lat="45.04515" lon="4.53057">
        <ele>1024</ele>
        <time>2018-04-12T00:40:45Z</time>
      </trkpt>
      <trkpt lat="45.04518" lon="4.53057">
        <ele>1024</ele>
        <time>2018-04-12T00:41:45Z</time>
      </trkpt>
      <trkpt lat="45.04524" lon="4.53055">
        <ele>1024</ele>
        <time>2018-04-12T00:42:45Z</time>
      </trkpt>
      <trkpt lat="45.04538" lon="4.53049">
        <ele>1024</ele>
        <time>2018-04-12T00:43:45Z</time>
      </trkpt>
      <trkpt lat="45.04542" lon="4.53049">
        <ele>1024</ele>
        <time>2018-04-12T00:44:45Z</time>
      </trkpt>
      <trkpt lat="45.04547" lon="4.5305">
        <ele>1025</ele>
        <time>2018-04-12T00:45:45Z</time>
      </trkpt>
      <trkpt lat="45.04547" lon="4.5305">
        <ele>1025</ele>
        <time>2018-04-12T00:46:45Z</time>
      </trkpt>
      <trkpt lat="45.04552" lon="4.53055">
        <ele>1025</ele>
        <time>2018-04-12T00:47:45Z</time>
      </trkpt>
      <trkpt lat="45.0456" lon="4.5307">
        <ele>1025</ele>
        <time>2018-04-12T00:48:45Z</time>
      </trkpt>
      <trkpt lat="45.04597" lon="4.53139">
        <ele>1025</ele>
        <time>2018-04-12T00:49:45Z</time>
      </trkpt>
      <trkpt lat="45.04608" lon="4.53158">
        <ele>1025</ele>
        <time>2018-04-12T00:50:45Z</time>
      </trkpt>
      <trkpt lat="45.04613" lon="4.53165">
        <ele>1025</ele>
        <time>2018-04-12T00:51:45Z</time>
      </trkpt>
      <trkpt lat="45.04623" lon="4.53173">
        <ele>1025</ele>
        <time>2018-04-12T00:52:45Z</time>
      </trkpt>
      <trkpt lat="45.04672" lon="4.5321">
        <ele>1027</ele>
        <time>2018-04-12T00:53:45Z</time>
      </trkpt>
      <trkpt lat="45.04713" lon="4.53238">
        <ele>1028</ele>
        <time>2018-04-12T00:54:45Z</time>
      </trkpt>
      <trkpt lat="45.04736" lon="4.53255">
        <ele>1029</ele>
        <time>2018-04-12T00:55:45Z</time>
      </trkpt>
      <trkpt lat="45.04748" lon="4.53258">
        <ele>1030</ele>
        <time>2018-04-12T00:56:45Z</time>
      </trkpt>
      <trkpt lat="45.04782" lon="4.53268">
        <ele>1028</ele>
        <time>2018-04-12T00:57:45Z</time>
      </trkpt>
      <trkpt lat="45.04788" lon="4.53271">
        <ele>1028</ele>
        <time>2018-04-12T00:58:45Z</time>
      </trkpt>
      <trkpt lat="45.04794" lon="4.53276">
        <ele>1027</ele>
        <time>2018-04-12T00:59:45Z</time>
      </trkpt>
      <trkpt lat="45.04807" lon="4.53289">
        <ele>1027</ele>
        <time>2018-04-12T01:00:45Z</time>
      </trkpt>
      <trkpt lat="45.04818" lon="4.53299">
        <ele>1027</ele>
        <time>2018-04-12T01:01:45Z</time>
      </trkpt>
      <trkpt lat="45.04823" lon="4.53303">
        <ele>1027</ele>
        <time>2018-04-12T01:02:45Z</time>
      </trkpt>
      <trkpt lat="45.04846" lon="4.53315">
        <ele>1024</ele>
        <time>2018-04-12T01:03:45Z</time>
      </trkpt>
      <trkpt lat="45.04866" lon="4.53328">
        <ele>1024</ele>
        <time>2018-04-12T01:04:45Z</time>
      </trkpt>
      <trkpt lat="45.04877" lon="4.53341">
        <ele>1023</ele>
        <time>2018-04-12T01:05:45Z</time>
      </trkpt>
      <trkpt lat="45.0489" lon="4.53361">
        <ele>1022</ele>
        <time>2018-04-12T01:06:45Z</time>
      </trkpt>
      <trkpt lat="45.04904" lon="4.53385">
        <ele>1022</ele>
        <time>2018-04-12T01:07:45Z</time>
      </trkpt>
      <trkpt lat="45.04917" lon="4.53416">
        <ele>1020</ele>
        <time>2018-04-12T01:08:45Z</time>
      </trkpt>
      <trkpt lat="45.04922" lon="4.53429">
        <ele>1018</ele>
        <time>2018-04-12T01:09:45Z</time>
      </trkpt>
      <trkpt lat="45.04936" lon="4.53452">
        <ele>1016</ele>
        <time>2018-04-12T01:10:45Z</time>
      </trkpt>
      <trkpt lat="45.04948" lon="4.53471">
        <ele>1016</ele>
        <time>2018-04-12T01:11:45Z</time>
      </trkpt>
      <trkpt lat="45.04966" lon="4.53491">
        <ele>1016</ele>
        <time>2018-04-12T01:12:45Z</time>
      </trkpt>
      <trkpt lat="45.04977" lon="4.53501">
        <ele>1018</ele>
        <time>2018-04-12T01:13:45Z</time>
      </trkpt>
      <trkpt lat="45.04992" lon="4.53509">
        <ele>1017</ele>
        <time>2018-04-12T01:14:45Z</time>
      </trkpt>
      <trkpt lat="45.05007" lon="4.53517">
        <ele>1015</ele>
        <time>2018-04-12T01:15:45Z</time>
      </trkpt>
      <trkpt lat="45.05028" lon="4.53533">
        <ele>1014</ele>
        <time>2018-04-12T01:16:45Z</time>
      </trkpt>
      <trkpt lat="45.05048" lon="4.53551">
        <ele>1014</ele>
        <time>2018-04-12T01:17:45Z</time>
      </trkpt>
      <trkpt lat="45.05061" lon="4.53566">
        <ele>1014</ele>
        <time>2018-04-12T01:18:45Z</time>
      </trkpt>
      <trkpt lat="45.0507" lon="4.53577">
        <ele>1014</ele>
        <time>2018-04-12T01:19:45Z</time>
      </trkpt>
      <trkpt lat="45.05076" lon="4.53583">
        <ele>1014</ele>
        <time>2018-04-12T01:20:45Z</time>
      </trkpt>
      <trkpt lat="45.05098" lon="4.53594">
        <ele>1009</ele>
        <time>2018-04-12T01:21:45Z</time>
      </trkpt>
      <trkpt lat="45.05131" lon="4.53612">
        <ele>1005</ele>
        <time>2018-04-12T01:22:45Z</time>
      </trkpt>
      <trkpt lat="45.05169" lon="4.53637">
        <ele>1003</ele>
        <time>2018-04-12T01:23:45Z</time>
      </trkpt>
      <trkpt lat="45.05169" lon="4.53637">
        <ele>1003</ele>
        <time>2018-04-12T01:24:45Z</time>
      </trkpt>
      <trkpt lat="45.05174" lon="4.53631">
        <ele>1003</ele>
        <time>2018-04-12T01:25:45Z</time>
      </trkpt>
      <trkpt lat="45.05187" lon="4.53622">
        <ele>1003</ele>
        <time>2018-04-12T01:26:45Z</time>
      </trkpt>
      <trkpt lat="45.05204" lon="4.53615">
        <ele>1003</ele>
        <time>2018-04-12T01:27:45Z</time>
      </trkpt>
      <trkpt lat="45.05229" lon="4.53606">
        <ele>1002</ele>
        <time>2018-04-12T01:28:45Z</time>
      </trkpt>
      <trkpt lat="45.05234" lon="4.53602">
        <ele>1001</ele>
        <time>2018-04-12T01:29:45Z</time>
      </trkpt>
      <trkpt lat="45.05237" lon="4.53598">
        <ele>1000</ele>
        <time>2018-04-12T01:30:45Z</time>
      </trkpt>
      <trkpt lat="45.05247" lon="4.53586">
        <ele>997</ele>
        <time>2018-04-12T01:31:45Z</time>
      </trkpt>
      <trkpt lat="45.05258" lon="4.53575">
        <ele>993</ele>
        <time>2018-04-12T01:32:45Z</time>
      </trkpt>
      <trkpt lat="45.05278" lon="4.53562">
        <ele>990</ele>
        <time>2018-04-12T01:33:45Z</time>
      </trkpt>
      <trkpt lat="45.053" lon="4.53551">
        <ele>989</ele>
        <time>2018-04-12T01:34:45Z</time>
      </trkpt>
      <trkpt lat="45.05342" lon="4.53538">
        <ele>993</ele>
        <time>2018-04-12T01:35:45Z</time>
      </trkpt>
      <trkpt lat="45.05356" lon="4.53536">
        <ele>993</ele>
        <time>2018-04-12T01:36:45Z</time>
      </trkpt>
      <trkpt lat="45.0536" lon="4.53537">
        <ele>994</ele>
        <time>2018-04-12T01:37:45Z</time>
      </trkpt>
      <trkpt lat="45.05365" lon="4.53537">
        <ele>994</ele>
        <time>2018-04-12T01:38:45Z</time>
      </trkpt>
      <trkpt lat="45.05369" lon="4.53537">
        <ele>994</ele>
        <time>2018-04-12T01:39:45Z</time>
      </trkpt>
      <trkpt lat="45.05372" lon="4.53536">
        <ele>994</ele>
        <time>2018-04-12T01:40:45Z</time>
      </trkpt>
      <trkpt lat="45.05372" lon="4.53536">
        <ele>994</ele>
        <time>2018-04-12T01:41:45Z</time>
      </trkpt>
      <trkpt lat="45.05376" lon="4.53534">
        <ele>994</ele>
        <time>2018-04-12T01:42:45Z</time>
      </trkpt>
      <trkpt lat="45.05382" lon="4.53527">
        <ele>993</ele>
        <time>2018-04-12T01:43:45Z</time>
      </trkpt>
      <trkpt lat="45.05396" lon="4.5352">
        <ele>992</ele>
        <time>2018-04-12T01:44:45Z</time>
      </trkpt>
      <trkpt lat="45.05413" lon="4.53509">
        <ele>988</ele>
        <time>2018-04-12T01:45:45Z</time>
      </trkpt>
      <trkpt lat="45.05432" lon="4.53492">
        <ele>983</ele>
        <time>2018-04-12T01:46:45Z</time>
      </trkpt>
      <trkpt lat="45.05449" lon="4.5347">
        <ele>983</ele>
        <time>2018-04-12T01:47:45Z</time>
      </trkpt>
      <trkpt lat="45.05467" lon="4.53441">
        <ele>981</ele>
        <time>2018-04-12T01:48:45Z</time>
      </trkpt>
      <trkpt lat="45.05486" lon="4.53404">
        <ele>969</ele>
        <time>2018-04-12T01:49:45Z</time>
      </trkpt>
      <trkpt lat="45.05508" lon="4.53362">
        <ele>968</ele>
        <time>2018-04-12T01:50:45Z</time>
      </trkpt>
      <trkpt lat="45.05521" lon="4.53339">
        <ele>966</ele>
        <time>2018-04-12T01:51:45Z</time>
      </trkpt>
      <trkpt lat="45.05531" lon="4.53323">
        <ele>954</ele>
        <time>2018-04-12T01:52:45Z</time>
      </trkpt>
      <trkpt lat="45.05539" lon="4.53313">
        <ele>953</ele>
        <time>2018-04-12T01:53:45Z</time>
      </trkpt>
      <trkpt lat="45.05545" lon="4.53307">
        <ele>953</ele>
        <time>2018-04-12T01:54:45Z</time>
      </trkpt>
      <trkpt lat="45.05553" lon="4.53302">
        <ele>953</ele>
        <time>2018-04-12T01:55:45Z</time>
      </trkpt>
      <trkpt lat="45.05568" lon="4.53295">
        <ele>953</ele>
        <time>2018-04-12T01:56:45Z</time>
      </trkpt>
      <trkpt lat="45.05606" lon="4.53287">
        <ele>947</ele>
        <time>2018-04-12T01:57:45Z</time>
      </trkpt>
      <trkpt lat="45.0562" lon="4.53285">
        <ele>945</ele>
        <time>2018-04-12T01:58:45Z</time>
      </trkpt>
      <trkpt lat="45.05625" lon="4.53287">
        <ele>945</ele>
        <time>2018-04-12T01:59:45Z</time>
      </trkpt>
      <trkpt lat="45.05635" lon="4.53291">
        <ele>945</ele>
        <time>2018-04-12T02:00:45Z</time>
      </trkpt>
      <trkpt lat="45.0565" lon="4.53304">
        <ele>945</ele>
        <time>2018-04-12T02:01:45Z</time>
      </trkpt>
      <trkpt lat="45.05671" lon="4.53322">
        <ele>940</ele>
        <time>2018-04-12T02:02:45Z</time>
      </trkpt>
      <trkpt lat="45.0569" lon="4.53338">
        <ele>947</ele>
        <time>2018-04-12T02:03:45Z</time>
      </trkpt>
      <trkpt lat="45.05699" lon="4.53343">
        <ele>947</ele>
        <time>2018-04-12T02:04:45Z</time>
      </trkpt>
      <trkpt lat="45.05707" lon="4.53345">
        <ele>946</ele>
        <time>2018-04-12T02:05:45Z</time>
      </trkpt>
      <trkpt lat="45.05724" lon="4.53344">
        <ele>943</ele>
        <time>2018-04-12T02:06:45Z</time>
      </trkpt>
      <trkpt lat="45.05747" lon="4.53338">
        <ele>935</ele>
        <time>2018-04-12T02:07:45Z</time>
      </trkpt>
      <trkpt lat="45.05781" lon="4.53328">
        <ele>922</ele>
        <time>2018-04-12T02:08:45Z</time>
      </trkpt>
      <trkpt lat="45.05788" lon="4.53327">
        <ele>921</ele>
        <time>2018-04-12T02:09:45Z</time>
      </trkpt>
      <trkpt lat="45.05792" lon="4.53324">
        <ele>920</ele>
        <time>2018-04-12T02:10:45Z</time>
      </trkpt>
      <trkpt lat="45.05797" lon="4.53318">
        <ele>920</ele>
        <time>2018-04-12T02:11:45Z</time>
      </trkpt>
      <trkpt lat="45.05801" lon="4.53312">
        <ele>919</ele>
        <time>2018-04-12T02:12:45Z</time>
      </trkpt>
      <trkpt lat="45.05803" lon="4.53309">
        <ele>919</ele>
        <time>2018-04-12T02:13:45Z</time>
      </trkpt>
      <trkpt lat="45.05805" lon="4.53306">
        <ele>919</ele>
        <time>2018-04-12T02:14:45Z</time>
      </trkpt>
      <trkpt lat="45.05805" lon="4.53303">
        <ele>918</ele>
        <time>2018-04-12T02:15:45Z</time>
      </trkpt>
      <trkpt lat="45.05805" lon="4.533">
        <ele>918</ele>
        <time>2018-04-12T02:16:45Z</time>
      </trkpt>
      <trkpt lat="45.05805" lon="4.533">
        <ele>918</ele>
        <time>2018-04-12T02:17:45Z</time>
      </trkpt>
      <trkpt lat="45.05822" lon="4.53292">
        <ele>917</ele>
        <time>2018-04-12T02:18:45Z</time>
      </trkpt>
      <trkpt lat="45.05877" lon="4.53289">
        <ele>917</ele>
        <time>2018-04-12T02:19:45Z</time>
      </trkpt>
      <trkpt lat="45.05887" lon="4.53287">
        <ele>917</ele>
        <time>2018-04-12T02:20:45Z</time>
      </trkpt>
      <trkpt lat="45.05894" lon="4.53284">
        <ele>917</ele>
        <time>2018-04-12T02:21:45Z</time>
      </trkpt>
      <trkpt lat="45.059" lon="4.53279">
        <ele>917</ele>
        <time>2018-04-12T02:22:45Z</time>
      </trkpt>
      <trkpt lat="45.059" lon="4.53279">
        <ele>917</ele>
        <time>2018-04-12T02:23:45Z</time>
      </trkpt>
      <trkpt lat="45.05909" lon="4.53299">
        <ele>916</ele>
        <time>2018-04-12T02:24:45Z</time>
      </trkpt>
      <trkpt lat="45.05909" lon="4.53299">
        <ele>916</ele>
        <time>2018-04-12T02:25:45Z</time>
      </trkpt>
      <trkpt lat="45.05919" lon="4.5329">
        <ele>920</ele>
        <time>2018-04-12T02:26:45Z</time>
      </trkpt>
      <trkpt lat="45.05926" lon="4.53283">
        <ele>920</ele>
        <time>2018-04-12T02:27:45Z</time>
      </trkpt>
      <trkpt lat="45.05943" lon="4.53265">
        <ele>922</ele>
        <time>2018-04-12T02:28:45Z</time>
      </trkpt>
      <trkpt lat="45.05951" lon="4.53257">
        <ele>923</ele>
        <time>2018-04-12T02:29:45Z</time>
      </trkpt>
      <trkpt lat="45.05965" lon="4.53252">
        <ele>925</ele>
        <time>2018-04-12T02:30:45Z</time>
      </trkpt>
      <trkpt lat="45.05985" lon="4.53249">
        <ele>932</ele>
        <time>2018-04-12T02:31:45Z</time>
      </trkpt>
      <trkpt lat="45.06007" lon="4.53242">
        <ele>941</ele>
        <time>2018-04-12T02:32:45Z</time>
      </trkpt>
      <trkpt lat="45.06025" lon="4.5323">
        <ele>946</ele>
        <time>2018-04-12T02:33:45Z</time>
      </trkpt>
      <trkpt lat="45.06041" lon="4.53227">
        <ele>949</ele>
        <time>2018-04-12T02:34:45Z</time>
      </trkpt>
      <trkpt lat="45.06072" lon="4.53228">
        <ele>952</ele>
        <time>2018-04-12T02:35:45Z</time>
      </trkpt>
      <trkpt lat="45.06099" lon="4.53227">
        <ele>969</ele>
        <time>2018-04-12T02:36:45Z</time>
      </trkpt>
      <trkpt lat="45.06129" lon="4.53223">
        <ele>976</ele>
        <time>2018-04-12T02:37:45Z</time>
      </trkpt>
      <trkpt lat="45.06157" lon="4.5322">
        <ele>980</ele>
        <time>2018-04-12T02:38:45Z</time>
      </trkpt>
      <trkpt lat="45.06181" lon="4.53221">
        <ele>998</ele>
        <time>2018-04-12T02:39:45Z</time>
      </trkpt>
      <trkpt lat="45.06203" lon="4.53229">
        <ele>1000</ele>
        <time>2018-04-12T02:40:45Z</time>
      </trkpt>
      <trkpt lat="45.06227" lon="4.53243">
        <ele>1003</ele>
        <time>2018-04-12T02:41:45Z</time>
      </trkpt>
      <trkpt lat="45.06249" lon="4.53257">
        <ele>999</ele>
        <time>2018-04-12T02:42:45Z</time>
      </trkpt>
      <trkpt lat="45.06271" lon="4.53278">
        <ele>994</ele>
        <time>2018-04-12T02:43:45Z</time>
      </trkpt>
      <trkpt lat="45.06286" lon="4.53289">
        <ele>992</ele>
        <time>2018-04-12T02:44:45Z</time>
      </trkpt>
      <trkpt lat="45.06292" lon="4.5329">
        <ele>991</ele>
        <time>2018-04-12T02:45:45Z</time>
      </trkpt>
      <trkpt lat="45.06295" lon="4.53289">
        <ele>992</ele>
        <time>2018-04-12T02:46:45Z</time>
      </trkpt>
      <trkpt lat="45.06299" lon="4.53287">
        <ele>992</ele>
        <time>2018-04-12T02:47:45Z</time>
      </trkpt>
      <trkpt lat="45.06304" lon="4.5328">
        <ele>993</ele>
        <time>2018-04-12T02:48:45Z</time>
      </trkpt>
      <trkpt lat="45.06317" lon="4.53259">
        <ele>996</ele>
        <time>2018-04-12T02:49:45Z</time>
      </trkpt>
      <trkpt lat="45.06325" lon="4.53242">
        <ele>1005</ele>
        <time>2018-04-12T02:50:45Z</time>
      </trkpt>
      <trkpt lat="45.06325" lon="4.53242">
        <ele>1005</ele>
        <time>2018-04-12T02:51:45Z</time>
      </trkpt>
      <trkpt lat="45.06325" lon="4.53232">
        <ele>1007</ele>
        <time>2018-04-12T02:52:45Z</time>
      </trkpt>
      <trkpt lat="45.06326" lon="4.53218">
        <ele>1010</ele>
        <time>2018-04-12T02:53:45Z</time>
      </trkpt>
      <trkpt lat="45.06336" lon="4.53182">
        <ele>1007</ele>
        <time>2018-04-12T02:54:45Z</time>
      </trkpt>
      <trkpt lat="45.06337" lon="4.53168">
        <ele>1014</ele>
        <time>2018-04-12T02:55:45Z</time>
      </trkpt>
      <trkpt lat="45.06338" lon="4.53159">
        <ele>1015</ele>
        <time>2018-04-12T02:56:45Z</time>
      </trkpt>
      <trkpt lat="45.06341" lon="4.53149">
        <ele>1014</ele>
        <time>2018-04-12T02:57:45Z</time>
      </trkpt>
      <trkpt lat="45.06342" lon="4.5314">
        <ele>1014</ele>
        <time>2018-04-12T02:58:45Z</time>
      </trkpt>
      <trkpt lat="45.06344" lon="4.5313">
        <ele>1015</ele>
        <time>2018-04-12T02:59:45Z</time>
      </trkpt>
      <trkpt lat="45.0635" lon="4.53098">
        <ele>1019</ele>
        <time>2018-04-12T03:00:45Z</time>
      </trkpt>
      <trkpt lat="45.06355" lon="4.53081">
        <ele>1027</ele>
        <time>2018-04-12T03:01:45Z</time>
      </trkpt>
      <trkpt lat="45.06366" lon="4.5306">
        <ele>1026</ele>
        <time>2018-04-12T03:02:45Z</time>
      </trkpt>
      <trkpt lat="45.06377" lon="4.53039">
        <ele>1027</ele>
        <time>2018-04-12T03:03:45Z</time>
      </trkpt>
      <trkpt lat="45.06389" lon="4.53017">
        <ele>1028</ele>
        <time>2018-04-12T03:04:45Z</time>
      </trkpt>
      <trkpt lat="45.064" lon="4.53001">
        <ele>1028</ele>
        <time>2018-04-12T03:05:45Z</time>
      </trkpt>
      <trkpt lat="45.06405" lon="4.52996">
        <ele>1032</ele>
        <time>2018-04-12T03:06:45Z</time>
      </trkpt>
      <trkpt lat="45.06409" lon="4.52992">
        <ele>1032</ele>
        <time>2018-04-12T03:07:45Z</time>
      </trkpt>
      <trkpt lat="45.06425" lon="4.52972">
        <ele>1031</ele>
        <time>2018-04-12T03:08:45Z</time>
      </trkpt>
      <trkpt lat="45.06443" lon="4.52947">
        <ele>1033</ele>
        <time>2018-04-12T03:09:45Z</time>
      </trkpt>
      <trkpt lat="45.06459" lon="4.52915">
        <ele>1036</ele>
        <time>2018-04-12T03:10:45Z</time>
      </trkpt>
      <trkpt lat="45.06469" lon="4.52896">
        <ele>1036</ele>
        <time>2018-04-12T03:11:45Z</time>
      </trkpt>
      <trkpt lat="45.0647" lon="4.52887">
        <ele>1036</ele>
        <time>2018-04-12T03:12:45Z</time>
      </trkpt>
      <trkpt lat="45.0647" lon="4.52887">
        <ele>1036</ele>
        <time>2018-04-12T03:13:45Z</time>
      </trkpt>
      <trkpt lat="45.06475" lon="4.52887">
        <ele>1036</ele>
        <time>2018-04-12T03:14:45Z</time>
      </trkpt>
      <trkpt lat="45.06482" lon="4.52885">
        <ele>1036</ele>
        <time>2018-04-12T03:15:45Z</time>
      </trkpt>
      <trkpt lat="45.06508" lon="4.52875">
        <ele>1037</ele>
        <time>2018-04-12T03:16:45Z</time>
      </trkpt>
      <trkpt lat="45.06532" lon="4.52868">
        <ele>1038</ele>
        <time>2018-04-12T03:17:45Z</time>
      </trkpt>
      <trkpt lat="45.06537" lon="4.52868">
        <ele>1038</ele>
        <time>2018-04-12T03:18:45Z</time>
      </trkpt>
      <trkpt lat="45.06546" lon="4.52869">
        <ele>1039</ele>
        <time>2018-04-12T03:19:45Z</time>
      </trkpt>
      <trkpt lat="45.06572" lon="4.52876">
        <ele>1040</ele>
        <time>2018-04-12T03:20:45Z</time>
      </trkpt>
      <trkpt lat="45.06589" lon="4.5288">
        <ele>1042</ele>
        <time>2018-04-12T03:21:45Z</time>
      </trkpt>
      <trkpt lat="45.06612" lon="4.52883">
        <ele>1042</ele>
        <time>2018-04-12T03:22:45Z</time>
      </trkpt>
      <trkpt lat="45.06637" lon="4.52889">
        <ele>1042</ele>
        <time>2018-04-12T03:23:45Z</time>
      </trkpt>
      <trkpt lat="45.06655" lon="4.52893">
        <ele>1042</ele>
        <time>2018-04-12T03:24:45Z</time>
      </trkpt>
      <trkpt lat="45.06667" lon="4.52893">
        <ele>1041</ele>
        <time>2018-04-12T03:25:45Z</time>
      </trkpt>
      <trkpt lat="45.0668" lon="4.52891">
        <ele>1040</ele>
        <time>2018-04-12T03:26:45Z</time>
      </trkpt>
      <trkpt lat="45.06694" lon="4.5289">
        <ele>1039</ele>
        <time>2018-04-12T03:27:45Z</time>
      </trkpt>
      <trkpt lat="45.06709" lon="4.52892">
        <ele>1039</ele>
        <time>2018-04-12T03:28:45Z</time>
      </trkpt>
      <trkpt lat="45.06727" lon="4.52896">
        <ele>1039</ele>
        <time>2018-04-12T03:29:45Z</time>
      </trkpt>
      <trkpt lat="45.06748" lon="4.529">
        <ele>1040</ele>
        <time>2018-04-12T03:30:45Z</time>
      </trkpt>
      <trkpt lat="45.0677" lon="4.52901">
        <ele>1034</ele>
        <time>2018-04-12T03:31:45Z</time>
      </trkpt>
      <trkpt lat="45.06792" lon="4.52901">
        <ele>1032</ele>
        <time>2018-04-12T03:32:45Z</time>
      </trkpt>
      <trkpt lat="45.06807" lon="4.52906">
        <ele>1031</ele>
        <time>2018-04-12T03:33:45Z</time>
      </trkpt>
      <trkpt lat="45.06811" lon="4.5291">
        <ele>1032</ele>
        <time>2018-04-12T03:34:45Z</time>
      </trkpt>
      <trkpt lat="45.06816" lon="4.52913">
        <ele>1032</ele>
        <time>2018-04-12T03:35:45Z</time>
      </trkpt>
      <trkpt lat="45.0683" lon="4.52923">
        <ele>1035</ele>
        <time>2018-04-12T03:36:45Z</time>
      </trkpt>
      <trkpt lat="45.06853" lon="4.52931">
        <ele>1034</ele>
        <time>2018-04-12T03:37:45Z</time>
      </trkpt>
      <trkpt lat="45.06864" lon="4.52934">
        <ele>1034</ele>
        <time>2018-04-12T03:38:45Z</time>
      </trkpt>
      <trkpt lat="45.06874" lon="4.52934">
        <ele>1035</ele>
        <time>2018-04-12T03:39:45Z</time>
      </trkpt>
      <trkpt lat="45.06881" lon="4.52932">
        <ele>1035</ele>
        <time>2018-04-12T03:40:45Z</time>
      </trkpt>
      <trkpt lat="45.06886" lon="4.52931">
        <ele>1035</ele>
        <time>2018-04-12T03:41:45Z</time>
      </trkpt>
      <trkpt lat="45.06896" lon="4.52929">
        <ele>1035</ele>
        <time>2018-04-12T03:42:45Z</time>
      </trkpt>
      <trkpt lat="45.06912" lon="4.52923">
        <ele>1037</ele>
        <time>2018-04-12T03:43:45Z</time>
      </trkpt>
      <trkpt lat="45.06933" lon="4.52909">
        <ele>1040</ele>
        <time>2018-04-12T03:44:45Z</time>
      </trkpt>
      <trkpt lat="45.06957" lon="4.52889">
        <ele>1042</ele>
        <time>2018-04-12T03:45:45Z</time>
      </trkpt>
      <trkpt lat="45.06976" lon="4.52877">
        <ele>1044</ele>
        <time>2018-04-12T03:46:45Z</time>
      </trkpt>
      <trkpt lat="45.06998" lon="4.52863">
        <ele>1047</ele>
        <time>2018-04-12T03:47:45Z</time>
      </trkpt>
      <trkpt lat="45.07008" lon="4.52859">
        <ele>1052</ele>
        <time>2018-04-12T03:48:45Z</time>
      </trkpt>
      <trkpt lat="45.07021" lon="4.52851">
        <ele>1053</ele>
        <time>2018-04-12T03:49:45Z</time>
      </trkpt>
      <trkpt lat="45.07031" lon="4.52845">
        <ele>1053</ele>
        <time>2018-04-12T03:50:45Z</time>
      </trkpt>
      <trkpt lat="45.07037" lon="4.5284">
        <ele>1053</ele>
        <time>2018-04-12T03:51:45Z</time>
      </trkpt>
      <trkpt lat="45.07046" lon="4.52832">
        <ele>1056</ele>
        <time>2018-04-12T03:52:45Z</time>
      </trkpt>
      <trkpt lat="45.07051" lon="4.52828">
        <ele>1056</ele>
        <time>2018-04-12T03:53:45Z</time>
      </trkpt>
      <trkpt lat="45.07062" lon="4.52825">
        <ele>1056</ele>
        <time>2018-04-12T03:54:45Z</time>
      </trkpt>
      <trkpt lat="45.07094" lon="4.52816">
        <ele>1059</ele>
        <time>2018-04-12T03:55:45Z</time>
      </trkpt>
      <trkpt lat="45.07117" lon="4.52804">
        <ele>1059</ele>
        <time>2018-04-12T03:56:45Z</time>
      </trkpt>
      <trkpt lat="45.07135" lon="4.52797">
        <ele>1060</ele>
        <time>2018-04-12T03:57:45Z</time>
      </trkpt>
      <trkpt lat="45.07145" lon="4.52795">
        <ele>1060</ele>
        <time>2018-04-12T03:58:45Z</time>
      </trkpt>
      <trkpt lat="45.07145" lon="4.52795">
        <ele>1060</ele>
        <time>2018-04-12T03:59:45Z</time>
      </trkpt>
      <trkpt lat="45.07146" lon="4.52799">
        <ele>1060</ele>
        <time>2018-04-12T04:00:45Z</time>
      </trkpt>
      <trkpt lat="45.07148" lon="4.528">
        <ele>1060</ele>
        <time>2018-04-12T04:01:45Z</time>
      </trkpt>
      <trkpt lat="45.07151" lon="4.52801">
        <ele>1060</ele>
        <time>2018-04-12T04:02:45Z</time>
      </trkpt>
      <trkpt lat="45.07158" lon="4.528">
        <ele>1060</ele>
        <time>2018-04-12T04:03:45Z</time>
      </trkpt>
      <trkpt lat="45.0717" lon="4.52797">
        <ele>1063</ele>
        <time>2018-04-12T04:04:45Z</time>
      </trkpt>
      <trkpt lat="45.07186" lon="4.52791">
        <ele>1063</ele>
        <time>2018-04-12T04:05:45Z</time>
      </trkpt>
      <trkpt lat="45.07209" lon="4.52788">
        <ele>1064</ele>
        <time>2018-04-12T04:06:45Z</time>
      </trkpt>
      <trkpt lat="45.07232" lon="4.52792">
        <ele>1066</ele>
        <time>2018-04-12T04:07:45Z</time>
      </trkpt>
      <trkpt lat="45.07258" lon="4.52796">
        <ele>1071</ele>
        <time>2018-04-12T04:08:45Z</time>
      </trkpt>
      <trkpt lat="45.07277" lon="4.52802">
        <ele>1072</ele>
        <time>2018-04-12T04:09:45Z</time>
      </trkpt>
      <trkpt lat="45.073" lon="4.5281">
        <ele>1073</ele>
        <time>2018-04-12T04:10:45Z</time>
      </trkpt>
      <trkpt lat="45.07326" lon="4.52818">
        <ele>1077</ele>
        <time>2018-04-12T04:11:45Z</time>
      </trkpt>
      <trkpt lat="45.07346" lon="4.52824">
        <ele>1081</ele>
        <time>2018-04-12T04:12:45Z</time>
      </trkpt>
      <trkpt lat="45.07358" lon="4.52825">
        <ele>1081</ele>
        <time>2018-04-12T04:13:45Z</time>
      </trkpt>
      <trkpt lat="45.07364" lon="4.52825">
        <ele>1081</ele>
        <time>2018-04-12T04:14:45Z</time>
      </trkpt>
      <trkpt lat="45.07372" lon="4.52825">
        <ele>1081</ele>
        <time>2018-04-12T04:15:45Z</time>
      </trkpt>
      <trkpt lat="45.0739" lon="4.52824">
        <ele>1083</ele>
        <time>2018-04-12T04:16:45Z</time>
      </trkpt>
      <trkpt lat="45.07412" lon="4.52826">
        <ele>1088</ele>
        <time>2018-04-12T04:17:45Z</time>
      </trkpt>
      <trkpt lat="45.07428" lon="4.52829">
        <ele>1088</ele>
        <time>2018-04-12T04:18:45Z</time>
      </trkpt>
      <trkpt lat="45.07442" lon="4.52835">
        <ele>1094</ele>
        <time>2018-04-12T04:19:45Z</time>
      </trkpt>
      <trkpt lat="45.07453" lon="4.5284">
        <ele>1094</ele>
        <time>2018-04-12T04:20:45Z</time>
      </trkpt>
      <trkpt lat="45.07476" lon="4.52854">
        <ele>1093</ele>
        <time>2018-04-12T04:21:45Z</time>
      </trkpt>
      <trkpt lat="45.07492" lon="4.5287">
        <ele>1094</ele>
        <time>2018-04-12T04:22:45Z</time>
      </trkpt>
      <trkpt lat="45.07511" lon="4.52891">
        <ele>1091</ele>
        <time>2018-04-12T04:23:45Z</time>
      </trkpt>
      <trkpt lat="45.07534" lon="4.52923">
        <ele>1098</ele>
        <time>2018-04-12T04:24:45Z</time>
      </trkpt>
      <trkpt lat="45.07551" lon="4.52948">
        <ele>1098</ele>
        <time>2018-04-12T04:25:45Z</time>
      </trkpt>
      <trkpt lat="45.07573" lon="4.52976">
        <ele>1099</ele>
        <time>2018-04-12T04:26:45Z</time>
      </trkpt>
      <trkpt lat="45.07596" lon="4.53009">
        <ele>1100</ele>
        <time>2018-04-12T04:27:45Z</time>
      </trkpt>
      <trkpt lat="45.07619" lon="4.53053">
        <ele>1100</ele>
        <time>2018-04-12T04:28:45Z</time>
      </trkpt>
      <trkpt lat="45.07642" lon="4.53098">
        <ele>1104</ele>
        <time>2018-04-12T04:29:45Z</time>
      </trkpt>
      <trkpt lat="45.07666" lon="4.53147">
        <ele>1108</ele>
        <time>2018-04-12T04:30:45Z</time>
      </trkpt>
      <trkpt lat="45.07686" lon="4.53181">
        <ele>1114</ele>
        <time>2018-04-12T04:31:45Z</time>
      </trkpt>
      <trkpt lat="45.07691" lon="4.53188">
        <ele>1114</ele>
        <time>2018-04-12T04:32:45Z</time>
      </trkpt>
      <trkpt lat="45.07698" lon="4.53192">
        <ele>1114</ele>
        <time>2018-04-12T04:33:45Z</time>
      </trkpt>
      <trkpt lat="45.07707" lon="4.53195">
        <ele>1115</ele>
        <time>2018-04-12T04:34:45Z</time>
      </trkpt>
      <trkpt lat="45.07713" lon="4.53194">
        <ele>1115</ele>
        <time>2018-04-12T04:35:45Z</time>
      </trkpt>
      <trkpt lat="45.07719" lon="4.53193">
        <ele>1115</ele>
        <time>2018-04-12T04:36:45Z</time>
      </trkpt>
      <trkpt lat="45.07726" lon="4.53192">
        <ele>1116</ele>
        <time>2018-04-12T04:37:45Z</time>
      </trkpt>
      <trkpt lat="45.07747" lon="4.53199">
        <ele>1116</ele>
        <time>2018-04-12T04:38:45Z</time>
      </trkpt>
      <trkpt lat="45.07753" lon="4.53204">
        <ele>1123</ele>
        <time>2018-04-12T04:39:45Z</time>
      </trkpt>
      <trkpt lat="45.07759" lon="4.53209">
        <ele>1123</ele>
        <time>2018-04-12T04:40:45Z</time>
      </trkpt>
      <trkpt lat="45.07778" lon="4.53213">
        <ele>1124</ele>
        <time>2018-04-12T04:41:45Z</time>
      </trkpt>
      <trkpt lat="45.07798" lon="4.53215">
        <ele>1126</ele>
        <time>2018-04-12T04:42:45Z</time>
      </trkpt>
      <trkpt lat="45.07806" lon="4.53215">
        <ele>1126</ele>
        <time>2018-04-12T04:43:45Z</time>
      </trkpt>
      <trkpt lat="45.07806" lon="4.53215">
        <ele>1126</ele>
        <time>2018-04-12T04:44:45Z</time>
      </trkpt>
      <trkpt lat="45.07818" lon="4.53214">
        <ele>1127</ele>
        <time>2018-04-12T04:45:45Z</time>
      </trkpt>
      <trkpt lat="45.0784" lon="4.53208">
        <ele>1133</ele>
        <time>2018-04-12T04:46:45Z</time>
      </trkpt>
      <trkpt lat="45.07873" lon="4.532">
        <ele>1133</ele>
        <time>2018-04-12T04:47:45Z</time>
      </trkpt>
      <trkpt lat="45.079" lon="4.53193">
        <ele>1133</ele>
        <time>2018-04-12T04:48:45Z</time>
      </trkpt>
      <trkpt lat="45.07931" lon="4.53191">
        <ele>1136</ele>
        <time>2018-04-12T04:49:45Z</time>
      </trkpt>
      <trkpt lat="45.07957" lon="4.53189">
        <ele>1137</ele>
        <time>2018-04-12T04:50:45Z</time>
      </trkpt>
      <trkpt lat="45.07971" lon="4.53191">
        <ele>1137</ele>
        <time>2018-04-12T04:51:45Z</time>
      </trkpt>
      <trkpt lat="45.07981" lon="4.53194">
        <ele>1137</ele>
        <time>2018-04-12T04:52:45Z</time>
      </trkpt>
      <trkpt lat="45.08" lon="4.53204">
        <ele>1138</ele>
        <time>2018-04-12T04:53:45Z</time>
      </trkpt>
      <trkpt lat="45.08036" lon="4.53229">
        <ele>1139</ele>
        <time>2018-04-12T04:54:45Z</time>
      </trkpt>
      <trkpt lat="45.08053" lon="4.53238">
        <ele>1140</ele>
        <time>2018-04-12T04:55:45Z</time>
      </trkpt>
      <trkpt lat="45.08088" lon="4.53259">
        <ele>1146</ele>
        <time>2018-04-12T04:56:45Z</time>
      </trkpt>
      <trkpt lat="45.08136" lon="4.53295">
        <ele>1150</ele>
        <time>2018-04-12T04:57:45Z</time>
      </trkpt>
      <trkpt lat="45.0817" lon="4.53314">
        <ele>1150</ele>
        <time>2018-04-12T04:58:45Z</time>
      </trkpt>
      <trkpt lat="45.08207" lon="4.53326">
        <ele>1149</ele>
        <time>2018-04-12T04:59:45Z</time>
      </trkpt>
      <trkpt lat="45.08238" lon="4.53336">
        <ele>1154</ele>
        <time>2018-04-12T05:00:45Z</time>
      </trkpt>
      <trkpt lat="45.08278" lon="4.53351">
        <ele>1155</ele>
        <time>2018-04-12T05:01:45Z</time>
      </trkpt>
      <trkpt lat="45.08286" lon="4.53356">
        <ele>1156</ele>
        <time>2018-04-12T05:02:45Z</time>
      </trkpt>
      <trkpt lat="45.08295" lon="4.53364">
        <ele>1156</ele>
        <time>2018-04-12T05:03:45Z</time>
      </trkpt>
      <trkpt lat="45.08307" lon="4.53377">
        <ele>1157</ele>
        <time>2018-04-12T05:04:45Z</time>
      </trkpt>
      <trkpt lat="45.08324" lon="4.5339">
        <ele>1158</ele>
        <time>2018-04-12T05:05:45Z</time>
      </trkpt>
      <trkpt lat="45.08377" lon="4.5343">
        <ele>1162</ele>
        <time>2018-04-12T05:06:45Z</time>
      </trkpt>
      <trkpt lat="45.08458" lon="4.53492">
        <ele>1161</ele>
        <time>2018-04-12T05:07:45Z</time>
      </trkpt>
      <trkpt lat="45.08466" lon="4.53496">
        <ele>1161</ele>
        <time>2018-04-12T05:08:45Z</time>
      </trkpt>
      <trkpt lat="45.08475" lon="4.535">
        <ele>1162</ele>
        <time>2018-04-12T05:09:45Z</time>
      </trkpt>
      <trkpt lat="45.08483" lon="4.53504">
        <ele>1161</ele>
        <time>2018-04-12T05:10:45Z</time>
      </trkpt>
      <trkpt lat="45.08502" lon="4.5351">
        <ele>1161</ele>
        <time>2018-04-12T05:11:45Z</time>
      </trkpt>
      <trkpt lat="45.08538" lon="4.53528">
        <ele>1162</ele>
        <time>2018-04-12T05:12:45Z</time>
      </trkpt>
      <trkpt lat="45.08569" lon="4.53546">
        <ele>1163</ele>
        <time>2018-04-12T05:13:45Z</time>
      </trkpt>
      <trkpt lat="45.08606" lon="4.53563">
        <ele>1165</ele>
        <time>2018-04-12T05:14:45Z</time>
      </trkpt>
      <trkpt lat="45.08647" lon="4.53584">
        <ele>1166</ele>
        <time>2018-04-12T05:15:45Z</time>
      </trkpt>
      <trkpt lat="45.08678" lon="4.53604">
        <ele>1168</ele>
        <time>2018-04-12T05:16:45Z</time>
      </trkpt>
      <trkpt lat="45.08707" lon="4.5363">
        <ele>1169</ele>
        <time>2018-04-12T05:17:45Z</time>
      </trkpt>
      <trkpt lat="45.08718" lon="4.53635">
        <ele>1169</ele>
        <time>2018-04-12T05:18:45Z</time>
      </trkpt>
      <trkpt lat="45.08726" lon="4.53638">
        <ele>1169</ele>
        <time>2018-04-12T05:19:45Z</time>
      </trkpt>
      <trkpt lat="45.08732" lon="4.53639">
        <ele>1170</ele>
        <time>2018-04-12T05:20:45Z</time>
      </trkpt>
      <trkpt lat="45.08741" lon="4.53635">
        <ele>1170</ele>
        <time>2018-04-12T05:21:45Z</time>
      </trkpt>
      <trkpt lat="45.08762" lon="4.53616">
        <ele>1172</ele>
        <time>2018-04-12T05:22:45Z</time>
      </trkpt>
      <trkpt lat="45.08768" lon="4.5361">
        <ele>1172</ele>
        <time>2018-04-12T05:23:45Z</time>
      </trkpt>
      <trkpt lat="45.08776" lon="4.53607">
        <ele>1172</ele>
        <time>2018-04-12T05:24:45Z</time>
      </trkpt>
      <trkpt lat="45.08797" lon="4.53604">
        <ele>1172</ele>
        <time>2018-04-12T05:25:45Z</time>
      </trkpt>
      <trkpt lat="45.08816" lon="4.53604">
        <ele>1172</ele>
        <time>2018-04-12T05:26:45Z</time>
      </trkpt>
      <trkpt lat="45.08827" lon="4.536">
        <ele>1172</ele>
        <time>2018-04-12T05:27:45Z</time>
      </trkpt>
      <trkpt lat="45.0885" lon="4.53591">
        <ele>1172</ele>
        <time>2018-04-12T05:28:45Z</time>
      </trkpt>
      <trkpt lat="45.08874" lon="4.53585">
        <ele>1172</ele>
        <time>2018-04-12T05:29:45Z</time>
      </trkpt>
      <trkpt lat="45.08906" lon="4.53581">
        <ele>1167</ele>
        <time>2018-04-12T05:30:45Z</time>
      </trkpt>
      <trkpt lat="45.08919" lon="4.53582">
        <ele>1167</ele>
        <time>2018-04-12T05:31:45Z</time>
      </trkpt>
      <trkpt lat="45.08926" lon="4.53584">
        <ele>1167</ele>
        <time>2018-04-12T05:32:45Z</time>
      </trkpt>
      <trkpt lat="45.08936" lon="4.53589">
        <ele>1165</ele>
        <time>2018-04-12T05:33:45Z</time>
      </trkpt>
      <trkpt lat="45.08946" lon="4.53599">
        <ele>1164</ele>
        <time>2018-04-12T05:34:45Z</time>
      </trkpt>
      <trkpt lat="45.08956" lon="4.53616">
        <ele>1164</ele>
        <time>2018-04-12T05:35:45Z</time>
      </trkpt>
      <trkpt lat="45.08968" lon="4.5364">
        <ele>1163</ele>
        <time>2018-04-12T05:36:45Z</time>
      </trkpt>
      <trkpt lat="45.08981" lon="4.53674">
        <ele>1165</ele>
        <time>2018-04-12T05:37:45Z</time>
      </trkpt>
      <trkpt lat="45.08992" lon="4.537">
        <ele>1167</ele>
        <time>2018-04-12T05:38:45Z</time>
      </trkpt>
      <trkpt lat="45.09003" lon="4.53723">
        <ele>1157</ele>
        <time>2018-04-12T05:39:45Z</time>
      </trkpt>
      <trkpt lat="45.09014" lon="4.5374">
        <ele>1160</ele>
        <time>2018-04-12T05:40:45Z</time>
      </trkpt>
      <trkpt lat="45.09029" lon="4.53756">
        <ele>1165</ele>
        <time>2018-04-12T05:41:45Z</time>
      </trkpt>
      <trkpt lat="45.09046" lon="4.53772">
        <ele>1163</ele>
        <time>2018-04-12T05:42:45Z</time>
      </trkpt>
      <trkpt lat="45.09067" lon="4.53786">
        <ele>1163</ele>
        <time>2018-04-12T05:43:45Z</time>
      </trkpt>
      <trkpt lat="45.09095" lon="4.53798">
        <ele>1154</ele>
        <time>2018-04-12T05:44:45Z</time>
      </trkpt>
      <trkpt lat="45.09134" lon="4.5381">
        <ele>1152</ele>
        <time>2018-04-12T05:45:45Z</time>
      </trkpt>
      <trkpt lat="45.09178" lon="4.53823">
        <ele>1146</ele>
        <time>2018-04-12T05:46:45Z</time>
      </trkpt>
      <trkpt lat="45.09193" lon="4.53831">
        <ele>1143</ele>
        <time>2018-04-12T05:47:45Z</time>
      </trkpt>
      <trkpt lat="45.09201" lon="4.53838">
        <ele>1150</ele>
        <time>2018-04-12T05:48:45Z</time>
      </trkpt>
      <trkpt lat="45.09208" lon="4.53848">
        <ele>1149</ele>
        <time>2018-04-12T05:49:45Z</time>
      </trkpt>
      <trkpt lat="45.09214" lon="4.53865">
        <ele>1150</ele>
        <time>2018-04-12T05:50:45Z</time>
      </trkpt>
      <trkpt lat="45.09219" lon="4.53883">
        <ele>1150</ele>
        <time>2018-04-12T05:51:45Z</time>
      </trkpt>
      <trkpt lat="45.09225" lon="4.53924">
        <ele>1152</ele>
        <time>2018-04-12T05:52:45Z</time>
      </trkpt>
      <trkpt lat="45.09232" lon="4.53971">
        <ele>1152</ele>
        <time>2018-04-12T05:53:45Z</time>
      </trkpt>
      <trkpt lat="45.09235" lon="4.53984">
        <ele>1150</ele>
        <time>2018-04-12T05:54:45Z</time>
      </trkpt>
      <trkpt lat="45.09242" lon="4.54011">
        <ele>1147</ele>
        <time>2018-04-12T05:55:45Z</time>
      </trkpt>
      <trkpt lat="45.09248" lon="4.54028">
        <ele>1148</ele>
        <time>2018-04-12T05:56:45Z</time>
      </trkpt>
      <trkpt lat="45.09263" lon="4.54052">
        <ele>1140</ele>
        <time>2018-04-12T05:57:45Z</time>
      </trkpt>
      <trkpt lat="45.09271" lon="4.5406">
        <ele>1139</ele>
        <time>2018-04-12T05:58:45Z</time>
      </trkpt>
      <trkpt lat="45.09286" lon="4.54069">
        <ele>1139</ele>
        <time>2018-04-12T05:59:45Z</time>
      </trkpt>
      <trkpt lat="45.09286" lon="4.54069">
        <ele>1139</ele>
        <time>2018-04-12T06:00:45Z</time>
      </trkpt>
      <trkpt lat="45.0929" lon="4.54066">
        <ele>1139</ele>
        <time>2018-04-12T06:01:45Z</time>
      </trkpt>
      <trkpt lat="45.09294" lon="4.54065">
        <ele>1138</ele>
        <time>2018-04-12T06:02:45Z</time>
      </trkpt>
      <trkpt lat="45.09309" lon="4.54063">
        <ele>1138</ele>
        <time>2018-04-12T06:03:45Z</time>
      </trkpt>
      <trkpt lat="45.09322" lon="4.54062">
        <ele>1137</ele>
        <time>2018-04-12T06:04:45Z</time>
      </trkpt>
      <trkpt lat="45.09335" lon="4.54058">
        <ele>1134</ele>
        <time>2018-04-12T06:05:45Z</time>
      </trkpt>
      <trkpt lat="45.09359" lon="4.54052">
        <ele>1132</ele>
        <time>2018-04-12T06:06:45Z</time>
      </trkpt>
      <trkpt lat="45.09369" lon="4.54051">
        <ele>1132</ele>
        <time>2018-04-12T06:07:45Z</time>
      </trkpt>
      <trkpt lat="45.09383" lon="4.54053">
        <ele>1132</ele>
        <time>2018-04-12T06:08:45Z</time>
      </trkpt>
      <trkpt lat="45.09438" lon="4.54057">
        <ele>1129</ele>
        <time>2018-04-12T06:09:45Z</time>
      </trkpt>
      <trkpt lat="45.09471" lon="4.5406">
        <ele>1128</ele>
        <time>2018-04-12T06:10:45Z</time>
      </trkpt>
      <trkpt lat="45.09512" lon="4.54064">
        <ele>1125</ele>
        <time>2018-04-12T06:11:45Z</time>
      </trkpt>
      <trkpt lat="45.09544" lon="4.54063">
        <ele>1122</ele>
        <time>2018-04-12T06:12:45Z</time>
      </trkpt>
      <trkpt lat="45.09576" lon="4.54059">
        <ele>1123</ele>
        <time>2018-04-12T06:13:45Z</time>
      </trkpt>
      <trkpt lat="45.09607" lon="4.54054">
        <ele>1116</ele>
        <time>2018-04-12T06:14:45Z</time>
      </trkpt>
      <trkpt lat="45.09632" lon="4.5405">
        <ele>1114</ele>
        <time>2018-04-12T06:15:45Z</time>
      </trkpt>
      <trkpt lat="45.09653" lon="4.54048">
        <ele>1113</ele>
        <time>2018-04-12T06:16:45Z</time>
      </trkpt>
      <trkpt lat="45.09667" lon="4.54051">
        <ele>1103</ele>
        <time>2018-04-12T06:17:45Z</time>
      </trkpt>
      <trkpt lat="45.09678" lon="4.54054">
        <ele>1103</ele>
        <time>2018-04-12T06:18:45Z</time>
      </trkpt>
      <trkpt lat="45.09684" lon="4.54059">
        <ele>1103</ele>
        <time>2018-04-12T06:19:45Z</time>
      </trkpt>
      <trkpt lat="45.09691" lon="4.54071">
        <ele>1104</ele>
        <time>2018-04-12T06:20:45Z</time>
      </trkpt>
      <trkpt lat="45.097" lon="4.54087">
        <ele>1111</ele>
        <time>2018-04-12T06:21:45Z</time>
      </trkpt>
      <trkpt lat="45.09708" lon="4.54115">
        <ele>1110</ele>
        <time>2018-04-12T06:22:45Z</time>
      </trkpt>
      <trkpt lat="45.09712" lon="4.54142">
        <ele>1111</ele>
        <time>2018-04-12T06:23:45Z</time>
      </trkpt>
      <trkpt lat="45.0972" lon="4.54158">
        <ele>1110</ele>
        <time>2018-04-12T06:24:45Z</time>
      </trkpt>
      <trkpt lat="45.09736" lon="4.5418">
        <ele>1111</ele>
        <time>2018-04-12T06:25:45Z</time>
      </trkpt>
      <trkpt lat="45.09757" lon="4.54203">
        <ele>1096</ele>
        <time>2018-04-12T06:26:45Z</time>
      </trkpt>
      <trkpt lat="45.09768" lon="4.54212">
        <ele>1095</ele>
        <time>2018-04-12T06:27:45Z</time>
      </trkpt>
      <trkpt lat="45.09773" lon="4.54213">
        <ele>1094</ele>
        <time>2018-04-12T06:28:45Z</time>
      </trkpt>
      <trkpt lat="45.0978" lon="4.54212">
        <ele>1093</ele>
        <time>2018-04-12T06:29:45Z</time>
      </trkpt>
      <trkpt lat="45.09796" lon="4.54203">
        <ele>1090</ele>
        <time>2018-04-12T06:30:45Z</time>
      </trkpt>
      <trkpt lat="45.0981" lon="4.5419">
        <ele>1087</ele>
        <time>2018-04-12T06:31:45Z</time>
      </trkpt>
      <trkpt lat="45.09818" lon="4.54174">
        <ele>1083</ele>
        <time>2018-04-12T06:32:45Z</time>
      </trkpt>
      <trkpt lat="45.09832" lon="4.54153">
        <ele>1077</ele>
        <time>2018-04-12T06:33:45Z</time>
      </trkpt>
      <trkpt lat="45.09844" lon="4.5414">
        <ele>1063</ele>
        <time>2018-04-12T06:34:45Z</time>
      </trkpt>
      <trkpt lat="45.09855" lon="4.54135">
        <ele>1061</ele>
        <time>2018-04-12T06:35:45Z</time>
      </trkpt>
      <trkpt lat="45.09869" lon="4.54135">
        <ele>1059</ele>
        <time>2018-04-12T06:36:45Z</time>
      </trkpt>
      <trkpt lat="45.09875" lon="4.54136">
        <ele>1058</ele>
        <time>2018-04-12T06:37:45Z</time>
      </trkpt>
      <trkpt lat="45.0988" lon="4.54133">
        <ele>1057</ele>
        <time>2018-04-12T06:38:45Z</time>
      </trkpt>
      <trkpt lat="45.09885" lon="4.5413">
        <ele>1056</ele>
        <time>2018-04-12T06:39:45Z</time>
      </trkpt>
      <trkpt lat="45.09896" lon="4.54118">
        <ele>1054</ele>
        <time>2018-04-12T06:40:45Z</time>
      </trkpt>
      <trkpt lat="45.09908" lon="4.541">
        <ele>1049</ele>
        <time>2018-04-12T06:41:45Z</time>
      </trkpt>
      <trkpt lat="45.09915" lon="4.54082">
        <ele>1041</ele>
        <time>2018-04-12T06:42:45Z</time>
      </trkpt>
      <trkpt lat="45.09918" lon="4.5407">
        <ele>1035</ele>
        <time>2018-04-12T06:43:45Z</time>
      </trkpt>
      <trkpt lat="45.09922" lon="4.54066">
        <ele>1034</ele>
        <time>2018-04-12T06:44:45Z</time>
      </trkpt>
      <trkpt lat="45.09926" lon="4.54065">
        <ele>1033</ele>
        <time>2018-04-12T06:45:45Z</time>
      </trkpt>
      <trkpt lat="45.09933" lon="4.54065">
        <ele>1032</ele>
        <time>2018-04-12T06:46:45Z</time>
      </trkpt>
      <trkpt lat="45.09933" lon="4.54065">
        <ele>1032</ele>
        <time>2018-04-12T06:47:45Z</time>
      </trkpt>
      <trkpt lat="45.09935" lon="4.54066">
        <ele>1032</ele>
        <time>2018-04-12T06:48:45Z</time>
      </trkpt>
      <trkpt lat="45.0994" lon="4.54069">
        <ele>1031</ele>
        <time>2018-04-12T06:49:45Z</time>
      </trkpt>
      <trkpt lat="45.09944" lon="4.54072">
        <ele>1031</ele>
        <time>2018-04-12T06:50:45Z</time>
      </trkpt>
      <trkpt lat="45.09947" lon="4.54075">
        <ele>1031</ele>
        <time>2018-04-12T06:51:45Z</time>
      </trkpt>
      <trkpt lat="45.0995" lon="4.54085">
        <ele>1038</ele>
        <time>2018-04-12T06:52:45Z</time>
      </trkpt>
      <trkpt lat="45.09953" lon="4.5409">
        <ele>1038</ele>
        <time>2018-04-12T06:53:45Z</time>
      </trkpt>
      <trkpt lat="45.09958" lon="4.54096">
        <ele>1037</ele>
        <time>2018-04-12T06:54:45Z</time>
      </trkpt>
      <trkpt lat="45.09962" lon="4.54102">
        <ele>1037</ele>
        <time>2018-04-12T06:55:45Z</time>
      </trkpt>
      <trkpt lat="45.09967" lon="4.5411">
        <ele>1037</ele>
        <time>2018-04-12T06:56:45Z</time>
      </trkpt>
      <trkpt lat="45.09986" lon="4.54116">
        <ele>1036</ele>
        <time>2018-04-12T06:57:45Z</time>
      </trkpt>
      <trkpt lat="45.10011" lon="4.54122">
        <ele>1031</ele>
        <time>2018-04-12T06:58:45Z</time>
      </trkpt>
      <trkpt lat="45.10037" lon="4.54123">
        <ele>1030</ele>
        <time>2018-04-12T06:59:45Z</time>
      </trkpt>
      <trkpt lat="45.10072" lon="4.54124">
        <ele>1029</ele>
        <time>2018-04-12T07:00:45Z</time>
      </trkpt>
      <trkpt lat="45.10086" lon="4.54126">
        <ele>1028</ele>
        <time>2018-04-12T07:01:45Z</time>
      </trkpt>
      <trkpt lat="45.1009" lon="4.54126">
        <ele>1028</ele>
        <time>2018-04-12T07:02:45Z</time>
      </trkpt>
      <trkpt lat="45.10102" lon="4.54129">
        <ele>1028</ele>
        <time>2018-04-12T07:03:45Z</time>
      </trkpt>
      <trkpt lat="45.10108" lon="4.54132">
        <ele>1028</ele>
        <time>2018-04-12T07:04:45Z</time>
      </trkpt>
      <trkpt lat="45.10116" lon="4.54133">
        <ele>1028</ele>
        <time>2018-04-12T07:05:45Z</time>
      </trkpt>
      <trkpt lat="45.10116" lon="4.54133">
        <ele>1028</ele>
        <time>2018-04-12T07:06:45Z</time>
      </trkpt>
      <trkpt lat="45.10122" lon="4.54137">
        <ele>1028</ele>
        <time>2018-04-12T07:07:45Z</time>
      </trkpt>
      <trkpt lat="45.1013" lon="4.54141">
        <ele>1027</ele>
        <time>2018-04-12T07:08:45Z</time>
      </trkpt>
      <trkpt lat="45.10136" lon="4.54143">
        <ele>1027</ele>
        <time>2018-04-12T07:09:45Z</time>
      </trkpt>
      <trkpt lat="45.1014" lon="4.54145">
        <ele>1027</ele>
        <time>2018-04-12T07:10:45Z</time>
      </trkpt>
      <trkpt lat="45.10147" lon="4.54146">
        <ele>1026</ele>
        <time>2018-04-12T07:11:45Z</time>
      </trkpt>
      <trkpt lat="45.10161" lon="4.54148">
        <ele>1025</ele>
        <time>2018-04-12T07:12:45Z</time>
      </trkpt>
      <trkpt lat="45.10186" lon="4.54148">
        <ele>1029</ele>
        <time>2018-04-12T07:13:45Z</time>
      </trkpt>
      <trkpt lat="45.10194" lon="4.54149">
        <ele>1030</ele>
        <time>2018-04-12T07:14:45Z</time>
      </trkpt>
      <trkpt lat="45.10197" lon="4.5415">
        <ele>1030</ele>
        <time>2018-04-12T07:15:45Z</time>
      </trkpt>
      <trkpt lat="45.102" lon="4.54152">
        <ele>1030</ele>
        <time>2018-04-12T07:16:45Z</time>
      </trkpt>
      <trkpt lat="45.10201" lon="4.54153">
        <ele>1030</ele>
        <time>2018-04-12T07:17:45Z</time>
      </trkpt>
      <trkpt lat="45.10203" lon="4.54156">
        <ele>1030</ele>
        <time>2018-04-12T07:18:45Z</time>
      </trkpt>
      <trkpt lat="45.10203" lon="4.54158">
        <ele>1030</ele>
        <time>2018-04-12T07:19:45Z</time>
      </trkpt>
      <trkpt lat="45.10202" lon="4.5416">
        <ele>1030</ele>
        <time>2018-04-12T07:20:45Z</time>
      </trkpt>
      <trkpt lat="45.10202" lon="4.54162">
        <ele>1030</ele>
        <time>2018-04-12T07:21:45Z</time>
      </trkpt>
      <trkpt lat="45.10201" lon="4.54167">
        <ele>1019</ele>
        <time>2018-04-12T07:22:45Z</time>
      </trkpt>
      <trkpt lat="45.10201" lon="4.54167">
        <ele>1019</ele>
        <time>2018-04-12T07:23:45Z</time>
      </trkpt>
      <trkpt lat="45.10212" lon="4.5417">
        <ele>1019</ele>
        <time>2018-04-12T07:24:45Z</time>
      </trkpt>
      <trkpt lat="45.10216" lon="4.54172">
        <ele>1019</ele>
        <time>2018-04-12T07:25:45Z</time>
      </trkpt>
      <trkpt lat="45.10224" lon="4.54177">
        <ele>1020</ele>
        <time>2018-04-12T07:26:45Z</time>
      </trkpt>
      <trkpt lat="45.10235" lon="4.54184">
        <ele>1021</ele>
        <time>2018-04-12T07:27:45Z</time>
      </trkpt>
      <trkpt lat="45.10257" lon="4.542">
        <ele>1022</ele>
        <time>2018-04-12T07:28:45Z</time>
      </trkpt>
      <trkpt lat="45.10277" lon="4.54218">
        <ele>1019</ele>
        <time>2018-04-12T07:29:45Z</time>
      </trkpt>
      <trkpt lat="45.1028" lon="4.5422">
        <ele>1019</ele>
        <time>2018-04-12T07:30:45Z</time>
      </trkpt>
      <trkpt lat="45.10284" lon="4.54225">
        <ele>1019</ele>
        <time>2018-04-12T07:31:45Z</time>
      </trkpt>
      <trkpt lat="45.10313" lon="4.54249">
        <ele>1018</ele>
        <time>2018-04-12T07:32:45Z</time>
      </trkpt>
      <trkpt lat="45.10327" lon="4.54259">
        <ele>1010</ele>
        <time>2018-04-12T07:33:45Z</time>
      </trkpt>
      <trkpt lat="45.10336" lon="4.54264">
        <ele>1009</ele>
        <time>2018-04-12T07:34:45Z</time>
      </trkpt>
      <trkpt lat="45.10343" lon="4.54266">
        <ele>1007</ele>
        <time>2018-04-12T07:35:45Z</time>
      </trkpt>
      <trkpt lat="45.10348" lon="4.54267">
        <ele>1006</ele>
        <time>2018-04-12T07:36:45Z</time>
      </trkpt>
      <trkpt lat="45.10353" lon="4.54267">
        <ele>1005</ele>
        <time>2018-04-12T07:37:45Z</time>
      </trkpt>
      <trkpt lat="45.10358" lon="4.54267">
        <ele>1005</ele>
        <time>2018-04-12T07:38:45Z</time>
      </trkpt>
      <trkpt lat="45.10362" lon="4.54265">
        <ele>1004</ele>
        <time>2018-04-12T07:39:45Z</time>
      </trkpt>
      <trkpt lat="45.10371" lon="4.54261">
        <ele>1004</ele>
        <time>2018-04-12T07:40:45Z</time>
      </trkpt>
      <trkpt lat="45.10377" lon="4.54256">
        <ele>1003</ele>
        <time>2018-04-12T07:41:45Z</time>
      </trkpt>
      <trkpt lat="45.10393" lon="4.54237">
        <ele>1015</ele>
        <time>2018-04-12T07:42:45Z</time>
      </trkpt>
      <trkpt lat="45.104" lon="4.54228">
        <ele>1015</ele>
        <time>2018-04-12T07:43:45Z</time>
      </trkpt>
      <trkpt lat="45.10411" lon="4.54215">
        <ele>1016</ele>
        <time>2018-04-12T07:44:45Z</time>
      </trkpt>
      <trkpt lat="45.10416" lon="4.5421">
        <ele>1017</ele>
        <time>2018-04-12T07:45:45Z</time>
      </trkpt>
      <trkpt lat="45.10424" lon="4.54204">
        <ele>1012</ele>
        <time>2018-04-12T07:46:45Z</time>
      </trkpt>
      <trkpt lat="45.10431" lon="4.54199">
        <ele>1012</ele>
        <time>2018-04-12T07:47:45Z</time>
      </trkpt>
      <trkpt lat="45.10439" lon="4.54196">
        <ele>1012</ele>
        <time>2018-04-12T07:48:45Z</time>
      </trkpt>
      <trkpt lat="45.10455" lon="4.54192">
        <ele>1011</ele>
        <time>2018-04-12T07:49:45Z</time>
      </trkpt>
      <trkpt lat="45.10463" lon="4.54191">
        <ele>1011</ele>
        <time>2018-04-12T07:50:45Z</time>
      </trkpt>
      <trkpt lat="45.10467" lon="4.5419">
        <ele>1010</ele>
        <time>2018-04-12T07:51:45Z</time>
      </trkpt>
      <trkpt lat="45.10478" lon="4.54191">
        <ele>1010</ele>
        <time>2018-04-12T07:52:45Z</time>
      </trkpt>
      <trkpt lat="45.10491" lon="4.54192">
        <ele>1009</ele>
        <time>2018-04-12T07:53:45Z</time>
      </trkpt>
      <trkpt lat="45.10505" lon="4.54192">
        <ele>1008</ele>
        <time>2018-04-12T07:54:45Z</time>
      </trkpt>
      <trkpt lat="45.10512" lon="4.54192">
        <ele>1008</ele>
        <time>2018-04-12T07:55:45Z</time>
      </trkpt>
      <trkpt lat="45.10518" lon="4.54192">
        <ele>1008</ele>
        <time>2018-04-12T07:56:45Z</time>
      </trkpt>
      <trkpt lat="45.10544" lon="4.54194">
        <ele>1008</ele>
        <time>2018-04-12T07:57:45Z</time>
      </trkpt>
      <trkpt lat="45.10562" lon="4.54196">
        <ele>1008</ele>
        <time>2018-04-12T07:58:45Z</time>
      </trkpt>
      <trkpt lat="45.10578" lon="4.54201">
        <ele>1009</ele>
        <time>2018-04-12T07:59:45Z</time>
      </trkpt>
      <trkpt lat="45.10588" lon="4.54204">
        <ele>1011</ele>
        <time>2018-04-12T08:00:45Z</time>
      </trkpt>
      <trkpt lat="45.10613" lon="4.54211">
        <ele>1012</ele>
        <time>2018-04-12T08:01:45Z</time>
      </trkpt>
      <trkpt lat="45.10626" lon="4.54215">
        <ele>1012</ele>
        <time>2018-04-12T08:02:45Z</time>
      </trkpt>
      <trkpt lat="45.1065" lon="4.54223">
        <ele>1013</ele>
        <time>2018-04-12T08:03:45Z</time>
      </trkpt>
      <trkpt lat="45.10664" lon="4.5423">
        <ele>1013</ele>
        <time>2018-04-12T08:04:45Z</time>
      </trkpt>
      <trkpt lat="45.10664" lon="4.5423">
        <ele>1013</ele>
        <time>2018-04-12T08:05:45Z</time>
      </trkpt>
      <trkpt lat="45.10684" lon="4.54217">
        <ele>1021</ele>
        <time>2018-04-12T08:06:45Z</time>
      </trkpt>
      <trkpt lat="45.10687" lon="4.54228">
        <ele>1020</ele>
        <time>2018-04-12T08:07:45Z</time>
      </trkpt>
      <trkpt lat="45.10699" lon="4.54227">
        <ele>1022</ele>
        <time>2018-04-12T08:08:45Z</time>
      </trkpt>
      <trkpt lat="45.10712" lon="4.5422">
        <ele>1023</ele>
        <time>2018-04-12T08:09:45Z</time>
      </trkpt>
      <trkpt lat="45.10721" lon="4.54223">
        <ele>1024</ele>
        <time>2018-04-12T08:10:45Z</time>
      </trkpt>
      <trkpt lat="45.1074" lon="4.54226">
        <ele>1026</ele>
        <time>2018-04-12T08:11:45Z</time>
      </trkpt>
      <trkpt lat="45.10754" lon="4.54232">
        <ele>1034</ele>
        <time>2018-04-12T08:12:45Z</time>
      </trkpt>
      <trkpt lat="45.10775" lon="4.54237">
        <ele>1037</ele>
        <time>2018-04-12T08:13:45Z</time>
      </trkpt>
      <trkpt lat="45.10798" lon="4.54242">
        <ele>1040</ele>
        <time>2018-04-12T08:14:45Z</time>
      </trkpt>
      <trkpt lat="45.10854" lon="4.54246">
        <ele>1052</ele>
        <time>2018-04-12T08:15:45Z</time>
      </trkpt>
      <trkpt lat="45.10917" lon="4.54214">
        <ele>1060</ele>
        <time>2018-04-12T08:16:45Z</time>
      </trkpt>
    </trkseg>
  </trk>
</gpx>